<?xml version="1.0" encoding="UTF-8" standalone="no" ?>
<gpx xmlns="http://www.topografix.com/GPX/1/1" xmlns:xsi="http://www.w3.org/2001/XMLSchema-instance" xsi:schemaLocation="http://www.topografix.com/GPX/1/1 http://www.topografix.com/GPX/1/1/gpx.xsd" version="1.1" creator="VisuGPX - https://www.visugpx.com">
  <metadata>
    <name>Coudon-Touravelle</name>
    <desc><![CDATA[boucle au départ de baudouvin. montée jusqu’à la moitié du coudon puis descente sur tourris puis touravelle et la source de la ripelle. rien de très difficile, sauf les poussages et surtout le dernier qui est très physique avec un vttae. 2 beaux singles de descente.]]></desc>
  </metadata>
  <trk>
    <name><![CDATA[Coudon touravelle]]></name>
    <trkseg>
      <trkpt lat="43.15181" lon="5.98903">
        <ele>126.4</ele>
        <time>2022-04-04T07:35:41.000Z</time>
      </trkpt>
      <trkpt lat="43.15181" lon="5.98902">
        <ele>126.2</ele>
        <time>2022-04-04T07:35:42.000Z</time>
      </trkpt>
      <trkpt lat="43.15182" lon="5.989">
        <ele>126.2</ele>
        <time>2022-04-04T07:35:48.000Z</time>
      </trkpt>
      <trkpt lat="43.15181" lon="5.98889">
        <ele>126.2</ele>
        <time>2022-04-04T07:35:52.000Z</time>
      </trkpt>
      <trkpt lat="43.1518" lon="5.98886">
        <ele>126.2</ele>
        <time>2022-04-04T07:35:53.000Z</time>
      </trkpt>
      <trkpt lat="43.15175" lon="5.98834">
        <ele>126.4</ele>
        <time>2022-04-04T07:36:07.000Z</time>
      </trkpt>
      <trkpt lat="43.15173" lon="5.98819">
        <ele>126.6</ele>
        <time>2022-04-04T07:36:11.000Z</time>
      </trkpt>
      <trkpt lat="43.1516" lon="5.98806">
        <ele>126.6</ele>
        <time>2022-04-04T07:36:15.000Z</time>
      </trkpt>
      <trkpt lat="43.15155" lon="5.98765">
        <ele>126.8</ele>
        <time>2022-04-04T07:36:24.000Z</time>
      </trkpt>
      <trkpt lat="43.15155" lon="5.98762">
        <ele>126.8</ele>
        <time>2022-04-04T07:36:25.000Z</time>
      </trkpt>
      <trkpt lat="43.15151" lon="5.98753">
        <ele>126.8</ele>
        <time>2022-04-04T07:36:29.000Z</time>
      </trkpt>
      <trkpt lat="43.1515" lon="5.98749">
        <ele>127.8</ele>
        <time>2022-04-04T07:36:35.000Z</time>
      </trkpt>
      <trkpt lat="43.15151" lon="5.98743">
        <ele>128.8</ele>
        <time>2022-04-04T07:36:40.000Z</time>
      </trkpt>
      <trkpt lat="43.15151" lon="5.98736">
        <ele>128.8</ele>
        <time>2022-04-04T07:36:43.000Z</time>
      </trkpt>
      <trkpt lat="43.15151" lon="5.98734">
        <ele>128.8</ele>
        <time>2022-04-04T07:36:44.000Z</time>
      </trkpt>
      <trkpt lat="43.15147" lon="5.98717">
        <ele>130</ele>
        <time>2022-04-04T07:36:51.000Z</time>
      </trkpt>
      <trkpt lat="43.15144" lon="5.98702">
        <ele>131.2</ele>
        <time>2022-04-04T07:36:57.000Z</time>
      </trkpt>
      <trkpt lat="43.15144" lon="5.98693">
        <ele>132.2</ele>
        <time>2022-04-04T07:37:01.000Z</time>
      </trkpt>
      <trkpt lat="43.15144" lon="5.9868">
        <ele>133.4</ele>
        <time>2022-04-04T07:37:06.000Z</time>
      </trkpt>
      <trkpt lat="43.15143" lon="5.98668">
        <ele>134.4</ele>
        <time>2022-04-04T07:37:12.000Z</time>
      </trkpt>
      <trkpt lat="43.15142" lon="5.98654">
        <ele>135.4</ele>
        <time>2022-04-04T07:37:17.000Z</time>
      </trkpt>
      <trkpt lat="43.1514" lon="5.98638">
        <ele>136.6</ele>
        <time>2022-04-04T07:37:23.000Z</time>
      </trkpt>
      <trkpt lat="43.1514" lon="5.98626">
        <ele>137.6</ele>
        <time>2022-04-04T07:37:28.000Z</time>
      </trkpt>
      <trkpt lat="43.1514" lon="5.98612">
        <ele>138.8</ele>
        <time>2022-04-04T07:37:34.000Z</time>
      </trkpt>
      <trkpt lat="43.15141" lon="5.98596">
        <ele>140</ele>
        <time>2022-04-04T07:37:40.000Z</time>
      </trkpt>
      <trkpt lat="43.15143" lon="5.98577">
        <ele>140.8</ele>
        <time>2022-04-04T07:37:47.000Z</time>
      </trkpt>
      <trkpt lat="43.15147" lon="5.98563">
        <ele>142</ele>
        <time>2022-04-04T07:37:53.000Z</time>
      </trkpt>
      <trkpt lat="43.15151" lon="5.98548">
        <ele>143</ele>
        <time>2022-04-04T07:38:00.000Z</time>
      </trkpt>
      <trkpt lat="43.15157" lon="5.98537">
        <ele>144.2</ele>
        <time>2022-04-04T07:38:05.000Z</time>
      </trkpt>
      <trkpt lat="43.15165" lon="5.98525">
        <ele>145.2</ele>
        <time>2022-04-04T07:38:12.000Z</time>
      </trkpt>
      <trkpt lat="43.1517" lon="5.98516">
        <ele>146.4</ele>
        <time>2022-04-04T07:38:17.000Z</time>
      </trkpt>
      <trkpt lat="43.15177" lon="5.98505">
        <ele>147.6</ele>
        <time>2022-04-04T07:38:22.000Z</time>
      </trkpt>
      <trkpt lat="43.15185" lon="5.9849">
        <ele>148.4</ele>
        <time>2022-04-04T07:38:29.000Z</time>
      </trkpt>
      <trkpt lat="43.15187" lon="5.98488">
        <ele>148.4</ele>
        <time>2022-04-04T07:38:30.000Z</time>
      </trkpt>
      <trkpt lat="43.15193" lon="5.98472">
        <ele>149.4</ele>
        <time>2022-04-04T07:38:37.000Z</time>
      </trkpt>
      <trkpt lat="43.15193" lon="5.98469">
        <ele>149.4</ele>
        <time>2022-04-04T07:38:38.000Z</time>
      </trkpt>
      <trkpt lat="43.1518" lon="5.98445">
        <ele>150.4</ele>
        <time>2022-04-04T07:38:49.000Z</time>
      </trkpt>
      <trkpt lat="43.15168" lon="5.98432">
        <ele>151.6</ele>
        <time>2022-04-04T07:38:55.000Z</time>
      </trkpt>
      <trkpt lat="43.15157" lon="5.98425">
        <ele>152.6</ele>
        <time>2022-04-04T07:39:00.000Z</time>
      </trkpt>
      <trkpt lat="43.15153" lon="5.98413">
        <ele>153.4</ele>
        <time>2022-04-04T07:39:05.000Z</time>
      </trkpt>
      <trkpt lat="43.15154" lon="5.98411">
        <ele>153.6</ele>
        <time>2022-04-04T07:39:06.000Z</time>
      </trkpt>
      <trkpt lat="43.1516" lon="5.98409">
        <ele>154</ele>
        <time>2022-04-04T07:39:10.000Z</time>
      </trkpt>
      <trkpt lat="43.15164" lon="5.9841">
        <ele>154.4</ele>
        <time>2022-04-04T07:39:12.000Z</time>
      </trkpt>
      <trkpt lat="43.15174" lon="5.98413">
        <ele>155.4</ele>
        <time>2022-04-04T07:39:18.000Z</time>
      </trkpt>
      <trkpt lat="43.15186" lon="5.98416">
        <ele>156.2</ele>
        <time>2022-04-04T07:39:24.000Z</time>
      </trkpt>
      <trkpt lat="43.15195" lon="5.9842">
        <ele>157.4</ele>
        <time>2022-04-04T07:39:29.000Z</time>
      </trkpt>
      <trkpt lat="43.15204" lon="5.98425">
        <ele>158.4</ele>
        <time>2022-04-04T07:39:35.000Z</time>
      </trkpt>
      <trkpt lat="43.15217" lon="5.9843">
        <ele>159.2</ele>
        <time>2022-04-04T07:39:42.000Z</time>
      </trkpt>
      <trkpt lat="43.15229" lon="5.98438">
        <ele>160.4</ele>
        <time>2022-04-04T07:39:48.000Z</time>
      </trkpt>
      <trkpt lat="43.15236" lon="5.98453">
        <ele>161.4</ele>
        <time>2022-04-04T07:39:55.000Z</time>
      </trkpt>
      <trkpt lat="43.15233" lon="5.98462">
        <ele>162.4</ele>
        <time>2022-04-04T07:39:59.000Z</time>
      </trkpt>
      <trkpt lat="43.15228" lon="5.98474">
        <ele>163.6</ele>
        <time>2022-04-04T07:40:05.000Z</time>
      </trkpt>
      <trkpt lat="43.15224" lon="5.98484">
        <ele>164.8</ele>
        <time>2022-04-04T07:40:10.000Z</time>
      </trkpt>
      <trkpt lat="43.15221" lon="5.98492">
        <ele>165.8</ele>
        <time>2022-04-04T07:40:14.000Z</time>
      </trkpt>
      <trkpt lat="43.15216" lon="5.98504">
        <ele>166.6</ele>
        <time>2022-04-04T07:40:20.000Z</time>
      </trkpt>
      <trkpt lat="43.15211" lon="5.98517">
        <ele>167.8</ele>
        <time>2022-04-04T07:40:26.000Z</time>
      </trkpt>
      <trkpt lat="43.15209" lon="5.98528">
        <ele>169</ele>
        <time>2022-04-04T07:40:31.000Z</time>
      </trkpt>
      <trkpt lat="43.15205" lon="5.98539">
        <ele>170</ele>
        <time>2022-04-04T07:40:36.000Z</time>
      </trkpt>
      <trkpt lat="43.15204" lon="5.98553">
        <ele>171.2</ele>
        <time>2022-04-04T07:40:41.000Z</time>
      </trkpt>
      <trkpt lat="43.15203" lon="5.98575">
        <ele>172.4</ele>
        <time>2022-04-04T07:40:48.000Z</time>
      </trkpt>
      <trkpt lat="43.15206" lon="5.98594">
        <ele>173.4</ele>
        <time>2022-04-04T07:40:54.000Z</time>
      </trkpt>
      <trkpt lat="43.15215" lon="5.9861">
        <ele>174.4</ele>
        <time>2022-04-04T07:41:01.000Z</time>
      </trkpt>
      <trkpt lat="43.15225" lon="5.98621">
        <ele>175.4</ele>
        <time>2022-04-04T07:41:07.000Z</time>
      </trkpt>
      <trkpt lat="43.15234" lon="5.98625">
        <ele>176.6</ele>
        <time>2022-04-04T07:41:12.000Z</time>
      </trkpt>
      <trkpt lat="43.15245" lon="5.98632">
        <ele>177.6</ele>
        <time>2022-04-04T07:41:18.000Z</time>
      </trkpt>
      <trkpt lat="43.15253" lon="5.98632">
        <ele>178.8</ele>
        <time>2022-04-04T07:41:22.000Z</time>
      </trkpt>
      <trkpt lat="43.15255" lon="5.98631">
        <ele>179</ele>
        <time>2022-04-04T07:41:23.000Z</time>
      </trkpt>
      <trkpt lat="43.15262" lon="5.98628">
        <ele>179.8</ele>
        <time>2022-04-04T07:41:27.000Z</time>
      </trkpt>
      <trkpt lat="43.15271" lon="5.98625">
        <ele>181</ele>
        <time>2022-04-04T07:41:32.000Z</time>
      </trkpt>
      <trkpt lat="43.15279" lon="5.98619">
        <ele>182</ele>
        <time>2022-04-04T07:41:37.000Z</time>
      </trkpt>
      <trkpt lat="43.15285" lon="5.98611">
        <ele>183.2</ele>
        <time>2022-04-04T07:41:42.000Z</time>
      </trkpt>
      <trkpt lat="43.15293" lon="5.98604">
        <ele>184.6</ele>
        <time>2022-04-04T07:41:47.000Z</time>
      </trkpt>
      <trkpt lat="43.15303" lon="5.98592">
        <ele>185.8</ele>
        <time>2022-04-04T07:41:53.000Z</time>
      </trkpt>
      <trkpt lat="43.15313" lon="5.98579">
        <ele>186.6</ele>
        <time>2022-04-04T07:41:58.000Z</time>
      </trkpt>
      <trkpt lat="43.15322" lon="5.9856">
        <ele>187.6</ele>
        <time>2022-04-04T07:42:05.000Z</time>
      </trkpt>
      <trkpt lat="43.15328" lon="5.98544">
        <ele>188.6</ele>
        <time>2022-04-04T07:42:11.000Z</time>
      </trkpt>
      <trkpt lat="43.15334" lon="5.98524">
        <ele>189.6</ele>
        <time>2022-04-04T07:42:18.000Z</time>
      </trkpt>
      <trkpt lat="43.15338" lon="5.98512">
        <ele>190.6</ele>
        <time>2022-04-04T07:42:22.000Z</time>
      </trkpt>
      <trkpt lat="43.15344" lon="5.98498">
        <ele>191.8</ele>
        <time>2022-04-04T07:42:27.000Z</time>
      </trkpt>
      <trkpt lat="43.15352" lon="5.98488">
        <ele>193</ele>
        <time>2022-04-04T07:42:32.000Z</time>
      </trkpt>
      <trkpt lat="43.15368" lon="5.98484">
        <ele>194</ele>
        <time>2022-04-04T07:42:40.000Z</time>
      </trkpt>
      <trkpt lat="43.1538" lon="5.98483">
        <ele>195</ele>
        <time>2022-04-04T07:42:45.000Z</time>
      </trkpt>
      <trkpt lat="43.1539" lon="5.98485">
        <ele>196.2</ele>
        <time>2022-04-04T07:42:50.000Z</time>
      </trkpt>
      <trkpt lat="43.15399" lon="5.98487">
        <ele>197.2</ele>
        <time>2022-04-04T07:42:54.000Z</time>
      </trkpt>
      <trkpt lat="43.15407" lon="5.9849">
        <ele>198.2</ele>
        <time>2022-04-04T07:42:58.000Z</time>
      </trkpt>
      <trkpt lat="43.15421" lon="5.98494">
        <ele>199.4</ele>
        <time>2022-04-04T07:43:04.000Z</time>
      </trkpt>
      <trkpt lat="43.15432" lon="5.98498">
        <ele>200.4</ele>
        <time>2022-04-04T07:43:09.000Z</time>
      </trkpt>
      <trkpt lat="43.15441" lon="5.98503">
        <ele>201.4</ele>
        <time>2022-04-04T07:43:14.000Z</time>
      </trkpt>
      <trkpt lat="43.1545" lon="5.98512">
        <ele>202.6</ele>
        <time>2022-04-04T07:43:19.000Z</time>
      </trkpt>
      <trkpt lat="43.15457" lon="5.98519">
        <ele>203.6</ele>
        <time>2022-04-04T07:43:23.000Z</time>
      </trkpt>
      <trkpt lat="43.15461" lon="5.98519">
        <ele>204.2</ele>
        <time>2022-04-04T07:43:25.000Z</time>
      </trkpt>
      <trkpt lat="43.15464" lon="5.98516">
        <ele>205</ele>
        <time>2022-04-04T07:43:27.000Z</time>
      </trkpt>
      <trkpt lat="43.15463" lon="5.98508">
        <ele>206</ele>
        <time>2022-04-04T07:43:30.000Z</time>
      </trkpt>
      <trkpt lat="43.15462" lon="5.98506">
        <ele>206.4</ele>
        <time>2022-04-04T07:43:31.000Z</time>
      </trkpt>
      <trkpt lat="43.15458" lon="5.98499">
        <ele>207.2</ele>
        <time>2022-04-04T07:43:34.000Z</time>
      </trkpt>
      <trkpt lat="43.15452" lon="5.98488">
        <ele>208.2</ele>
        <time>2022-04-04T07:43:39.000Z</time>
      </trkpt>
      <trkpt lat="43.15444" lon="5.98476">
        <ele>209.2</ele>
        <time>2022-04-04T07:43:45.000Z</time>
      </trkpt>
      <trkpt lat="43.15437" lon="5.98464">
        <ele>210.2</ele>
        <time>2022-04-04T07:43:51.000Z</time>
      </trkpt>
      <trkpt lat="43.15431" lon="5.98452">
        <ele>211.2</ele>
        <time>2022-04-04T07:43:57.000Z</time>
      </trkpt>
      <trkpt lat="43.15426" lon="5.9844">
        <ele>212.4</ele>
        <time>2022-04-04T07:44:02.000Z</time>
      </trkpt>
      <trkpt lat="43.15423" lon="5.98431">
        <ele>213.4</ele>
        <time>2022-04-04T07:44:06.000Z</time>
      </trkpt>
      <trkpt lat="43.15419" lon="5.98417">
        <ele>214.6</ele>
        <time>2022-04-04T07:44:11.000Z</time>
      </trkpt>
      <trkpt lat="43.15417" lon="5.98406">
        <ele>215.8</ele>
        <time>2022-04-04T07:44:15.000Z</time>
      </trkpt>
      <trkpt lat="43.15416" lon="5.98395">
        <ele>216.8</ele>
        <time>2022-04-04T07:44:19.000Z</time>
      </trkpt>
      <trkpt lat="43.15415" lon="5.98373">
        <ele>217.8</ele>
        <time>2022-04-04T07:44:26.000Z</time>
      </trkpt>
      <trkpt lat="43.15414" lon="5.98359">
        <ele>219</ele>
        <time>2022-04-04T07:44:31.000Z</time>
      </trkpt>
      <trkpt lat="43.15414" lon="5.98346">
        <ele>220.2</ele>
        <time>2022-04-04T07:44:35.000Z</time>
      </trkpt>
      <trkpt lat="43.15414" lon="5.9833">
        <ele>221.4</ele>
        <time>2022-04-04T07:44:40.000Z</time>
      </trkpt>
      <trkpt lat="43.15412" lon="5.9831">
        <ele>222.4</ele>
        <time>2022-04-04T07:44:46.000Z</time>
      </trkpt>
      <trkpt lat="43.15411" lon="5.98288">
        <ele>223.4</ele>
        <time>2022-04-04T07:44:52.000Z</time>
      </trkpt>
      <trkpt lat="43.15411" lon="5.98271">
        <ele>224.6</ele>
        <time>2022-04-04T07:44:57.000Z</time>
      </trkpt>
      <trkpt lat="43.15411" lon="5.98254">
        <ele>225.6</ele>
        <time>2022-04-04T07:45:02.000Z</time>
      </trkpt>
      <trkpt lat="43.15409" lon="5.98238">
        <ele>226.8</ele>
        <time>2022-04-04T07:45:07.000Z</time>
      </trkpt>
      <trkpt lat="43.15408" lon="5.98222">
        <ele>227.8</ele>
        <time>2022-04-04T07:45:12.000Z</time>
      </trkpt>
      <trkpt lat="43.15407" lon="5.98209">
        <ele>228.6</ele>
        <time>2022-04-04T07:45:16.000Z</time>
      </trkpt>
      <trkpt lat="43.15405" lon="5.9819">
        <ele>229.8</ele>
        <time>2022-04-04T07:45:22.000Z</time>
      </trkpt>
      <trkpt lat="43.15404" lon="5.9817">
        <ele>231</ele>
        <time>2022-04-04T07:45:27.000Z</time>
      </trkpt>
      <trkpt lat="43.15409" lon="5.98146">
        <ele>232</ele>
        <time>2022-04-04T07:45:33.000Z</time>
      </trkpt>
      <trkpt lat="43.15424" lon="5.98143">
        <ele>233.2</ele>
        <time>2022-04-04T07:45:40.000Z</time>
      </trkpt>
      <trkpt lat="43.15435" lon="5.98147">
        <ele>234.2</ele>
        <time>2022-04-04T07:45:46.000Z</time>
      </trkpt>
      <trkpt lat="43.15441" lon="5.98149">
        <ele>235.6</ele>
        <time>2022-04-04T07:45:49.000Z</time>
      </trkpt>
      <trkpt lat="43.15451" lon="5.98151">
        <ele>236.6</ele>
        <time>2022-04-04T07:45:54.000Z</time>
      </trkpt>
      <trkpt lat="43.15458" lon="5.98152">
        <ele>237.8</ele>
        <time>2022-04-04T07:45:58.000Z</time>
      </trkpt>
      <trkpt lat="43.15468" lon="5.98154">
        <ele>238.8</ele>
        <time>2022-04-04T07:46:03.000Z</time>
      </trkpt>
      <trkpt lat="43.15478" lon="5.98154">
        <ele>240</ele>
        <time>2022-04-04T07:46:08.000Z</time>
      </trkpt>
      <trkpt lat="43.15488" lon="5.98156">
        <ele>241</ele>
        <time>2022-04-04T07:46:13.000Z</time>
      </trkpt>
      <trkpt lat="43.15499" lon="5.98161">
        <ele>242.2</ele>
        <time>2022-04-04T07:46:18.000Z</time>
      </trkpt>
      <trkpt lat="43.15507" lon="5.98167">
        <ele>243.2</ele>
        <time>2022-04-04T07:46:22.000Z</time>
      </trkpt>
      <trkpt lat="43.15518" lon="5.98179">
        <ele>244.4</ele>
        <time>2022-04-04T07:46:28.000Z</time>
      </trkpt>
      <trkpt lat="43.15525" lon="5.9819">
        <ele>245.6</ele>
        <time>2022-04-04T07:46:33.000Z</time>
      </trkpt>
      <trkpt lat="43.15533" lon="5.982">
        <ele>246.8</ele>
        <time>2022-04-04T07:46:38.000Z</time>
      </trkpt>
      <trkpt lat="43.15552" lon="5.98222">
        <ele>247.8</ele>
        <time>2022-04-04T07:46:46.000Z</time>
      </trkpt>
      <trkpt lat="43.15574" lon="5.98254">
        <ele>248.8</ele>
        <time>2022-04-04T07:46:57.000Z</time>
      </trkpt>
      <trkpt lat="43.15582" lon="5.98273">
        <ele>250</ele>
        <time>2022-04-04T07:47:03.000Z</time>
      </trkpt>
      <trkpt lat="43.15584" lon="5.98281">
        <ele>250.6</ele>
        <time>2022-04-04T07:47:06.000Z</time>
      </trkpt>
      <trkpt lat="43.15587" lon="5.9829">
        <ele>251.2</ele>
        <time>2022-04-04T07:47:09.000Z</time>
      </trkpt>
      <trkpt lat="43.15592" lon="5.98304">
        <ele>252.2</ele>
        <time>2022-04-04T07:47:14.000Z</time>
      </trkpt>
      <trkpt lat="43.15597" lon="5.98315">
        <ele>253.6</ele>
        <time>2022-04-04T07:47:18.000Z</time>
      </trkpt>
      <trkpt lat="43.15602" lon="5.98326">
        <ele>254.8</ele>
        <time>2022-04-04T07:47:22.000Z</time>
      </trkpt>
      <trkpt lat="43.15607" lon="5.98333">
        <ele>255.8</ele>
        <time>2022-04-04T07:47:25.000Z</time>
      </trkpt>
      <trkpt lat="43.15613" lon="5.98344">
        <ele>257</ele>
        <time>2022-04-04T07:47:29.000Z</time>
      </trkpt>
      <trkpt lat="43.1562" lon="5.98355">
        <ele>258.2</ele>
        <time>2022-04-04T07:47:33.000Z</time>
      </trkpt>
      <trkpt lat="43.15633" lon="5.98367">
        <ele>259.4</ele>
        <time>2022-04-04T07:47:39.000Z</time>
      </trkpt>
      <trkpt lat="43.15653" lon="5.98367">
        <ele>260.4</ele>
        <time>2022-04-04T07:47:46.000Z</time>
      </trkpt>
      <trkpt lat="43.15679" lon="5.98351">
        <ele>261.4</ele>
        <time>2022-04-04T07:47:58.000Z</time>
      </trkpt>
      <trkpt lat="43.15691" lon="5.98336">
        <ele>262.6</ele>
        <time>2022-04-04T07:48:04.000Z</time>
      </trkpt>
      <trkpt lat="43.15691" lon="5.98291">
        <ele>263.6</ele>
        <time>2022-04-04T07:48:15.000Z</time>
      </trkpt>
      <trkpt lat="43.15721" lon="5.98235">
        <ele>263.6</ele>
        <time>2022-04-04T07:48:28.000Z</time>
      </trkpt>
      <trkpt lat="43.15721" lon="5.98207">
        <ele>263.4</ele>
        <time>2022-04-04T07:48:33.000Z</time>
      </trkpt>
      <trkpt lat="43.15699" lon="5.98151">
        <ele>262.8</ele>
        <time>2022-04-04T07:48:46.000Z</time>
      </trkpt>
      <trkpt lat="43.15674" lon="5.98085">
        <ele>263</ele>
        <time>2022-04-04T07:49:02.000Z</time>
      </trkpt>
      <trkpt lat="43.15665" lon="5.98011">
        <ele>262.6</ele>
        <time>2022-04-04T07:49:14.000Z</time>
      </trkpt>
      <trkpt lat="43.15663" lon="5.98">
        <ele>262.4</ele>
        <time>2022-04-04T07:49:16.000Z</time>
      </trkpt>
      <trkpt lat="43.15651" lon="5.97929">
        <ele>262.6</ele>
        <time>2022-04-04T07:49:34.000Z</time>
      </trkpt>
      <trkpt lat="43.15651" lon="5.97912">
        <ele>263.4</ele>
        <time>2022-04-04T07:49:40.000Z</time>
      </trkpt>
      <trkpt lat="43.15659" lon="5.97914">
        <ele>264</ele>
        <time>2022-04-04T07:49:47.000Z</time>
      </trkpt>
      <trkpt lat="43.15661" lon="5.97924">
        <ele>264.6</ele>
        <time>2022-04-04T07:49:51.000Z</time>
      </trkpt>
      <trkpt lat="43.15664" lon="5.97943">
        <ele>265.8</ele>
        <time>2022-04-04T07:49:57.000Z</time>
      </trkpt>
      <trkpt lat="43.15668" lon="5.97966">
        <ele>266.8</ele>
        <time>2022-04-04T07:50:03.000Z</time>
      </trkpt>
      <trkpt lat="43.1567" lon="5.97969">
        <ele>267</ele>
        <time>2022-04-04T07:50:04.000Z</time>
      </trkpt>
      <trkpt lat="43.15681" lon="5.97955">
        <ele>267.8</ele>
        <time>2022-04-04T07:50:12.000Z</time>
      </trkpt>
      <trkpt lat="43.1568" lon="5.97946">
        <ele>268</ele>
        <time>2022-04-04T07:50:14.000Z</time>
      </trkpt>
      <trkpt lat="43.1569" lon="5.97924">
        <ele>269</ele>
        <time>2022-04-04T07:50:21.000Z</time>
      </trkpt>
      <trkpt lat="43.15701" lon="5.97924">
        <ele>270.2</ele>
        <time>2022-04-04T07:50:26.000Z</time>
      </trkpt>
      <trkpt lat="43.1571" lon="5.97921">
        <ele>271.4</ele>
        <time>2022-04-04T07:50:30.000Z</time>
      </trkpt>
      <trkpt lat="43.15718" lon="5.97915">
        <ele>272.6</ele>
        <time>2022-04-04T07:50:34.000Z</time>
      </trkpt>
      <trkpt lat="43.15724" lon="5.97907">
        <ele>273.8</ele>
        <time>2022-04-04T07:50:38.000Z</time>
      </trkpt>
      <trkpt lat="43.15731" lon="5.979">
        <ele>274.8</ele>
        <time>2022-04-04T07:50:42.000Z</time>
      </trkpt>
      <trkpt lat="43.15739" lon="5.97891">
        <ele>276</ele>
        <time>2022-04-04T07:50:47.000Z</time>
      </trkpt>
      <trkpt lat="43.15746" lon="5.97884">
        <ele>277</ele>
        <time>2022-04-04T07:50:51.000Z</time>
      </trkpt>
      <trkpt lat="43.15753" lon="5.97877">
        <ele>278.2</ele>
        <time>2022-04-04T07:50:55.000Z</time>
      </trkpt>
      <trkpt lat="43.1576" lon="5.97868">
        <ele>279.4</ele>
        <time>2022-04-04T07:50:59.000Z</time>
      </trkpt>
      <trkpt lat="43.15767" lon="5.97858">
        <ele>280.6</ele>
        <time>2022-04-04T07:51:03.000Z</time>
      </trkpt>
      <trkpt lat="43.15776" lon="5.97848">
        <ele>281.4</ele>
        <time>2022-04-04T07:51:08.000Z</time>
      </trkpt>
      <trkpt lat="43.15783" lon="5.97839">
        <ele>282.4</ele>
        <time>2022-04-04T07:51:12.000Z</time>
      </trkpt>
      <trkpt lat="43.15789" lon="5.97825">
        <ele>283.4</ele>
        <time>2022-04-04T07:51:17.000Z</time>
      </trkpt>
      <trkpt lat="43.15793" lon="5.9781">
        <ele>284.4</ele>
        <time>2022-04-04T07:51:22.000Z</time>
      </trkpt>
      <trkpt lat="43.15797" lon="5.97792">
        <ele>285.6</ele>
        <time>2022-04-04T07:51:28.000Z</time>
      </trkpt>
      <trkpt lat="43.15799" lon="5.9778">
        <ele>287</ele>
        <time>2022-04-04T07:51:32.000Z</time>
      </trkpt>
      <trkpt lat="43.15804" lon="5.97762">
        <ele>288.2</ele>
        <time>2022-04-04T07:51:38.000Z</time>
      </trkpt>
      <trkpt lat="43.15811" lon="5.97755">
        <ele>289.4</ele>
        <time>2022-04-04T07:51:42.000Z</time>
      </trkpt>
      <trkpt lat="43.15823" lon="5.97753">
        <ele>290.6</ele>
        <time>2022-04-04T07:51:48.000Z</time>
      </trkpt>
      <trkpt lat="43.15834" lon="5.97752">
        <ele>291.8</ele>
        <time>2022-04-04T07:51:53.000Z</time>
      </trkpt>
      <trkpt lat="43.15844" lon="5.9775">
        <ele>293</ele>
        <time>2022-04-04T07:51:58.000Z</time>
      </trkpt>
      <trkpt lat="43.15855" lon="5.97748">
        <ele>294.2</ele>
        <time>2022-04-04T07:52:03.000Z</time>
      </trkpt>
      <trkpt lat="43.15862" lon="5.97747">
        <ele>295.2</ele>
        <time>2022-04-04T07:52:06.000Z</time>
      </trkpt>
      <trkpt lat="43.15871" lon="5.9775">
        <ele>296.4</ele>
        <time>2022-04-04T07:52:10.000Z</time>
      </trkpt>
      <trkpt lat="43.1588" lon="5.97754">
        <ele>297.2</ele>
        <time>2022-04-04T07:52:14.000Z</time>
      </trkpt>
      <trkpt lat="43.15882" lon="5.97755">
        <ele>297.4</ele>
        <time>2022-04-04T07:52:15.000Z</time>
      </trkpt>
      <trkpt lat="43.1589" lon="5.97759">
        <ele>298.4</ele>
        <time>2022-04-04T07:52:19.000Z</time>
      </trkpt>
      <trkpt lat="43.159" lon="5.97765">
        <ele>299.4</ele>
        <time>2022-04-04T07:52:24.000Z</time>
      </trkpt>
      <trkpt lat="43.15906" lon="5.97768">
        <ele>300.6</ele>
        <time>2022-04-04T07:52:27.000Z</time>
      </trkpt>
      <trkpt lat="43.15914" lon="5.97772">
        <ele>301.8</ele>
        <time>2022-04-04T07:52:31.000Z</time>
      </trkpt>
      <trkpt lat="43.15922" lon="5.97776">
        <ele>303</ele>
        <time>2022-04-04T07:52:35.000Z</time>
      </trkpt>
      <trkpt lat="43.15931" lon="5.97779">
        <ele>304.4</ele>
        <time>2022-04-04T07:52:39.000Z</time>
      </trkpt>
      <trkpt lat="43.15938" lon="5.97779">
        <ele>305.4</ele>
        <time>2022-04-04T07:52:42.000Z</time>
      </trkpt>
      <trkpt lat="43.15947" lon="5.97773">
        <ele>306.6</ele>
        <time>2022-04-04T07:52:47.000Z</time>
      </trkpt>
      <trkpt lat="43.15955" lon="5.97764">
        <ele>307.8</ele>
        <time>2022-04-04T07:52:52.000Z</time>
      </trkpt>
      <trkpt lat="43.15961" lon="5.97756">
        <ele>308.8</ele>
        <time>2022-04-04T07:52:56.000Z</time>
      </trkpt>
      <trkpt lat="43.15969" lon="5.97745">
        <ele>310</ele>
        <time>2022-04-04T07:53:01.000Z</time>
      </trkpt>
      <trkpt lat="43.15977" lon="5.97734">
        <ele>311.4</ele>
        <time>2022-04-04T07:53:06.000Z</time>
      </trkpt>
      <trkpt lat="43.15984" lon="5.97724">
        <ele>312.4</ele>
        <time>2022-04-04T07:53:11.000Z</time>
      </trkpt>
      <trkpt lat="43.15991" lon="5.97716">
        <ele>313.6</ele>
        <time>2022-04-04T07:53:15.000Z</time>
      </trkpt>
      <trkpt lat="43.15998" lon="5.97706">
        <ele>314.6</ele>
        <time>2022-04-04T07:53:20.000Z</time>
      </trkpt>
      <trkpt lat="43.16008" lon="5.97695">
        <ele>315.8</ele>
        <time>2022-04-04T07:53:26.000Z</time>
      </trkpt>
      <trkpt lat="43.16016" lon="5.97685">
        <ele>317</ele>
        <time>2022-04-04T07:53:31.000Z</time>
      </trkpt>
      <trkpt lat="43.16025" lon="5.97676">
        <ele>318.2</ele>
        <time>2022-04-04T07:53:36.000Z</time>
      </trkpt>
      <trkpt lat="43.16033" lon="5.97667">
        <ele>319.4</ele>
        <time>2022-04-04T07:53:41.000Z</time>
      </trkpt>
      <trkpt lat="43.16042" lon="5.97658">
        <ele>320.8</ele>
        <time>2022-04-04T07:53:46.000Z</time>
      </trkpt>
      <trkpt lat="43.16049" lon="5.97652">
        <ele>322</ele>
        <time>2022-04-04T07:53:50.000Z</time>
      </trkpt>
      <trkpt lat="43.16059" lon="5.9764">
        <ele>323.2</ele>
        <time>2022-04-04T07:53:56.000Z</time>
      </trkpt>
      <trkpt lat="43.16066" lon="5.97626">
        <ele>324.2</ele>
        <time>2022-04-04T07:54:01.000Z</time>
      </trkpt>
      <trkpt lat="43.1607" lon="5.97613">
        <ele>325.4</ele>
        <time>2022-04-04T07:54:05.000Z</time>
      </trkpt>
      <trkpt lat="43.16074" lon="5.97598">
        <ele>326.4</ele>
        <time>2022-04-04T07:54:10.000Z</time>
      </trkpt>
      <trkpt lat="43.16079" lon="5.97582">
        <ele>327.6</ele>
        <time>2022-04-04T07:54:15.000Z</time>
      </trkpt>
      <trkpt lat="43.1609" lon="5.97569">
        <ele>328.6</ele>
        <time>2022-04-04T07:54:21.000Z</time>
      </trkpt>
      <trkpt lat="43.16092" lon="5.97571">
        <ele>328.8</ele>
        <time>2022-04-04T07:54:22.000Z</time>
      </trkpt>
      <trkpt lat="43.16091" lon="5.97588">
        <ele>329.4</ele>
        <time>2022-04-04T07:54:27.000Z</time>
      </trkpt>
      <trkpt lat="43.16088" lon="5.97601">
        <ele>329.8</ele>
        <time>2022-04-04T07:54:30.000Z</time>
      </trkpt>
      <trkpt lat="43.16079" lon="5.9763">
        <ele>330.8</ele>
        <time>2022-04-04T07:54:37.000Z</time>
      </trkpt>
      <trkpt lat="43.16072" lon="5.97655">
        <ele>331.8</ele>
        <time>2022-04-04T07:54:44.000Z</time>
      </trkpt>
      <trkpt lat="43.16067" lon="5.97672">
        <ele>332.8</ele>
        <time>2022-04-04T07:54:50.000Z</time>
      </trkpt>
      <trkpt lat="43.16063" lon="5.97686">
        <ele>333.8</ele>
        <time>2022-04-04T07:54:55.000Z</time>
      </trkpt>
      <trkpt lat="43.1606" lon="5.97697">
        <ele>335</ele>
        <time>2022-04-04T07:54:59.000Z</time>
      </trkpt>
      <trkpt lat="43.16056" lon="5.97708">
        <ele>336.2</ele>
        <time>2022-04-04T07:55:03.000Z</time>
      </trkpt>
      <trkpt lat="43.16052" lon="5.97722">
        <ele>337.2</ele>
        <time>2022-04-04T07:55:08.000Z</time>
      </trkpt>
      <trkpt lat="43.16049" lon="5.97732">
        <ele>338.2</ele>
        <time>2022-04-04T07:55:12.000Z</time>
      </trkpt>
      <trkpt lat="43.16044" lon="5.97745">
        <ele>339.4</ele>
        <time>2022-04-04T07:55:17.000Z</time>
      </trkpt>
      <trkpt lat="43.16041" lon="5.97755">
        <ele>340.6</ele>
        <time>2022-04-04T07:55:21.000Z</time>
      </trkpt>
      <trkpt lat="43.16037" lon="5.97768">
        <ele>341.8</ele>
        <time>2022-04-04T07:55:26.000Z</time>
      </trkpt>
      <trkpt lat="43.16034" lon="5.97781">
        <ele>342.8</ele>
        <time>2022-04-04T07:55:31.000Z</time>
      </trkpt>
      <trkpt lat="43.16033" lon="5.97794">
        <ele>344</ele>
        <time>2022-04-04T07:55:36.000Z</time>
      </trkpt>
      <trkpt lat="43.16033" lon="5.97811">
        <ele>345.2</ele>
        <time>2022-04-04T07:55:42.000Z</time>
      </trkpt>
      <trkpt lat="43.16035" lon="5.97828">
        <ele>346.4</ele>
        <time>2022-04-04T07:55:48.000Z</time>
      </trkpt>
      <trkpt lat="43.16037" lon="5.97841">
        <ele>347.4</ele>
        <time>2022-04-04T07:55:53.000Z</time>
      </trkpt>
      <trkpt lat="43.16039" lon="5.97854">
        <ele>348.4</ele>
        <time>2022-04-04T07:55:58.000Z</time>
      </trkpt>
      <trkpt lat="43.16041" lon="5.97867">
        <ele>349.8</ele>
        <time>2022-04-04T07:56:03.000Z</time>
      </trkpt>
      <trkpt lat="43.16041" lon="5.97878">
        <ele>350.8</ele>
        <time>2022-04-04T07:56:07.000Z</time>
      </trkpt>
      <trkpt lat="43.1604" lon="5.97895">
        <ele>352</ele>
        <time>2022-04-04T07:56:13.000Z</time>
      </trkpt>
      <trkpt lat="43.16039" lon="5.97911">
        <ele>353</ele>
        <time>2022-04-04T07:56:19.000Z</time>
      </trkpt>
      <trkpt lat="43.16038" lon="5.97922">
        <ele>354.2</ele>
        <time>2022-04-04T07:56:23.000Z</time>
      </trkpt>
      <trkpt lat="43.16036" lon="5.97936">
        <ele>355.2</ele>
        <time>2022-04-04T07:56:28.000Z</time>
      </trkpt>
      <trkpt lat="43.16032" lon="5.9795">
        <ele>356.4</ele>
        <time>2022-04-04T07:56:33.000Z</time>
      </trkpt>
      <trkpt lat="43.16029" lon="5.9796">
        <ele>357.6</ele>
        <time>2022-04-04T07:56:37.000Z</time>
      </trkpt>
      <trkpt lat="43.16026" lon="5.9797">
        <ele>358.6</ele>
        <time>2022-04-04T07:56:41.000Z</time>
      </trkpt>
      <trkpt lat="43.16022" lon="5.97979">
        <ele>359.6</ele>
        <time>2022-04-04T07:56:45.000Z</time>
      </trkpt>
      <trkpt lat="43.16016" lon="5.97994">
        <ele>360.8</ele>
        <time>2022-04-04T07:56:51.000Z</time>
      </trkpt>
      <trkpt lat="43.16009" lon="5.98007">
        <ele>361.8</ele>
        <time>2022-04-04T07:56:57.000Z</time>
      </trkpt>
      <trkpt lat="43.16004" lon="5.98017">
        <ele>362.8</ele>
        <time>2022-04-04T07:57:01.000Z</time>
      </trkpt>
      <trkpt lat="43.16" lon="5.9803">
        <ele>364</ele>
        <time>2022-04-04T07:57:06.000Z</time>
      </trkpt>
      <trkpt lat="43.15997" lon="5.9804">
        <ele>365</ele>
        <time>2022-04-04T07:57:10.000Z</time>
      </trkpt>
      <trkpt lat="43.15992" lon="5.98056">
        <ele>366.4</ele>
        <time>2022-04-04T07:57:16.000Z</time>
      </trkpt>
      <trkpt lat="43.15988" lon="5.98068">
        <ele>367.8</ele>
        <time>2022-04-04T07:57:21.000Z</time>
      </trkpt>
      <trkpt lat="43.15985" lon="5.98079">
        <ele>368.8</ele>
        <time>2022-04-04T07:57:25.000Z</time>
      </trkpt>
      <trkpt lat="43.15982" lon="5.98093">
        <ele>370</ele>
        <time>2022-04-04T07:57:30.000Z</time>
      </trkpt>
      <trkpt lat="43.1598" lon="5.98101">
        <ele>371</ele>
        <time>2022-04-04T07:57:33.000Z</time>
      </trkpt>
      <trkpt lat="43.1598" lon="5.98114">
        <ele>372.2</ele>
        <time>2022-04-04T07:57:38.000Z</time>
      </trkpt>
      <trkpt lat="43.15981" lon="5.98128">
        <ele>373.2</ele>
        <time>2022-04-04T07:57:43.000Z</time>
      </trkpt>
      <trkpt lat="43.15982" lon="5.98145">
        <ele>374.2</ele>
        <time>2022-04-04T07:57:49.000Z</time>
      </trkpt>
      <trkpt lat="43.15983" lon="5.98154">
        <ele>375.2</ele>
        <time>2022-04-04T07:57:52.000Z</time>
      </trkpt>
      <trkpt lat="43.15983" lon="5.98165">
        <ele>376.4</ele>
        <time>2022-04-04T07:57:56.000Z</time>
      </trkpt>
      <trkpt lat="43.15985" lon="5.98178">
        <ele>377.4</ele>
        <time>2022-04-04T07:58:01.000Z</time>
      </trkpt>
      <trkpt lat="43.15986" lon="5.9819">
        <ele>378.4</ele>
        <time>2022-04-04T07:58:06.000Z</time>
      </trkpt>
      <trkpt lat="43.15988" lon="5.98203">
        <ele>379.6</ele>
        <time>2022-04-04T07:58:11.000Z</time>
      </trkpt>
      <trkpt lat="43.15991" lon="5.98212">
        <ele>380.6</ele>
        <time>2022-04-04T07:58:15.000Z</time>
      </trkpt>
      <trkpt lat="43.15995" lon="5.98227">
        <ele>382.2</ele>
        <time>2022-04-04T07:58:21.000Z</time>
      </trkpt>
      <trkpt lat="43.15997" lon="5.98238">
        <ele>383.2</ele>
        <time>2022-04-04T07:58:25.000Z</time>
      </trkpt>
      <trkpt lat="43.16001" lon="5.98254">
        <ele>384.4</ele>
        <time>2022-04-04T07:58:31.000Z</time>
      </trkpt>
      <trkpt lat="43.16003" lon="5.9827">
        <ele>385.4</ele>
        <time>2022-04-04T07:58:37.000Z</time>
      </trkpt>
      <trkpt lat="43.16003" lon="5.98284">
        <ele>387</ele>
        <time>2022-04-04T07:58:42.000Z</time>
      </trkpt>
      <trkpt lat="43.16002" lon="5.98299">
        <ele>388.2</ele>
        <time>2022-04-04T07:58:47.000Z</time>
      </trkpt>
      <trkpt lat="43.16001" lon="5.9831">
        <ele>389.4</ele>
        <time>2022-04-04T07:58:51.000Z</time>
      </trkpt>
      <trkpt lat="43.16" lon="5.98319">
        <ele>390.8</ele>
        <time>2022-04-04T07:58:54.000Z</time>
      </trkpt>
      <trkpt lat="43.15999" lon="5.9833">
        <ele>391.8</ele>
        <time>2022-04-04T07:58:58.000Z</time>
      </trkpt>
      <trkpt lat="43.15997" lon="5.98342">
        <ele>393.2</ele>
        <time>2022-04-04T07:59:02.000Z</time>
      </trkpt>
      <trkpt lat="43.15996" lon="5.98356">
        <ele>394.2</ele>
        <time>2022-04-04T07:59:07.000Z</time>
      </trkpt>
      <trkpt lat="43.15995" lon="5.9837">
        <ele>395.4</ele>
        <time>2022-04-04T07:59:12.000Z</time>
      </trkpt>
      <trkpt lat="43.15995" lon="5.98389">
        <ele>396.4</ele>
        <time>2022-04-04T07:59:18.000Z</time>
      </trkpt>
      <trkpt lat="43.15997" lon="5.98407">
        <ele>397.8</ele>
        <time>2022-04-04T07:59:24.000Z</time>
      </trkpt>
      <trkpt lat="43.15999" lon="5.98419">
        <ele>398.8</ele>
        <time>2022-04-04T07:59:28.000Z</time>
      </trkpt>
      <trkpt lat="43.16002" lon="5.98432">
        <ele>400.2</ele>
        <time>2022-04-04T07:59:33.000Z</time>
      </trkpt>
      <trkpt lat="43.16005" lon="5.98446">
        <ele>401.2</ele>
        <time>2022-04-04T07:59:38.000Z</time>
      </trkpt>
      <trkpt lat="43.16009" lon="5.98461">
        <ele>402.4</ele>
        <time>2022-04-04T07:59:43.000Z</time>
      </trkpt>
      <trkpt lat="43.16014" lon="5.98475">
        <ele>403.6</ele>
        <time>2022-04-04T07:59:48.000Z</time>
      </trkpt>
      <trkpt lat="43.16016" lon="5.98496">
        <ele>404.6</ele>
        <time>2022-04-04T07:59:54.000Z</time>
      </trkpt>
      <trkpt lat="43.16012" lon="5.98518">
        <ele>406</ele>
        <time>2022-04-04T07:59:59.000Z</time>
      </trkpt>
      <trkpt lat="43.16008" lon="5.98532">
        <ele>406.6</ele>
        <time>2022-04-04T08:00:02.000Z</time>
      </trkpt>
      <trkpt lat="43.16002" lon="5.9855">
        <ele>407</ele>
        <time>2022-04-04T08:00:06.000Z</time>
      </trkpt>
      <trkpt lat="43.15991" lon="5.98575">
        <ele>408</ele>
        <time>2022-04-04T08:00:16.000Z</time>
      </trkpt>
      <trkpt lat="43.15991" lon="5.98575">
        <ele>408.6</ele>
        <time>2022-04-04T08:00:33.000Z</time>
      </trkpt>
      <trkpt lat="43.15992" lon="5.98575">
        <ele>408.8</ele>
        <time>2022-04-04T08:00:48.000Z</time>
      </trkpt>
      <trkpt lat="43.16005" lon="5.98584">
        <ele>408.8</ele>
        <time>2022-04-04T08:00:59.000Z</time>
      </trkpt>
      <trkpt lat="43.16014" lon="5.98566">
        <ele>408.8</ele>
        <time>2022-04-04T08:01:04.000Z</time>
      </trkpt>
      <trkpt lat="43.16026" lon="5.98522">
        <ele>409.4</ele>
        <time>2022-04-04T08:01:14.000Z</time>
      </trkpt>
      <trkpt lat="43.1603" lon="5.98508">
        <ele>410.6</ele>
        <time>2022-04-04T08:01:18.000Z</time>
      </trkpt>
      <trkpt lat="43.16034" lon="5.98495">
        <ele>411.6</ele>
        <time>2022-04-04T08:01:22.000Z</time>
      </trkpt>
      <trkpt lat="43.16038" lon="5.98482">
        <ele>412.8</ele>
        <time>2022-04-04T08:01:26.000Z</time>
      </trkpt>
      <trkpt lat="43.16041" lon="5.9847">
        <ele>414</ele>
        <time>2022-04-04T08:01:30.000Z</time>
      </trkpt>
      <trkpt lat="43.16044" lon="5.98458">
        <ele>415.2</ele>
        <time>2022-04-04T08:01:34.000Z</time>
      </trkpt>
      <trkpt lat="43.16047" lon="5.98447">
        <ele>416.4</ele>
        <time>2022-04-04T08:01:38.000Z</time>
      </trkpt>
      <trkpt lat="43.16053" lon="5.98433">
        <ele>417.8</ele>
        <time>2022-04-04T08:01:43.000Z</time>
      </trkpt>
      <trkpt lat="43.16058" lon="5.9842">
        <ele>419</ele>
        <time>2022-04-04T08:01:48.000Z</time>
      </trkpt>
      <trkpt lat="43.16061" lon="5.98412">
        <ele>420</ele>
        <time>2022-04-04T08:01:51.000Z</time>
      </trkpt>
      <trkpt lat="43.16067" lon="5.98399">
        <ele>421.4</ele>
        <time>2022-04-04T08:01:56.000Z</time>
      </trkpt>
      <trkpt lat="43.16073" lon="5.98386">
        <ele>422.4</ele>
        <time>2022-04-04T08:02:01.000Z</time>
      </trkpt>
      <trkpt lat="43.1608" lon="5.9837">
        <ele>423.6</ele>
        <time>2022-04-04T08:02:07.000Z</time>
      </trkpt>
      <trkpt lat="43.16085" lon="5.98361">
        <ele>424.6</ele>
        <time>2022-04-04T08:02:11.000Z</time>
      </trkpt>
      <trkpt lat="43.16091" lon="5.98348">
        <ele>425.8</ele>
        <time>2022-04-04T08:02:16.000Z</time>
      </trkpt>
      <trkpt lat="43.16098" lon="5.98333">
        <ele>427</ele>
        <time>2022-04-04T08:02:22.000Z</time>
      </trkpt>
      <trkpt lat="43.16103" lon="5.98323">
        <ele>428.2</ele>
        <time>2022-04-04T08:02:26.000Z</time>
      </trkpt>
      <trkpt lat="43.16109" lon="5.9831">
        <ele>429.2</ele>
        <time>2022-04-04T08:02:31.000Z</time>
      </trkpt>
      <trkpt lat="43.16114" lon="5.98298">
        <ele>430.4</ele>
        <time>2022-04-04T08:02:36.000Z</time>
      </trkpt>
      <trkpt lat="43.1612" lon="5.98286">
        <ele>431.6</ele>
        <time>2022-04-04T08:02:41.000Z</time>
      </trkpt>
      <trkpt lat="43.16124" lon="5.98276">
        <ele>432.8</ele>
        <time>2022-04-04T08:02:45.000Z</time>
      </trkpt>
      <trkpt lat="43.16131" lon="5.9826">
        <ele>433.8</ele>
        <time>2022-04-04T08:02:51.000Z</time>
      </trkpt>
      <trkpt lat="43.16136" lon="5.98248">
        <ele>435</ele>
        <time>2022-04-04T08:02:56.000Z</time>
      </trkpt>
      <trkpt lat="43.16141" lon="5.98238">
        <ele>436</ele>
        <time>2022-04-04T08:03:00.000Z</time>
      </trkpt>
      <trkpt lat="43.16144" lon="5.98227">
        <ele>437.2</ele>
        <time>2022-04-04T08:03:04.000Z</time>
      </trkpt>
      <trkpt lat="43.16151" lon="5.98215">
        <ele>438.4</ele>
        <time>2022-04-04T08:03:09.000Z</time>
      </trkpt>
      <trkpt lat="43.16155" lon="5.98205">
        <ele>439.6</ele>
        <time>2022-04-04T08:03:13.000Z</time>
      </trkpt>
      <trkpt lat="43.16162" lon="5.9819">
        <ele>440.6</ele>
        <time>2022-04-04T08:03:19.000Z</time>
      </trkpt>
      <trkpt lat="43.16167" lon="5.98176">
        <ele>441.8</ele>
        <time>2022-04-04T08:03:24.000Z</time>
      </trkpt>
      <trkpt lat="43.1617" lon="5.98162">
        <ele>443</ele>
        <time>2022-04-04T08:03:29.000Z</time>
      </trkpt>
      <trkpt lat="43.16174" lon="5.98151">
        <ele>444</ele>
        <time>2022-04-04T08:03:33.000Z</time>
      </trkpt>
      <trkpt lat="43.16177" lon="5.98143">
        <ele>445.2</ele>
        <time>2022-04-04T08:03:36.000Z</time>
      </trkpt>
      <trkpt lat="43.16183" lon="5.98128">
        <ele>446.6</ele>
        <time>2022-04-04T08:03:42.000Z</time>
      </trkpt>
      <trkpt lat="43.16192" lon="5.98118">
        <ele>447.6</ele>
        <time>2022-04-04T08:03:47.000Z</time>
      </trkpt>
      <trkpt lat="43.16201" lon="5.9811">
        <ele>448.8</ele>
        <time>2022-04-04T08:03:52.000Z</time>
      </trkpt>
      <trkpt lat="43.16208" lon="5.98101">
        <ele>449.8</ele>
        <time>2022-04-04T08:03:56.000Z</time>
      </trkpt>
      <trkpt lat="43.1622" lon="5.9808">
        <ele>450.8</ele>
        <time>2022-04-04T08:04:04.000Z</time>
      </trkpt>
      <trkpt lat="43.16229" lon="5.98062">
        <ele>451.8</ele>
        <time>2022-04-04T08:04:10.000Z</time>
      </trkpt>
      <trkpt lat="43.16247" lon="5.98037">
        <ele>452.8</ele>
        <time>2022-04-04T08:04:19.000Z</time>
      </trkpt>
      <trkpt lat="43.16252" lon="5.98036">
        <ele>453</ele>
        <time>2022-04-04T08:04:21.000Z</time>
      </trkpt>
      <trkpt lat="43.1625" lon="5.98066">
        <ele>453.4</ele>
        <time>2022-04-04T08:04:30.000Z</time>
      </trkpt>
      <trkpt lat="43.16245" lon="5.98075">
        <ele>454</ele>
        <time>2022-04-04T08:04:33.000Z</time>
      </trkpt>
      <trkpt lat="43.16235" lon="5.98093">
        <ele>455.4</ele>
        <time>2022-04-04T08:04:39.000Z</time>
      </trkpt>
      <trkpt lat="43.16228" lon="5.98107">
        <ele>456.4</ele>
        <time>2022-04-04T08:04:44.000Z</time>
      </trkpt>
      <trkpt lat="43.16221" lon="5.98132">
        <ele>457.6</ele>
        <time>2022-04-04T08:04:52.000Z</time>
      </trkpt>
      <trkpt lat="43.16216" lon="5.98152">
        <ele>458.8</ele>
        <time>2022-04-04T08:04:58.000Z</time>
      </trkpt>
      <trkpt lat="43.16212" lon="5.98174">
        <ele>460</ele>
        <time>2022-04-04T08:05:05.000Z</time>
      </trkpt>
      <trkpt lat="43.16211" lon="5.98197">
        <ele>461.2</ele>
        <time>2022-04-04T08:05:12.000Z</time>
      </trkpt>
      <trkpt lat="43.16213" lon="5.98216">
        <ele>462.2</ele>
        <time>2022-04-04T08:05:18.000Z</time>
      </trkpt>
      <trkpt lat="43.16213" lon="5.98233">
        <ele>463.4</ele>
        <time>2022-04-04T08:05:23.000Z</time>
      </trkpt>
      <trkpt lat="43.16214" lon="5.98253">
        <ele>464.6</ele>
        <time>2022-04-04T08:05:29.000Z</time>
      </trkpt>
      <trkpt lat="43.16213" lon="5.9827">
        <ele>465.8</ele>
        <time>2022-04-04T08:05:34.000Z</time>
      </trkpt>
      <trkpt lat="43.16212" lon="5.98287">
        <ele>467</ele>
        <time>2022-04-04T08:05:39.000Z</time>
      </trkpt>
      <trkpt lat="43.1621" lon="5.9831">
        <ele>470.4</ele>
        <time>2022-04-04T08:05:46.000Z</time>
      </trkpt>
      <trkpt lat="43.16205" lon="5.98328">
        <ele>469.2</ele>
        <time>2022-04-04T08:05:52.000Z</time>
      </trkpt>
      <trkpt lat="43.16202" lon="5.9834">
        <ele>470.2</ele>
        <time>2022-04-04T08:05:56.000Z</time>
      </trkpt>
      <trkpt lat="43.16197" lon="5.98355">
        <ele>471.2</ele>
        <time>2022-04-04T08:06:01.000Z</time>
      </trkpt>
      <trkpt lat="43.16195" lon="5.98364">
        <ele>472.4</ele>
        <time>2022-04-04T08:06:04.000Z</time>
      </trkpt>
      <trkpt lat="43.16189" lon="5.98384">
        <ele>473.4</ele>
        <time>2022-04-04T08:06:11.000Z</time>
      </trkpt>
      <trkpt lat="43.16185" lon="5.98398">
        <ele>474.6</ele>
        <time>2022-04-04T08:06:16.000Z</time>
      </trkpt>
      <trkpt lat="43.16185" lon="5.9841">
        <ele>475.6</ele>
        <time>2022-04-04T08:06:21.000Z</time>
      </trkpt>
      <trkpt lat="43.16184" lon="5.98427">
        <ele>476.8</ele>
        <time>2022-04-04T08:06:27.000Z</time>
      </trkpt>
      <trkpt lat="43.16185" lon="5.98449">
        <ele>477.8</ele>
        <time>2022-04-04T08:06:34.000Z</time>
      </trkpt>
      <trkpt lat="43.16186" lon="5.98472">
        <ele>479.2</ele>
        <time>2022-04-04T08:06:41.000Z</time>
      </trkpt>
      <trkpt lat="43.16187" lon="5.98488">
        <ele>480.4</ele>
        <time>2022-04-04T08:06:46.000Z</time>
      </trkpt>
      <trkpt lat="43.16188" lon="5.98505">
        <ele>481.6</ele>
        <time>2022-04-04T08:06:51.000Z</time>
      </trkpt>
      <trkpt lat="43.16189" lon="5.98528">
        <ele>482.6</ele>
        <time>2022-04-04T08:06:58.000Z</time>
      </trkpt>
      <trkpt lat="43.16189" lon="5.98541">
        <ele>484</ele>
        <time>2022-04-04T08:07:02.000Z</time>
      </trkpt>
      <trkpt lat="43.16191" lon="5.98563">
        <ele>485</ele>
        <time>2022-04-04T08:07:09.000Z</time>
      </trkpt>
      <trkpt lat="43.16192" lon="5.98579">
        <ele>486</ele>
        <time>2022-04-04T08:07:14.000Z</time>
      </trkpt>
      <trkpt lat="43.16193" lon="5.98599">
        <ele>487.2</ele>
        <time>2022-04-04T08:07:20.000Z</time>
      </trkpt>
      <trkpt lat="43.16194" lon="5.98616">
        <ele>488.8</ele>
        <time>2022-04-04T08:07:25.000Z</time>
      </trkpt>
      <trkpt lat="43.16196" lon="5.98635">
        <ele>489.8</ele>
        <time>2022-04-04T08:07:31.000Z</time>
      </trkpt>
      <trkpt lat="43.16197" lon="5.98653">
        <ele>490.8</ele>
        <time>2022-04-04T08:07:36.000Z</time>
      </trkpt>
      <trkpt lat="43.1621" lon="5.98671">
        <ele>490.8</ele>
        <time>2022-04-04T08:08:12.000Z</time>
      </trkpt>
      <trkpt lat="43.1621" lon="5.98671">
        <ele>490.6</ele>
        <time>2022-04-04T08:08:28.000Z</time>
      </trkpt>
      <trkpt lat="43.1621" lon="5.98671">
        <ele>491</ele>
        <time>2022-04-04T08:08:55.000Z</time>
      </trkpt>
      <trkpt lat="43.1621" lon="5.98671">
        <ele>490.8</ele>
        <time>2022-04-04T08:08:57.000Z</time>
      </trkpt>
      <trkpt lat="43.1621" lon="5.98671">
        <ele>490.8</ele>
        <time>2022-04-04T08:09:01.000Z</time>
      </trkpt>
      <trkpt lat="43.1621" lon="5.98671">
        <ele>491</ele>
        <time>2022-04-04T08:09:48.000Z</time>
      </trkpt>
      <trkpt lat="43.1621" lon="5.98671">
        <ele>491</ele>
        <time>2022-04-04T08:11:04.000Z</time>
      </trkpt>
      <trkpt lat="43.1621" lon="5.98671">
        <ele>491.6</ele>
        <time>2022-04-04T08:11:36.000Z</time>
      </trkpt>
      <trkpt lat="43.1621" lon="5.98671">
        <ele>491.6</ele>
        <time>2022-04-04T08:11:54.000Z</time>
      </trkpt>
      <trkpt lat="43.1621" lon="5.98671">
        <ele>491.4</ele>
        <time>2022-04-04T08:12:04.000Z</time>
      </trkpt>
      <trkpt lat="43.1621" lon="5.98671">
        <ele>491.4</ele>
        <time>2022-04-04T08:12:21.000Z</time>
      </trkpt>
      <trkpt lat="43.1621" lon="5.98671">
        <ele>491.4</ele>
        <time>2022-04-04T08:12:31.000Z</time>
      </trkpt>
      <trkpt lat="43.1621" lon="5.98671">
        <ele>491.4</ele>
        <time>2022-04-04T08:12:49.000Z</time>
      </trkpt>
      <trkpt lat="43.16211" lon="5.98673">
        <ele>491.2</ele>
        <time>2022-04-04T08:13:01.000Z</time>
      </trkpt>
      <trkpt lat="43.16211" lon="5.98674">
        <ele>491</ele>
        <time>2022-04-04T08:13:04.000Z</time>
      </trkpt>
      <trkpt lat="43.16251" lon="5.98698">
        <ele>490.8</ele>
        <time>2022-04-04T08:13:23.000Z</time>
      </trkpt>
      <trkpt lat="43.16277" lon="5.9871">
        <ele>489.8</ele>
        <time>2022-04-04T08:13:31.000Z</time>
      </trkpt>
      <trkpt lat="43.16303" lon="5.9872">
        <ele>488.8</ele>
        <time>2022-04-04T08:13:38.000Z</time>
      </trkpt>
      <trkpt lat="43.16323" lon="5.98731">
        <ele>487.6</ele>
        <time>2022-04-04T08:13:45.000Z</time>
      </trkpt>
      <trkpt lat="43.16336" lon="5.98739">
        <ele>487.2</ele>
        <time>2022-04-04T08:13:50.000Z</time>
      </trkpt>
      <trkpt lat="43.16368" lon="5.98743">
        <ele>487.6</ele>
        <time>2022-04-04T08:14:02.000Z</time>
      </trkpt>
      <trkpt lat="43.16385" lon="5.98747">
        <ele>488.8</ele>
        <time>2022-04-04T08:14:09.000Z</time>
      </trkpt>
      <trkpt lat="43.16435" lon="5.9878">
        <ele>488.6</ele>
        <time>2022-04-04T08:14:28.000Z</time>
      </trkpt>
      <trkpt lat="43.1644" lon="5.98787">
        <ele>487.8</ele>
        <time>2022-04-04T08:14:30.000Z</time>
      </trkpt>
      <trkpt lat="43.16448" lon="5.98798">
        <ele>486.6</ele>
        <time>2022-04-04T08:14:33.000Z</time>
      </trkpt>
      <trkpt lat="43.1648" lon="5.9884">
        <ele>486.2</ele>
        <time>2022-04-04T08:14:47.000Z</time>
      </trkpt>
      <trkpt lat="43.16504" lon="5.98883">
        <ele>487.6</ele>
        <time>2022-04-04T08:15:01.000Z</time>
      </trkpt>
      <trkpt lat="43.16527" lon="5.98936">
        <ele>488.2</ele>
        <time>2022-04-04T08:15:13.000Z</time>
      </trkpt>
      <trkpt lat="43.16536" lon="5.98979">
        <ele>486.6</ele>
        <time>2022-04-04T08:15:21.000Z</time>
      </trkpt>
      <trkpt lat="43.16542" lon="5.99025">
        <ele>485.4</ele>
        <time>2022-04-04T08:15:30.000Z</time>
      </trkpt>
      <trkpt lat="43.16544" lon="5.99042">
        <ele>484.8</ele>
        <time>2022-04-04T08:15:34.000Z</time>
      </trkpt>
      <trkpt lat="43.1655" lon="5.99096">
        <ele>485.6</ele>
        <time>2022-04-04T08:15:48.000Z</time>
      </trkpt>
      <trkpt lat="43.16551" lon="5.99115">
        <ele>486.4</ele>
        <time>2022-04-04T08:15:54.000Z</time>
      </trkpt>
      <trkpt lat="43.16551" lon="5.99118">
        <ele>486.6</ele>
        <time>2022-04-04T08:15:55.000Z</time>
      </trkpt>
      <trkpt lat="43.16552" lon="5.99133">
        <ele>487.6</ele>
        <time>2022-04-04T08:16:00.000Z</time>
      </trkpt>
      <trkpt lat="43.16552" lon="5.99136">
        <ele>488</ele>
        <time>2022-04-04T08:16:01.000Z</time>
      </trkpt>
      <trkpt lat="43.16554" lon="5.99148">
        <ele>489</ele>
        <time>2022-04-04T08:16:05.000Z</time>
      </trkpt>
      <trkpt lat="43.16554" lon="5.99165">
        <ele>490</ele>
        <time>2022-04-04T08:16:10.000Z</time>
      </trkpt>
      <trkpt lat="43.16557" lon="5.9921">
        <ele>490.8</ele>
        <time>2022-04-04T08:16:22.000Z</time>
      </trkpt>
      <trkpt lat="43.16558" lon="5.99253">
        <ele>491.2</ele>
        <time>2022-04-04T08:16:32.000Z</time>
      </trkpt>
      <trkpt lat="43.16563" lon="5.99304">
        <ele>491.6</ele>
        <time>2022-04-04T08:16:43.000Z</time>
      </trkpt>
      <trkpt lat="43.1658" lon="5.99348">
        <ele>491.2</ele>
        <time>2022-04-04T08:16:52.000Z</time>
      </trkpt>
      <trkpt lat="43.16582" lon="5.99348">
        <ele>491</ele>
        <time>2022-04-04T08:16:54.000Z</time>
      </trkpt>
      <trkpt lat="43.16581" lon="5.99343">
        <ele>490.4</ele>
        <time>2022-04-04T08:16:58.000Z</time>
      </trkpt>
      <trkpt lat="43.16581" lon="5.99341">
        <ele>490</ele>
        <time>2022-04-04T08:16:59.000Z</time>
      </trkpt>
      <trkpt lat="43.16581" lon="5.99328">
        <ele>488.8</ele>
        <time>2022-04-04T08:17:02.000Z</time>
      </trkpt>
      <trkpt lat="43.16583" lon="5.99312">
        <ele>487.8</ele>
        <time>2022-04-04T08:17:05.000Z</time>
      </trkpt>
      <trkpt lat="43.16585" lon="5.99307">
        <ele>487.4</ele>
        <time>2022-04-04T08:17:06.000Z</time>
      </trkpt>
      <trkpt lat="43.1659" lon="5.9929">
        <ele>486</ele>
        <time>2022-04-04T08:17:09.000Z</time>
      </trkpt>
      <trkpt lat="43.16593" lon="5.99279">
        <ele>484.6</ele>
        <time>2022-04-04T08:17:11.000Z</time>
      </trkpt>
      <trkpt lat="43.16594" lon="5.99273">
        <ele>484.2</ele>
        <time>2022-04-04T08:17:12.000Z</time>
      </trkpt>
      <trkpt lat="43.16596" lon="5.99261">
        <ele>482.8</ele>
        <time>2022-04-04T08:17:14.000Z</time>
      </trkpt>
      <trkpt lat="43.16597" lon="5.99249">
        <ele>481.8</ele>
        <time>2022-04-04T08:17:16.000Z</time>
      </trkpt>
      <trkpt lat="43.16598" lon="5.99236">
        <ele>480.2</ele>
        <time>2022-04-04T08:17:18.000Z</time>
      </trkpt>
      <trkpt lat="43.166" lon="5.99225">
        <ele>478.2</ele>
        <time>2022-04-04T08:17:20.000Z</time>
      </trkpt>
      <trkpt lat="43.16602" lon="5.99214">
        <ele>477.2</ele>
        <time>2022-04-04T08:17:22.000Z</time>
      </trkpt>
      <trkpt lat="43.16604" lon="5.99203">
        <ele>475.8</ele>
        <time>2022-04-04T08:17:24.000Z</time>
      </trkpt>
      <trkpt lat="43.16605" lon="5.99198">
        <ele>474.6</ele>
        <time>2022-04-04T08:17:25.000Z</time>
      </trkpt>
      <trkpt lat="43.16606" lon="5.99188">
        <ele>472.6</ele>
        <time>2022-04-04T08:17:27.000Z</time>
      </trkpt>
      <trkpt lat="43.16607" lon="5.99177">
        <ele>471</ele>
        <time>2022-04-04T08:17:29.000Z</time>
      </trkpt>
      <trkpt lat="43.16606" lon="5.99166">
        <ele>469.8</ele>
        <time>2022-04-04T08:17:31.000Z</time>
      </trkpt>
      <trkpt lat="43.16607" lon="5.99153">
        <ele>468</ele>
        <time>2022-04-04T08:17:33.000Z</time>
      </trkpt>
      <trkpt lat="43.16606" lon="5.99141">
        <ele>466.4</ele>
        <time>2022-04-04T08:17:35.000Z</time>
      </trkpt>
      <trkpt lat="43.16607" lon="5.99129">
        <ele>465.2</ele>
        <time>2022-04-04T08:17:37.000Z</time>
      </trkpt>
      <trkpt lat="43.16608" lon="5.99119">
        <ele>463.8</ele>
        <time>2022-04-04T08:17:39.000Z</time>
      </trkpt>
      <trkpt lat="43.16609" lon="5.99103">
        <ele>462</ele>
        <time>2022-04-04T08:17:42.000Z</time>
      </trkpt>
      <trkpt lat="43.16609" lon="5.99096">
        <ele>460.8</ele>
        <time>2022-04-04T08:17:43.000Z</time>
      </trkpt>
      <trkpt lat="43.16611" lon="5.99078">
        <ele>459.6</ele>
        <time>2022-04-04T08:17:46.000Z</time>
      </trkpt>
      <trkpt lat="43.16613" lon="5.99066">
        <ele>458.8</ele>
        <time>2022-04-04T08:17:48.000Z</time>
      </trkpt>
      <trkpt lat="43.16616" lon="5.99056">
        <ele>457.4</ele>
        <time>2022-04-04T08:17:50.000Z</time>
      </trkpt>
      <trkpt lat="43.16618" lon="5.99044">
        <ele>455.8</ele>
        <time>2022-04-04T08:17:52.000Z</time>
      </trkpt>
      <trkpt lat="43.16622" lon="5.99031">
        <ele>454.4</ele>
        <time>2022-04-04T08:17:54.000Z</time>
      </trkpt>
      <trkpt lat="43.16625" lon="5.99018">
        <ele>452.8</ele>
        <time>2022-04-04T08:17:56.000Z</time>
      </trkpt>
      <trkpt lat="43.16629" lon="5.99004">
        <ele>451.6</ele>
        <time>2022-04-04T08:17:58.000Z</time>
      </trkpt>
      <trkpt lat="43.16632" lon="5.9899">
        <ele>450.2</ele>
        <time>2022-04-04T08:18:00.000Z</time>
      </trkpt>
      <trkpt lat="43.16635" lon="5.98977">
        <ele>448.6</ele>
        <time>2022-04-04T08:18:02.000Z</time>
      </trkpt>
      <trkpt lat="43.16638" lon="5.98964">
        <ele>447.2</ele>
        <time>2022-04-04T08:18:04.000Z</time>
      </trkpt>
      <trkpt lat="43.16642" lon="5.98949">
        <ele>446.2</ele>
        <time>2022-04-04T08:18:06.000Z</time>
      </trkpt>
      <trkpt lat="43.16645" lon="5.98934">
        <ele>444.8</ele>
        <time>2022-04-04T08:18:08.000Z</time>
      </trkpt>
      <trkpt lat="43.16649" lon="5.98918">
        <ele>443.8</ele>
        <time>2022-04-04T08:18:10.000Z</time>
      </trkpt>
      <trkpt lat="43.16654" lon="5.98896">
        <ele>442.6</ele>
        <time>2022-04-04T08:18:13.000Z</time>
      </trkpt>
      <trkpt lat="43.16657" lon="5.98883">
        <ele>441.6</ele>
        <time>2022-04-04T08:18:16.000Z</time>
      </trkpt>
      <trkpt lat="43.1666" lon="5.98862">
        <ele>440.6</ele>
        <time>2022-04-04T08:18:20.000Z</time>
      </trkpt>
      <trkpt lat="43.16661" lon="5.98847">
        <ele>439.4</ele>
        <time>2022-04-04T08:18:23.000Z</time>
      </trkpt>
      <trkpt lat="43.16663" lon="5.9883">
        <ele>438</ele>
        <time>2022-04-04T08:18:26.000Z</time>
      </trkpt>
      <trkpt lat="43.16663" lon="5.98815">
        <ele>436.4</ele>
        <time>2022-04-04T08:18:29.000Z</time>
      </trkpt>
      <trkpt lat="43.16662" lon="5.98799">
        <ele>435.2</ele>
        <time>2022-04-04T08:18:33.000Z</time>
      </trkpt>
      <trkpt lat="43.16662" lon="5.9879">
        <ele>434.2</ele>
        <time>2022-04-04T08:18:35.000Z</time>
      </trkpt>
      <trkpt lat="43.16663" lon="5.98783">
        <ele>433</ele>
        <time>2022-04-04T08:18:37.000Z</time>
      </trkpt>
      <trkpt lat="43.16663" lon="5.98775">
        <ele>431.8</ele>
        <time>2022-04-04T08:18:39.000Z</time>
      </trkpt>
      <trkpt lat="43.16664" lon="5.98767">
        <ele>430.8</ele>
        <time>2022-04-04T08:18:41.000Z</time>
      </trkpt>
      <trkpt lat="43.16664" lon="5.9876">
        <ele>429.6</ele>
        <time>2022-04-04T08:18:43.000Z</time>
      </trkpt>
      <trkpt lat="43.16664" lon="5.98751">
        <ele>428.6</ele>
        <time>2022-04-04T08:18:45.000Z</time>
      </trkpt>
      <trkpt lat="43.16662" lon="5.98742">
        <ele>427.2</ele>
        <time>2022-04-04T08:18:47.000Z</time>
      </trkpt>
      <trkpt lat="43.16661" lon="5.98732">
        <ele>425.8</ele>
        <time>2022-04-04T08:18:49.000Z</time>
      </trkpt>
      <trkpt lat="43.16659" lon="5.98724">
        <ele>424.6</ele>
        <time>2022-04-04T08:18:51.000Z</time>
      </trkpt>
      <trkpt lat="43.16657" lon="5.98709">
        <ele>423.4</ele>
        <time>2022-04-04T08:18:54.000Z</time>
      </trkpt>
      <trkpt lat="43.16658" lon="5.98687">
        <ele>422.4</ele>
        <time>2022-04-04T08:18:59.000Z</time>
      </trkpt>
      <trkpt lat="43.1666" lon="5.9867">
        <ele>421.2</ele>
        <time>2022-04-04T08:19:03.000Z</time>
      </trkpt>
      <trkpt lat="43.16661" lon="5.98658">
        <ele>420.2</ele>
        <time>2022-04-04T08:19:06.000Z</time>
      </trkpt>
      <trkpt lat="43.16662" lon="5.9865">
        <ele>418.8</ele>
        <time>2022-04-04T08:19:08.000Z</time>
      </trkpt>
      <trkpt lat="43.16662" lon="5.98636">
        <ele>417</ele>
        <time>2022-04-04T08:19:11.000Z</time>
      </trkpt>
      <trkpt lat="43.16661" lon="5.98629">
        <ele>415.6</ele>
        <time>2022-04-04T08:19:13.000Z</time>
      </trkpt>
      <trkpt lat="43.16661" lon="5.98614">
        <ele>414.4</ele>
        <time>2022-04-04T08:19:16.000Z</time>
      </trkpt>
      <trkpt lat="43.16662" lon="5.98605">
        <ele>413.2</ele>
        <time>2022-04-04T08:19:18.000Z</time>
      </trkpt>
      <trkpt lat="43.16663" lon="5.98594">
        <ele>411.8</ele>
        <time>2022-04-04T08:19:21.000Z</time>
      </trkpt>
      <trkpt lat="43.16663" lon="5.9859">
        <ele>410.6</ele>
        <time>2022-04-04T08:19:24.000Z</time>
      </trkpt>
      <trkpt lat="43.16663" lon="5.98589">
        <ele>409.4</ele>
        <time>2022-04-04T08:19:26.000Z</time>
      </trkpt>
      <trkpt lat="43.16663" lon="5.98588">
        <ele>408.8</ele>
        <time>2022-04-04T08:19:27.000Z</time>
      </trkpt>
      <trkpt lat="43.16663" lon="5.98586">
        <ele>408.4</ele>
        <time>2022-04-04T08:19:28.000Z</time>
      </trkpt>
      <trkpt lat="43.16661" lon="5.98571">
        <ele>407.8</ele>
        <time>2022-04-04T08:19:33.000Z</time>
      </trkpt>
      <trkpt lat="43.16661" lon="5.98557">
        <ele>407.2</ele>
        <time>2022-04-04T08:19:37.000Z</time>
      </trkpt>
      <trkpt lat="43.16662" lon="5.98545">
        <ele>406</ele>
        <time>2022-04-04T08:19:40.000Z</time>
      </trkpt>
      <trkpt lat="43.16664" lon="5.9853">
        <ele>404.8</ele>
        <time>2022-04-04T08:19:43.000Z</time>
      </trkpt>
      <trkpt lat="43.16665" lon="5.98521">
        <ele>403.4</ele>
        <time>2022-04-04T08:19:46.000Z</time>
      </trkpt>
      <trkpt lat="43.16666" lon="5.98514">
        <ele>402.2</ele>
        <time>2022-04-04T08:19:50.000Z</time>
      </trkpt>
      <trkpt lat="43.16664" lon="5.98498">
        <ele>401.2</ele>
        <time>2022-04-04T08:19:55.000Z</time>
      </trkpt>
      <trkpt lat="43.1666" lon="5.98438">
        <ele>400.2</ele>
        <time>2022-04-04T08:20:07.000Z</time>
      </trkpt>
      <trkpt lat="43.16658" lon="5.98408">
        <ele>399.2</ele>
        <time>2022-04-04T08:20:13.000Z</time>
      </trkpt>
      <trkpt lat="43.16656" lon="5.9839">
        <ele>399</ele>
        <time>2022-04-04T08:20:16.000Z</time>
      </trkpt>
      <trkpt lat="43.16644" lon="5.98315">
        <ele>399.6</ele>
        <time>2022-04-04T08:20:31.000Z</time>
      </trkpt>
      <trkpt lat="43.16636" lon="5.98272">
        <ele>399.4</ele>
        <time>2022-04-04T08:20:41.000Z</time>
      </trkpt>
      <trkpt lat="43.16628" lon="5.98244">
        <ele>399</ele>
        <time>2022-04-04T08:20:46.000Z</time>
      </trkpt>
      <trkpt lat="43.16628" lon="5.98221">
        <ele>398.6</ele>
        <time>2022-04-04T08:20:54.000Z</time>
      </trkpt>
      <trkpt lat="43.16628" lon="5.9822">
        <ele>398</ele>
        <time>2022-04-04T08:20:59.000Z</time>
      </trkpt>
      <trkpt lat="43.16625" lon="5.98186">
        <ele>397.8</ele>
        <time>2022-04-04T08:21:35.000Z</time>
      </trkpt>
      <trkpt lat="43.16623" lon="5.98159">
        <ele>396.8</ele>
        <time>2022-04-04T08:21:42.000Z</time>
      </trkpt>
      <trkpt lat="43.16622" lon="5.98122">
        <ele>395.8</ele>
        <time>2022-04-04T08:21:52.000Z</time>
      </trkpt>
      <trkpt lat="43.16621" lon="5.98106">
        <ele>394.6</ele>
        <time>2022-04-04T08:21:56.000Z</time>
      </trkpt>
      <trkpt lat="43.16628" lon="5.98085">
        <ele>393.6</ele>
        <time>2022-04-04T08:22:01.000Z</time>
      </trkpt>
      <trkpt lat="43.16634" lon="5.98066">
        <ele>392.6</ele>
        <time>2022-04-04T08:22:05.000Z</time>
      </trkpt>
      <trkpt lat="43.16635" lon="5.98061">
        <ele>392</ele>
        <time>2022-04-04T08:22:06.000Z</time>
      </trkpt>
      <trkpt lat="43.16637" lon="5.98055">
        <ele>391.2</ele>
        <time>2022-04-04T08:22:07.000Z</time>
      </trkpt>
      <trkpt lat="43.1664" lon="5.98045">
        <ele>389.6</ele>
        <time>2022-04-04T08:22:09.000Z</time>
      </trkpt>
      <trkpt lat="43.16644" lon="5.98035">
        <ele>388</ele>
        <time>2022-04-04T08:22:11.000Z</time>
      </trkpt>
      <trkpt lat="43.16646" lon="5.98029">
        <ele>387.6</ele>
        <time>2022-04-04T08:22:12.000Z</time>
      </trkpt>
      <trkpt lat="43.16647" lon="5.98022">
        <ele>386.8</ele>
        <time>2022-04-04T08:22:13.000Z</time>
      </trkpt>
      <trkpt lat="43.16651" lon="5.98008">
        <ele>385.4</ele>
        <time>2022-04-04T08:22:15.000Z</time>
      </trkpt>
      <trkpt lat="43.16652" lon="5.97998">
        <ele>383.6</ele>
        <time>2022-04-04T08:22:17.000Z</time>
      </trkpt>
      <trkpt lat="43.16654" lon="5.97989">
        <ele>382.4</ele>
        <time>2022-04-04T08:22:19.000Z</time>
      </trkpt>
      <trkpt lat="43.16657" lon="5.97982">
        <ele>381.2</ele>
        <time>2022-04-04T08:22:21.000Z</time>
      </trkpt>
      <trkpt lat="43.16663" lon="5.97961">
        <ele>380</ele>
        <time>2022-04-04T08:22:26.000Z</time>
      </trkpt>
      <trkpt lat="43.16662" lon="5.97952">
        <ele>378.6</ele>
        <time>2022-04-04T08:22:29.000Z</time>
      </trkpt>
      <trkpt lat="43.16662" lon="5.97948">
        <ele>377.6</ele>
        <time>2022-04-04T08:22:31.000Z</time>
      </trkpt>
      <trkpt lat="43.16663" lon="5.97943">
        <ele>376.4</ele>
        <time>2022-04-04T08:22:34.000Z</time>
      </trkpt>
      <trkpt lat="43.16662" lon="5.97868">
        <ele>375.6</ele>
        <time>2022-04-04T08:22:55.000Z</time>
      </trkpt>
      <trkpt lat="43.1666" lon="5.97854">
        <ele>375.2</ele>
        <time>2022-04-04T08:22:58.000Z</time>
      </trkpt>
      <trkpt lat="43.16658" lon="5.97833">
        <ele>374</ele>
        <time>2022-04-04T08:23:03.000Z</time>
      </trkpt>
      <trkpt lat="43.16658" lon="5.9783">
        <ele>374</ele>
        <time>2022-04-04T08:23:04.000Z</time>
      </trkpt>
      <trkpt lat="43.16665" lon="5.97822">
        <ele>373</ele>
        <time>2022-04-04T08:23:08.000Z</time>
      </trkpt>
      <trkpt lat="43.16667" lon="5.97818">
        <ele>373</ele>
        <time>2022-04-04T08:23:09.000Z</time>
      </trkpt>
      <trkpt lat="43.16673" lon="5.97806">
        <ele>372</ele>
        <time>2022-04-04T08:23:13.000Z</time>
      </trkpt>
      <trkpt lat="43.16694" lon="5.97746">
        <ele>372.6</ele>
        <time>2022-04-04T08:23:42.000Z</time>
      </trkpt>
      <trkpt lat="43.16661" lon="5.97689">
        <ele>371.2</ele>
        <time>2022-04-04T08:24:04.000Z</time>
      </trkpt>
      <trkpt lat="43.16659" lon="5.97686">
        <ele>370.6</ele>
        <time>2022-04-04T08:24:05.000Z</time>
      </trkpt>
      <trkpt lat="43.16654" lon="5.97676">
        <ele>369.2</ele>
        <time>2022-04-04T08:24:08.000Z</time>
      </trkpt>
      <trkpt lat="43.16651" lon="5.97669">
        <ele>368</ele>
        <time>2022-04-04T08:24:10.000Z</time>
      </trkpt>
      <trkpt lat="43.16646" lon="5.97663">
        <ele>366.8</ele>
        <time>2022-04-04T08:24:12.000Z</time>
      </trkpt>
      <trkpt lat="43.16641" lon="5.97654">
        <ele>365.8</ele>
        <time>2022-04-04T08:24:14.000Z</time>
      </trkpt>
      <trkpt lat="43.16634" lon="5.97641">
        <ele>364.6</ele>
        <time>2022-04-04T08:24:17.000Z</time>
      </trkpt>
      <trkpt lat="43.16631" lon="5.97627">
        <ele>363.4</ele>
        <time>2022-04-04T08:24:20.000Z</time>
      </trkpt>
      <trkpt lat="43.16631" lon="5.97618">
        <ele>362.4</ele>
        <time>2022-04-04T08:24:22.000Z</time>
      </trkpt>
      <trkpt lat="43.16629" lon="5.97612">
        <ele>361.4</ele>
        <time>2022-04-04T08:24:24.000Z</time>
      </trkpt>
      <trkpt lat="43.16628" lon="5.97609">
        <ele>360.8</ele>
        <time>2022-04-04T08:24:25.000Z</time>
      </trkpt>
      <trkpt lat="43.16626" lon="5.97601">
        <ele>359.6</ele>
        <time>2022-04-04T08:24:27.000Z</time>
      </trkpt>
      <trkpt lat="43.16621" lon="5.97589">
        <ele>358.8</ele>
        <time>2022-04-04T08:24:30.000Z</time>
      </trkpt>
      <trkpt lat="43.16611" lon="5.97581">
        <ele>358</ele>
        <time>2022-04-04T08:24:33.000Z</time>
      </trkpt>
      <trkpt lat="43.166" lon="5.97573">
        <ele>357.6</ele>
        <time>2022-04-04T08:24:36.000Z</time>
      </trkpt>
      <trkpt lat="43.16585" lon="5.97566">
        <ele>356.6</ele>
        <time>2022-04-04T08:24:40.000Z</time>
      </trkpt>
      <trkpt lat="43.16578" lon="5.97556">
        <ele>355.4</ele>
        <time>2022-04-04T08:24:43.000Z</time>
      </trkpt>
      <trkpt lat="43.16575" lon="5.97547">
        <ele>354.2</ele>
        <time>2022-04-04T08:24:45.000Z</time>
      </trkpt>
      <trkpt lat="43.16566" lon="5.97531">
        <ele>353</ele>
        <time>2022-04-04T08:24:49.000Z</time>
      </trkpt>
      <trkpt lat="43.16557" lon="5.97517">
        <ele>351.6</ele>
        <time>2022-04-04T08:24:53.000Z</time>
      </trkpt>
      <trkpt lat="43.16557" lon="5.97509">
        <ele>350.2</ele>
        <time>2022-04-04T08:24:55.000Z</time>
      </trkpt>
      <trkpt lat="43.16556" lon="5.97507">
        <ele>349.2</ele>
        <time>2022-04-04T08:24:57.000Z</time>
      </trkpt>
      <trkpt lat="43.16556" lon="5.97501">
        <ele>348.8</ele>
        <time>2022-04-04T08:25:08.000Z</time>
      </trkpt>
      <trkpt lat="43.16558" lon="5.97497">
        <ele>350.4</ele>
        <time>2022-04-04T08:25:18.000Z</time>
      </trkpt>
      <trkpt lat="43.16562" lon="5.97493">
        <ele>351</ele>
        <time>2022-04-04T08:25:26.000Z</time>
      </trkpt>
      <trkpt lat="43.16562" lon="5.97492">
        <ele>351.2</ele>
        <time>2022-04-04T08:25:28.000Z</time>
      </trkpt>
      <trkpt lat="43.16563" lon="5.9749">
        <ele>351.8</ele>
        <time>2022-04-04T08:25:33.000Z</time>
      </trkpt>
      <trkpt lat="43.16563" lon="5.97489">
        <ele>352.4</ele>
        <time>2022-04-04T08:25:36.000Z</time>
      </trkpt>
      <trkpt lat="43.16564" lon="5.97489">
        <ele>353.4</ele>
        <time>2022-04-04T08:25:41.000Z</time>
      </trkpt>
      <trkpt lat="43.16564" lon="5.97483">
        <ele>354.4</ele>
        <time>2022-04-04T08:25:50.000Z</time>
      </trkpt>
      <trkpt lat="43.16564" lon="5.97482">
        <ele>354.4</ele>
        <time>2022-04-04T08:25:51.000Z</time>
      </trkpt>
      <trkpt lat="43.16565" lon="5.97479">
        <ele>355.6</ele>
        <time>2022-04-04T08:25:57.000Z</time>
      </trkpt>
      <trkpt lat="43.16566" lon="5.97476">
        <ele>356</ele>
        <time>2022-04-04T08:25:59.000Z</time>
      </trkpt>
      <trkpt lat="43.16568" lon="5.97469">
        <ele>356.2</ele>
        <time>2022-04-04T08:26:10.000Z</time>
      </trkpt>
      <trkpt lat="43.16568" lon="5.97468">
        <ele>355.8</ele>
        <time>2022-04-04T08:26:31.000Z</time>
      </trkpt>
      <trkpt lat="43.16568" lon="5.97468">
        <ele>355.8</ele>
        <time>2022-04-04T08:26:36.000Z</time>
      </trkpt>
      <trkpt lat="43.16568" lon="5.97468">
        <ele>355.8</ele>
        <time>2022-04-04T08:26:41.000Z</time>
      </trkpt>
      <trkpt lat="43.16568" lon="5.97467">
        <ele>356</ele>
        <time>2022-04-04T08:26:46.000Z</time>
      </trkpt>
      <trkpt lat="43.16566" lon="5.97439">
        <ele>356</ele>
        <time>2022-04-04T08:26:53.000Z</time>
      </trkpt>
      <trkpt lat="43.1657" lon="5.97415">
        <ele>356</ele>
        <time>2022-04-04T08:26:57.000Z</time>
      </trkpt>
      <trkpt lat="43.16573" lon="5.97385">
        <ele>354.6</ele>
        <time>2022-04-04T08:27:03.000Z</time>
      </trkpt>
      <trkpt lat="43.16575" lon="5.97369">
        <ele>353.4</ele>
        <time>2022-04-04T08:27:06.000Z</time>
      </trkpt>
      <trkpt lat="43.16585" lon="5.97359">
        <ele>352.2</ele>
        <time>2022-04-04T08:27:09.000Z</time>
      </trkpt>
      <trkpt lat="43.16593" lon="5.97358">
        <ele>350.6</ele>
        <time>2022-04-04T08:27:11.000Z</time>
      </trkpt>
      <trkpt lat="43.16597" lon="5.97358">
        <ele>350</ele>
        <time>2022-04-04T08:27:12.000Z</time>
      </trkpt>
      <trkpt lat="43.16607" lon="5.97358">
        <ele>349.6</ele>
        <time>2022-04-04T08:27:15.000Z</time>
      </trkpt>
      <trkpt lat="43.16652" lon="5.97318">
        <ele>350</ele>
        <time>2022-04-04T08:27:29.000Z</time>
      </trkpt>
      <trkpt lat="43.16655" lon="5.97313">
        <ele>350</ele>
        <time>2022-04-04T08:27:30.000Z</time>
      </trkpt>
      <trkpt lat="43.16693" lon="5.97266">
        <ele>349.4</ele>
        <time>2022-04-04T08:27:41.000Z</time>
      </trkpt>
      <trkpt lat="43.16708" lon="5.97251">
        <ele>348.8</ele>
        <time>2022-04-04T08:27:45.000Z</time>
      </trkpt>
      <trkpt lat="43.1671" lon="5.97248">
        <ele>348.6</ele>
        <time>2022-04-04T08:27:46.000Z</time>
      </trkpt>
      <trkpt lat="43.16716" lon="5.97226">
        <ele>347.6</ele>
        <time>2022-04-04T08:27:52.000Z</time>
      </trkpt>
      <trkpt lat="43.16717" lon="5.97222">
        <ele>347.4</ele>
        <time>2022-04-04T08:27:53.000Z</time>
      </trkpt>
      <trkpt lat="43.1672" lon="5.97214">
        <ele>346.4</ele>
        <time>2022-04-04T08:27:55.000Z</time>
      </trkpt>
      <trkpt lat="43.16723" lon="5.97211">
        <ele>346.2</ele>
        <time>2022-04-04T08:27:56.000Z</time>
      </trkpt>
      <trkpt lat="43.16741" lon="5.97195">
        <ele>345</ele>
        <time>2022-04-04T08:28:01.000Z</time>
      </trkpt>
      <trkpt lat="43.16758" lon="5.97179">
        <ele>343.8</ele>
        <time>2022-04-04T08:28:05.000Z</time>
      </trkpt>
      <trkpt lat="43.16783" lon="5.97157">
        <ele>342.8</ele>
        <time>2022-04-04T08:28:11.000Z</time>
      </trkpt>
      <trkpt lat="43.16791" lon="5.97132">
        <ele>342.2</ele>
        <time>2022-04-04T08:28:18.000Z</time>
      </trkpt>
      <trkpt lat="43.16799" lon="5.97116">
        <ele>341.8</ele>
        <time>2022-04-04T08:28:23.000Z</time>
      </trkpt>
      <trkpt lat="43.16819" lon="5.97095">
        <ele>341.8</ele>
        <time>2022-04-04T08:28:30.000Z</time>
      </trkpt>
      <trkpt lat="43.16865" lon="5.97052">
        <ele>342.6</ele>
        <time>2022-04-04T08:28:47.000Z</time>
      </trkpt>
      <trkpt lat="43.16879" lon="5.97038">
        <ele>342.6</ele>
        <time>2022-04-04T08:28:51.000Z</time>
      </trkpt>
      <trkpt lat="43.16922" lon="5.96996">
        <ele>342.8</ele>
        <time>2022-04-04T08:29:01.000Z</time>
      </trkpt>
      <trkpt lat="43.16943" lon="5.96976">
        <ele>343</ele>
        <time>2022-04-04T08:29:06.000Z</time>
      </trkpt>
      <trkpt lat="43.16965" lon="5.96956">
        <ele>343</ele>
        <time>2022-04-04T08:29:11.000Z</time>
      </trkpt>
      <trkpt lat="43.17011" lon="5.96914">
        <ele>343</ele>
        <time>2022-04-04T08:29:21.000Z</time>
      </trkpt>
      <trkpt lat="43.17019" lon="5.96907">
        <ele>343</ele>
        <time>2022-04-04T08:29:23.000Z</time>
      </trkpt>
      <trkpt lat="43.1703" lon="5.9689">
        <ele>343</ele>
        <time>2022-04-04T08:29:27.000Z</time>
      </trkpt>
      <trkpt lat="43.17036" lon="5.96878">
        <ele>343.6</ele>
        <time>2022-04-04T08:29:34.000Z</time>
      </trkpt>
      <trkpt lat="43.17036" lon="5.96877">
        <ele>344</ele>
        <time>2022-04-04T08:29:44.000Z</time>
      </trkpt>
      <trkpt lat="43.17036" lon="5.96877">
        <ele>344.2</ele>
        <time>2022-04-04T08:29:50.000Z</time>
      </trkpt>
      <trkpt lat="43.17036" lon="5.96876">
        <ele>344.4</ele>
        <time>2022-04-04T08:29:53.000Z</time>
      </trkpt>
      <trkpt lat="43.1702" lon="5.96876">
        <ele>344.4</ele>
        <time>2022-04-04T08:30:00.000Z</time>
      </trkpt>
      <trkpt lat="43.16967" lon="5.96908">
        <ele>343.8</ele>
        <time>2022-04-04T08:30:12.000Z</time>
      </trkpt>
      <trkpt lat="43.16914" lon="5.96938">
        <ele>343.8</ele>
        <time>2022-04-04T08:30:24.000Z</time>
      </trkpt>
      <trkpt lat="43.16861" lon="5.9697">
        <ele>343.8</ele>
        <time>2022-04-04T08:30:37.000Z</time>
      </trkpt>
      <trkpt lat="43.16848" lon="5.9698">
        <ele>344.2</ele>
        <time>2022-04-04T08:30:49.000Z</time>
      </trkpt>
      <trkpt lat="43.16848" lon="5.96981">
        <ele>343.8</ele>
        <time>2022-04-04T08:31:11.000Z</time>
      </trkpt>
      <trkpt lat="43.16859" lon="5.96965">
        <ele>344.2</ele>
        <time>2022-04-04T08:31:18.000Z</time>
      </trkpt>
      <trkpt lat="43.16886" lon="5.96898">
        <ele>344.2</ele>
        <time>2022-04-04T08:31:34.000Z</time>
      </trkpt>
      <trkpt lat="43.16891" lon="5.96867">
        <ele>344.4</ele>
        <time>2022-04-04T08:31:41.000Z</time>
      </trkpt>
      <trkpt lat="43.16893" lon="5.96849">
        <ele>345</ele>
        <time>2022-04-04T08:31:45.000Z</time>
      </trkpt>
      <trkpt lat="43.16899" lon="5.96821">
        <ele>346</ele>
        <time>2022-04-04T08:31:56.000Z</time>
      </trkpt>
      <trkpt lat="43.169" lon="5.96805">
        <ele>347</ele>
        <time>2022-04-04T08:32:37.000Z</time>
      </trkpt>
      <trkpt lat="43.16902" lon="5.96766">
        <ele>347</ele>
        <time>2022-04-04T08:32:49.000Z</time>
      </trkpt>
      <trkpt lat="43.169" lon="5.96746">
        <ele>348.2</ele>
        <time>2022-04-04T08:32:54.000Z</time>
      </trkpt>
      <trkpt lat="43.1691" lon="5.96703">
        <ele>349</ele>
        <time>2022-04-04T08:33:05.000Z</time>
      </trkpt>
      <trkpt lat="43.1692" lon="5.96666">
        <ele>350.2</ele>
        <time>2022-04-04T08:33:14.000Z</time>
      </trkpt>
      <trkpt lat="43.16931" lon="5.96632">
        <ele>351.2</ele>
        <time>2022-04-04T08:33:23.000Z</time>
      </trkpt>
      <trkpt lat="43.1694" lon="5.96604">
        <ele>352.2</ele>
        <time>2022-04-04T08:33:32.000Z</time>
      </trkpt>
      <trkpt lat="43.16944" lon="5.9659">
        <ele>353.4</ele>
        <time>2022-04-04T08:33:49.000Z</time>
      </trkpt>
      <trkpt lat="43.16956" lon="5.96519">
        <ele>354.2</ele>
        <time>2022-04-04T08:34:16.000Z</time>
      </trkpt>
      <trkpt lat="43.16947" lon="5.96473">
        <ele>355.4</ele>
        <time>2022-04-04T08:34:27.000Z</time>
      </trkpt>
      <trkpt lat="43.16943" lon="5.96455">
        <ele>356.4</ele>
        <time>2022-04-04T08:34:32.000Z</time>
      </trkpt>
      <trkpt lat="43.16933" lon="5.96422">
        <ele>357.4</ele>
        <time>2022-04-04T08:34:41.000Z</time>
      </trkpt>
      <trkpt lat="43.16931" lon="5.96404">
        <ele>358.6</ele>
        <time>2022-04-04T08:34:48.000Z</time>
      </trkpt>
      <trkpt lat="43.16935" lon="5.96392">
        <ele>359.6</ele>
        <time>2022-04-04T08:34:54.000Z</time>
      </trkpt>
      <trkpt lat="43.16939" lon="5.96354">
        <ele>360.6</ele>
        <time>2022-04-04T08:35:04.000Z</time>
      </trkpt>
      <trkpt lat="43.16937" lon="5.96318">
        <ele>361.8</ele>
        <time>2022-04-04T08:35:12.000Z</time>
      </trkpt>
      <trkpt lat="43.16948" lon="5.96246">
        <ele>362.4</ele>
        <time>2022-04-04T08:35:27.000Z</time>
      </trkpt>
      <trkpt lat="43.16973" lon="5.96219">
        <ele>363</ele>
        <time>2022-04-04T08:35:37.000Z</time>
      </trkpt>
      <trkpt lat="43.16987" lon="5.96212">
        <ele>363.8</ele>
        <time>2022-04-04T08:35:43.000Z</time>
      </trkpt>
      <trkpt lat="43.16993" lon="5.962">
        <ele>365.2</ele>
        <time>2022-04-04T08:35:47.000Z</time>
      </trkpt>
      <trkpt lat="43.17002" lon="5.96184">
        <ele>366.4</ele>
        <time>2022-04-04T08:35:53.000Z</time>
      </trkpt>
      <trkpt lat="43.1701" lon="5.9617">
        <ele>367.6</ele>
        <time>2022-04-04T08:35:58.000Z</time>
      </trkpt>
      <trkpt lat="43.17017" lon="5.96154">
        <ele>368.4</ele>
        <time>2022-04-04T08:36:04.000Z</time>
      </trkpt>
      <trkpt lat="43.17022" lon="5.96135">
        <ele>369.6</ele>
        <time>2022-04-04T08:36:11.000Z</time>
      </trkpt>
      <trkpt lat="43.17025" lon="5.96116">
        <ele>370.8</ele>
        <time>2022-04-04T08:36:17.000Z</time>
      </trkpt>
      <trkpt lat="43.17031" lon="5.96098">
        <ele>371.8</ele>
        <time>2022-04-04T08:36:23.000Z</time>
      </trkpt>
      <trkpt lat="43.17038" lon="5.96072">
        <ele>373</ele>
        <time>2022-04-04T08:36:31.000Z</time>
      </trkpt>
      <trkpt lat="43.17023" lon="5.96002">
        <ele>373</ele>
        <time>2022-04-04T08:36:51.000Z</time>
      </trkpt>
      <trkpt lat="43.1701" lon="5.95987">
        <ele>372</ele>
        <time>2022-04-04T08:36:58.000Z</time>
      </trkpt>
      <trkpt lat="43.17001" lon="5.95973">
        <ele>371.6</ele>
        <time>2022-04-04T08:37:05.000Z</time>
      </trkpt>
      <trkpt lat="43.17002" lon="5.95969">
        <ele>370.8</ele>
        <time>2022-04-04T08:37:13.000Z</time>
      </trkpt>
      <trkpt lat="43.17002" lon="5.95968">
        <ele>370.8</ele>
        <time>2022-04-04T08:37:44.000Z</time>
      </trkpt>
      <trkpt lat="43.17002" lon="5.95964">
        <ele>370.8</ele>
        <time>2022-04-04T08:37:48.000Z</time>
      </trkpt>
      <trkpt lat="43.17014" lon="5.95926">
        <ele>371</ele>
        <time>2022-04-04T08:37:58.000Z</time>
      </trkpt>
      <trkpt lat="43.17046" lon="5.95878">
        <ele>372</ele>
        <time>2022-04-04T08:38:11.000Z</time>
      </trkpt>
      <trkpt lat="43.17071" lon="5.95811">
        <ele>372.6</ele>
        <time>2022-04-04T08:38:27.000Z</time>
      </trkpt>
      <trkpt lat="43.17082" lon="5.95798">
        <ele>373.2</ele>
        <time>2022-04-04T08:38:33.000Z</time>
      </trkpt>
      <trkpt lat="43.17087" lon="5.95789">
        <ele>374.2</ele>
        <time>2022-04-04T08:38:39.000Z</time>
      </trkpt>
      <trkpt lat="43.17085" lon="5.95787">
        <ele>374.8</ele>
        <time>2022-04-04T08:38:41.000Z</time>
      </trkpt>
      <trkpt lat="43.1709" lon="5.95773">
        <ele>375</ele>
        <time>2022-04-04T08:38:46.000Z</time>
      </trkpt>
      <trkpt lat="43.17099" lon="5.95764">
        <ele>375.4</ele>
        <time>2022-04-04T08:38:51.000Z</time>
      </trkpt>
      <trkpt lat="43.17112" lon="5.95752">
        <ele>376.4</ele>
        <time>2022-04-04T08:39:01.000Z</time>
      </trkpt>
      <trkpt lat="43.17113" lon="5.95751">
        <ele>377.6</ele>
        <time>2022-04-04T08:39:07.000Z</time>
      </trkpt>
      <trkpt lat="43.17118" lon="5.95754">
        <ele>378.6</ele>
        <time>2022-04-04T08:39:16.000Z</time>
      </trkpt>
      <trkpt lat="43.1712" lon="5.95751">
        <ele>379.8</ele>
        <time>2022-04-04T08:39:24.000Z</time>
      </trkpt>
      <trkpt lat="43.1712" lon="5.95748">
        <ele>380.2</ele>
        <time>2022-04-04T08:39:28.000Z</time>
      </trkpt>
      <trkpt lat="43.17138" lon="5.95714">
        <ele>380.6</ele>
        <time>2022-04-04T08:39:39.000Z</time>
      </trkpt>
      <trkpt lat="43.17158" lon="5.95666">
        <ele>379.6</ele>
        <time>2022-04-04T08:39:53.000Z</time>
      </trkpt>
      <trkpt lat="43.17157" lon="5.9565">
        <ele>378.8</ele>
        <time>2022-04-04T08:39:58.000Z</time>
      </trkpt>
      <trkpt lat="43.17158" lon="5.9564">
        <ele>378.4</ele>
        <time>2022-04-04T08:40:00.000Z</time>
      </trkpt>
      <trkpt lat="43.17161" lon="5.95631">
        <ele>377.6</ele>
        <time>2022-04-04T08:40:02.000Z</time>
      </trkpt>
      <trkpt lat="43.17167" lon="5.95621">
        <ele>376.6</ele>
        <time>2022-04-04T08:40:04.000Z</time>
      </trkpt>
      <trkpt lat="43.17173" lon="5.95613">
        <ele>375.6</ele>
        <time>2022-04-04T08:40:06.000Z</time>
      </trkpt>
      <trkpt lat="43.17179" lon="5.95607">
        <ele>374.4</ele>
        <time>2022-04-04T08:40:08.000Z</time>
      </trkpt>
      <trkpt lat="43.17185" lon="5.95599">
        <ele>373.4</ele>
        <time>2022-04-04T08:40:11.000Z</time>
      </trkpt>
      <trkpt lat="43.17192" lon="5.95587">
        <ele>372.2</ele>
        <time>2022-04-04T08:40:16.000Z</time>
      </trkpt>
      <trkpt lat="43.17195" lon="5.95576">
        <ele>371</ele>
        <time>2022-04-04T08:40:19.000Z</time>
      </trkpt>
      <trkpt lat="43.17206" lon="5.95532">
        <ele>370.6</ele>
        <time>2022-04-04T08:40:30.000Z</time>
      </trkpt>
      <trkpt lat="43.17209" lon="5.9552">
        <ele>370</ele>
        <time>2022-04-04T08:40:33.000Z</time>
      </trkpt>
      <trkpt lat="43.17209" lon="5.95512">
        <ele>369</ele>
        <time>2022-04-04T08:40:36.000Z</time>
      </trkpt>
      <trkpt lat="43.17208" lon="5.95508">
        <ele>367.6</ele>
        <time>2022-04-04T08:40:42.000Z</time>
      </trkpt>
      <trkpt lat="43.17208" lon="5.95505">
        <ele>366.6</ele>
        <time>2022-04-04T08:40:46.000Z</time>
      </trkpt>
      <trkpt lat="43.17206" lon="5.955">
        <ele>365.8</ele>
        <time>2022-04-04T08:40:50.000Z</time>
      </trkpt>
      <trkpt lat="43.17206" lon="5.95498">
        <ele>365.4</ele>
        <time>2022-04-04T08:40:51.000Z</time>
      </trkpt>
      <trkpt lat="43.17204" lon="5.95475">
        <ele>364.2</ele>
        <time>2022-04-04T08:40:58.000Z</time>
      </trkpt>
      <trkpt lat="43.17206" lon="5.95467">
        <ele>363</ele>
        <time>2022-04-04T08:41:00.000Z</time>
      </trkpt>
      <trkpt lat="43.17208" lon="5.95457">
        <ele>362</ele>
        <time>2022-04-04T08:41:02.000Z</time>
      </trkpt>
      <trkpt lat="43.1721" lon="5.95443">
        <ele>360.6</ele>
        <time>2022-04-04T08:41:05.000Z</time>
      </trkpt>
      <trkpt lat="43.17219" lon="5.95398">
        <ele>360.2</ele>
        <time>2022-04-04T08:41:16.000Z</time>
      </trkpt>
      <trkpt lat="43.17219" lon="5.9537">
        <ele>360.2</ele>
        <time>2022-04-04T08:41:22.000Z</time>
      </trkpt>
      <trkpt lat="43.17219" lon="5.95358">
        <ele>360.2</ele>
        <time>2022-04-04T08:41:24.000Z</time>
      </trkpt>
      <trkpt lat="43.1722" lon="5.95344">
        <ele>360.2</ele>
        <time>2022-04-04T08:41:27.000Z</time>
      </trkpt>
      <trkpt lat="43.17215" lon="5.95334">
        <ele>359.6</ele>
        <time>2022-04-04T08:41:30.000Z</time>
      </trkpt>
      <trkpt lat="43.17211" lon="5.95326">
        <ele>358.2</ele>
        <time>2022-04-04T08:41:33.000Z</time>
      </trkpt>
      <trkpt lat="43.17202" lon="5.95312">
        <ele>357.4</ele>
        <time>2022-04-04T08:41:40.000Z</time>
      </trkpt>
      <trkpt lat="43.17202" lon="5.95309">
        <ele>357.4</ele>
        <time>2022-04-04T08:41:41.000Z</time>
      </trkpt>
      <trkpt lat="43.17205" lon="5.95296">
        <ele>357.6</ele>
        <time>2022-04-04T08:41:46.000Z</time>
      </trkpt>
      <trkpt lat="43.17206" lon="5.95293">
        <ele>358</ele>
        <time>2022-04-04T08:41:47.000Z</time>
      </trkpt>
      <trkpt lat="43.17209" lon="5.95287">
        <ele>359.6</ele>
        <time>2022-04-04T08:41:50.000Z</time>
      </trkpt>
      <trkpt lat="43.17214" lon="5.95276">
        <ele>361.4</ele>
        <time>2022-04-04T08:41:56.000Z</time>
      </trkpt>
      <trkpt lat="43.17219" lon="5.95266">
        <ele>362.6</ele>
        <time>2022-04-04T08:42:02.000Z</time>
      </trkpt>
      <trkpt lat="43.17221" lon="5.95259">
        <ele>363.6</ele>
        <time>2022-04-04T08:42:05.000Z</time>
      </trkpt>
      <trkpt lat="43.17221" lon="5.95252">
        <ele>364.6</ele>
        <time>2022-04-04T08:42:08.000Z</time>
      </trkpt>
      <trkpt lat="43.17224" lon="5.95246">
        <ele>365.6</ele>
        <time>2022-04-04T08:42:11.000Z</time>
      </trkpt>
      <trkpt lat="43.17226" lon="5.95245">
        <ele>366</ele>
        <time>2022-04-04T08:42:12.000Z</time>
      </trkpt>
      <trkpt lat="43.17235" lon="5.95233">
        <ele>366.4</ele>
        <time>2022-04-04T08:42:18.000Z</time>
      </trkpt>
      <trkpt lat="43.17238" lon="5.95228">
        <ele>366.6</ele>
        <time>2022-04-04T08:42:20.000Z</time>
      </trkpt>
      <trkpt lat="43.17261" lon="5.95206">
        <ele>366.4</ele>
        <time>2022-04-04T08:42:31.000Z</time>
      </trkpt>
      <trkpt lat="43.1728" lon="5.95176">
        <ele>367</ele>
        <time>2022-04-04T08:42:45.000Z</time>
      </trkpt>
      <trkpt lat="43.17284" lon="5.9517">
        <ele>367.6</ele>
        <time>2022-04-04T08:42:55.000Z</time>
      </trkpt>
      <trkpt lat="43.17288" lon="5.9517">
        <ele>367.6</ele>
        <time>2022-04-04T08:42:57.000Z</time>
      </trkpt>
      <trkpt lat="43.17303" lon="5.95149">
        <ele>367.8</ele>
        <time>2022-04-04T08:43:06.000Z</time>
      </trkpt>
      <trkpt lat="43.17315" lon="5.95135">
        <ele>368.2</ele>
        <time>2022-04-04T08:43:12.000Z</time>
      </trkpt>
      <trkpt lat="43.1732" lon="5.95125">
        <ele>369.4</ele>
        <time>2022-04-04T08:43:16.000Z</time>
      </trkpt>
      <trkpt lat="43.17327" lon="5.95113">
        <ele>370.8</ele>
        <time>2022-04-04T08:43:21.000Z</time>
      </trkpt>
      <trkpt lat="43.17329" lon="5.95108">
        <ele>371.4</ele>
        <time>2022-04-04T08:43:23.000Z</time>
      </trkpt>
      <trkpt lat="43.17329" lon="5.95105">
        <ele>371.8</ele>
        <time>2022-04-04T08:43:24.000Z</time>
      </trkpt>
      <trkpt lat="43.1733" lon="5.95089">
        <ele>372.8</ele>
        <time>2022-04-04T08:43:29.000Z</time>
      </trkpt>
      <trkpt lat="43.17333" lon="5.95075">
        <ele>374</ele>
        <time>2022-04-04T08:43:34.000Z</time>
      </trkpt>
      <trkpt lat="43.17334" lon="5.95062">
        <ele>375</ele>
        <time>2022-04-04T08:43:38.000Z</time>
      </trkpt>
      <trkpt lat="43.17336" lon="5.95044">
        <ele>376.2</ele>
        <time>2022-04-04T08:43:44.000Z</time>
      </trkpt>
      <trkpt lat="43.17335" lon="5.95037">
        <ele>377.2</ele>
        <time>2022-04-04T08:43:49.000Z</time>
      </trkpt>
      <trkpt lat="43.17334" lon="5.95037">
        <ele>378.2</ele>
        <time>2022-04-04T08:43:54.000Z</time>
      </trkpt>
      <trkpt lat="43.17333" lon="5.95011">
        <ele>379.2</ele>
        <time>2022-04-04T08:44:23.000Z</time>
      </trkpt>
      <trkpt lat="43.17331" lon="5.94994">
        <ele>380.6</ele>
        <time>2022-04-04T08:44:29.000Z</time>
      </trkpt>
      <trkpt lat="43.17332" lon="5.94981">
        <ele>381.8</ele>
        <time>2022-04-04T08:44:33.000Z</time>
      </trkpt>
      <trkpt lat="43.17334" lon="5.94972">
        <ele>382.8</ele>
        <time>2022-04-04T08:44:36.000Z</time>
      </trkpt>
      <trkpt lat="43.17336" lon="5.94963">
        <ele>384</ele>
        <time>2022-04-04T08:44:39.000Z</time>
      </trkpt>
      <trkpt lat="43.17339" lon="5.94951">
        <ele>385.4</ele>
        <time>2022-04-04T08:44:43.000Z</time>
      </trkpt>
      <trkpt lat="43.17341" lon="5.94946">
        <ele>386.4</ele>
        <time>2022-04-04T08:44:45.000Z</time>
      </trkpt>
      <trkpt lat="43.17343" lon="5.9494">
        <ele>387.2</ele>
        <time>2022-04-04T08:44:47.000Z</time>
      </trkpt>
      <trkpt lat="43.17345" lon="5.94937">
        <ele>387.6</ele>
        <time>2022-04-04T08:44:48.000Z</time>
      </trkpt>
      <trkpt lat="43.17348" lon="5.94926">
        <ele>388.6</ele>
        <time>2022-04-04T08:44:52.000Z</time>
      </trkpt>
      <trkpt lat="43.17346" lon="5.94917">
        <ele>390</ele>
        <time>2022-04-04T08:44:55.000Z</time>
      </trkpt>
      <trkpt lat="43.17344" lon="5.94911">
        <ele>391.2</ele>
        <time>2022-04-04T08:44:57.000Z</time>
      </trkpt>
      <trkpt lat="43.17342" lon="5.94904">
        <ele>392.4</ele>
        <time>2022-04-04T08:45:00.000Z</time>
      </trkpt>
      <trkpt lat="43.17341" lon="5.94896">
        <ele>393.6</ele>
        <time>2022-04-04T08:45:03.000Z</time>
      </trkpt>
      <trkpt lat="43.17338" lon="5.94885">
        <ele>394.8</ele>
        <time>2022-04-04T08:45:07.000Z</time>
      </trkpt>
      <trkpt lat="43.17334" lon="5.94875">
        <ele>396.2</ele>
        <time>2022-04-04T08:45:12.000Z</time>
      </trkpt>
      <trkpt lat="43.17333" lon="5.94868">
        <ele>397.8</ele>
        <time>2022-04-04T08:45:16.000Z</time>
      </trkpt>
      <trkpt lat="43.17333" lon="5.94863">
        <ele>398.6</ele>
        <time>2022-04-04T08:45:33.000Z</time>
      </trkpt>
      <trkpt lat="43.17333" lon="5.94863">
        <ele>398.6</ele>
        <time>2022-04-04T08:45:42.000Z</time>
      </trkpt>
      <trkpt lat="43.17333" lon="5.94863">
        <ele>398.8</ele>
        <time>2022-04-04T08:45:45.000Z</time>
      </trkpt>
      <trkpt lat="43.17332" lon="5.94863">
        <ele>398.8</ele>
        <time>2022-04-04T08:46:00.000Z</time>
      </trkpt>
      <trkpt lat="43.17333" lon="5.94862">
        <ele>398.8</ele>
        <time>2022-04-04T08:46:04.000Z</time>
      </trkpt>
      <trkpt lat="43.17333" lon="5.94862">
        <ele>398.8</ele>
        <time>2022-04-04T08:46:14.000Z</time>
      </trkpt>
      <trkpt lat="43.17332" lon="5.94858">
        <ele>398.8</ele>
        <time>2022-04-04T08:46:22.000Z</time>
      </trkpt>
      <trkpt lat="43.1733" lon="5.94856">
        <ele>397.6</ele>
        <time>2022-04-04T08:46:37.000Z</time>
      </trkpt>
      <trkpt lat="43.1733" lon="5.94856">
        <ele>397</ele>
        <time>2022-04-04T08:46:45.000Z</time>
      </trkpt>
      <trkpt lat="43.17331" lon="5.9485">
        <ele>397</ele>
        <time>2022-04-04T08:46:57.000Z</time>
      </trkpt>
      <trkpt lat="43.17331" lon="5.94844">
        <ele>396.6</ele>
        <time>2022-04-04T08:47:04.000Z</time>
      </trkpt>
      <trkpt lat="43.17333" lon="5.94833">
        <ele>395.6</ele>
        <time>2022-04-04T08:47:10.000Z</time>
      </trkpt>
      <trkpt lat="43.17333" lon="5.94831">
        <ele>395</ele>
        <time>2022-04-04T08:47:14.000Z</time>
      </trkpt>
      <trkpt lat="43.17333" lon="5.94831">
        <ele>394.2</ele>
        <time>2022-04-04T08:47:16.000Z</time>
      </trkpt>
      <trkpt lat="43.17333" lon="5.94831">
        <ele>393.4</ele>
        <time>2022-04-04T08:47:22.000Z</time>
      </trkpt>
      <trkpt lat="43.17333" lon="5.9483">
        <ele>393.4</ele>
        <time>2022-04-04T08:47:36.000Z</time>
      </trkpt>
      <trkpt lat="43.17343" lon="5.9481">
        <ele>393.4</ele>
        <time>2022-04-04T08:47:53.000Z</time>
      </trkpt>
      <trkpt lat="43.17345" lon="5.94799">
        <ele>393.2</ele>
        <time>2022-04-04T08:47:56.000Z</time>
      </trkpt>
      <trkpt lat="43.17345" lon="5.94782">
        <ele>392</ele>
        <time>2022-04-04T08:47:59.000Z</time>
      </trkpt>
      <trkpt lat="43.17347" lon="5.94771">
        <ele>390.6</ele>
        <time>2022-04-04T08:48:01.000Z</time>
      </trkpt>
      <trkpt lat="43.17348" lon="5.94761">
        <ele>389.4</ele>
        <time>2022-04-04T08:48:03.000Z</time>
      </trkpt>
      <trkpt lat="43.1735" lon="5.94751">
        <ele>388</ele>
        <time>2022-04-04T08:48:05.000Z</time>
      </trkpt>
      <trkpt lat="43.17351" lon="5.94741">
        <ele>386.4</ele>
        <time>2022-04-04T08:48:07.000Z</time>
      </trkpt>
      <trkpt lat="43.17352" lon="5.94736">
        <ele>384.8</ele>
        <time>2022-04-04T08:48:08.000Z</time>
      </trkpt>
      <trkpt lat="43.17352" lon="5.94731">
        <ele>383.8</ele>
        <time>2022-04-04T08:48:09.000Z</time>
      </trkpt>
      <trkpt lat="43.17353" lon="5.94727">
        <ele>382.6</ele>
        <time>2022-04-04T08:48:10.000Z</time>
      </trkpt>
      <trkpt lat="43.17354" lon="5.94719">
        <ele>381</ele>
        <time>2022-04-04T08:48:12.000Z</time>
      </trkpt>
      <trkpt lat="43.17353" lon="5.9471">
        <ele>379.4</ele>
        <time>2022-04-04T08:48:14.000Z</time>
      </trkpt>
      <trkpt lat="43.17353" lon="5.94702">
        <ele>377.8</ele>
        <time>2022-04-04T08:48:16.000Z</time>
      </trkpt>
      <trkpt lat="43.17354" lon="5.94694">
        <ele>376.2</ele>
        <time>2022-04-04T08:48:18.000Z</time>
      </trkpt>
      <trkpt lat="43.17356" lon="5.94685">
        <ele>374.6</ele>
        <time>2022-04-04T08:48:20.000Z</time>
      </trkpt>
      <trkpt lat="43.17358" lon="5.94679">
        <ele>374</ele>
        <time>2022-04-04T08:48:21.000Z</time>
      </trkpt>
      <trkpt lat="43.1736" lon="5.94673">
        <ele>373.2</ele>
        <time>2022-04-04T08:48:22.000Z</time>
      </trkpt>
      <trkpt lat="43.17362" lon="5.94667">
        <ele>371.6</ele>
        <time>2022-04-04T08:48:24.000Z</time>
      </trkpt>
      <trkpt lat="43.17363" lon="5.94663">
        <ele>370.4</ele>
        <time>2022-04-04T08:48:25.000Z</time>
      </trkpt>
      <trkpt lat="43.17364" lon="5.94654">
        <ele>368.8</ele>
        <time>2022-04-04T08:48:27.000Z</time>
      </trkpt>
      <trkpt lat="43.17365" lon="5.94643">
        <ele>367.6</ele>
        <time>2022-04-04T08:48:29.000Z</time>
      </trkpt>
      <trkpt lat="43.17365" lon="5.94633">
        <ele>366.2</ele>
        <time>2022-04-04T08:48:31.000Z</time>
      </trkpt>
      <trkpt lat="43.17368" lon="5.94624">
        <ele>364.8</ele>
        <time>2022-04-04T08:48:33.000Z</time>
      </trkpt>
      <trkpt lat="43.17371" lon="5.94614">
        <ele>363.2</ele>
        <time>2022-04-04T08:48:35.000Z</time>
      </trkpt>
      <trkpt lat="43.17374" lon="5.94611">
        <ele>362.2</ele>
        <time>2022-04-04T08:48:36.000Z</time>
      </trkpt>
      <trkpt lat="43.17377" lon="5.94604">
        <ele>360.6</ele>
        <time>2022-04-04T08:48:38.000Z</time>
      </trkpt>
      <trkpt lat="43.17379" lon="5.94595">
        <ele>359</ele>
        <time>2022-04-04T08:48:40.000Z</time>
      </trkpt>
      <trkpt lat="43.1738" lon="5.94584">
        <ele>357.8</ele>
        <time>2022-04-04T08:48:42.000Z</time>
      </trkpt>
      <trkpt lat="43.17381" lon="5.94579">
        <ele>356.4</ele>
        <time>2022-04-04T08:48:43.000Z</time>
      </trkpt>
      <trkpt lat="43.17384" lon="5.94561">
        <ele>354.8</ele>
        <time>2022-04-04T08:48:47.000Z</time>
      </trkpt>
      <trkpt lat="43.17385" lon="5.94552">
        <ele>353.8</ele>
        <time>2022-04-04T08:48:49.000Z</time>
      </trkpt>
      <trkpt lat="43.17383" lon="5.94543">
        <ele>352.8</ele>
        <time>2022-04-04T08:48:51.000Z</time>
      </trkpt>
      <trkpt lat="43.17383" lon="5.94534">
        <ele>351.2</ele>
        <time>2022-04-04T08:48:53.000Z</time>
      </trkpt>
      <trkpt lat="43.17384" lon="5.94528">
        <ele>350.6</ele>
        <time>2022-04-04T08:48:54.000Z</time>
      </trkpt>
      <trkpt lat="43.17386" lon="5.94522">
        <ele>350</ele>
        <time>2022-04-04T08:48:55.000Z</time>
      </trkpt>
      <trkpt lat="43.17388" lon="5.94509">
        <ele>348.2</ele>
        <time>2022-04-04T08:48:57.000Z</time>
      </trkpt>
      <trkpt lat="43.17391" lon="5.94497">
        <ele>346</ele>
        <time>2022-04-04T08:48:59.000Z</time>
      </trkpt>
      <trkpt lat="43.17392" lon="5.94491">
        <ele>344.8</ele>
        <time>2022-04-04T08:49:00.000Z</time>
      </trkpt>
      <trkpt lat="43.17393" lon="5.94482">
        <ele>343</ele>
        <time>2022-04-04T08:49:02.000Z</time>
      </trkpt>
      <trkpt lat="43.17394" lon="5.94474">
        <ele>341.6</ele>
        <time>2022-04-04T08:49:04.000Z</time>
      </trkpt>
      <trkpt lat="43.17392" lon="5.94465">
        <ele>340.2</ele>
        <time>2022-04-04T08:49:06.000Z</time>
      </trkpt>
      <trkpt lat="43.17391" lon="5.94454">
        <ele>339</ele>
        <time>2022-04-04T08:49:08.000Z</time>
      </trkpt>
      <trkpt lat="43.17391" lon="5.94442">
        <ele>337.4</ele>
        <time>2022-04-04T08:49:10.000Z</time>
      </trkpt>
      <trkpt lat="43.17391" lon="5.9443">
        <ele>336</ele>
        <time>2022-04-04T08:49:12.000Z</time>
      </trkpt>
      <trkpt lat="43.17391" lon="5.94419">
        <ele>334.4</ele>
        <time>2022-04-04T08:49:14.000Z</time>
      </trkpt>
      <trkpt lat="43.17391" lon="5.94415">
        <ele>333.2</ele>
        <time>2022-04-04T08:49:15.000Z</time>
      </trkpt>
      <trkpt lat="43.1739" lon="5.9441">
        <ele>332.2</ele>
        <time>2022-04-04T08:49:16.000Z</time>
      </trkpt>
      <trkpt lat="43.1739" lon="5.944">
        <ele>329.4</ele>
        <time>2022-04-04T08:49:18.000Z</time>
      </trkpt>
      <trkpt lat="43.17391" lon="5.94395">
        <ele>328.4</ele>
        <time>2022-04-04T08:49:19.000Z</time>
      </trkpt>
      <trkpt lat="43.17393" lon="5.94383">
        <ele>326.6</ele>
        <time>2022-04-04T08:49:21.000Z</time>
      </trkpt>
      <trkpt lat="43.17397" lon="5.9437">
        <ele>325</ele>
        <time>2022-04-04T08:49:23.000Z</time>
      </trkpt>
      <trkpt lat="43.17399" lon="5.94363">
        <ele>323.8</ele>
        <time>2022-04-04T08:49:24.000Z</time>
      </trkpt>
      <trkpt lat="43.17402" lon="5.9435">
        <ele>322.4</ele>
        <time>2022-04-04T08:49:26.000Z</time>
      </trkpt>
      <trkpt lat="43.17405" lon="5.94337">
        <ele>321.2</ele>
        <time>2022-04-04T08:49:28.000Z</time>
      </trkpt>
      <trkpt lat="43.17408" lon="5.94313">
        <ele>320</ele>
        <time>2022-04-04T08:49:32.000Z</time>
      </trkpt>
      <trkpt lat="43.17412" lon="5.94289">
        <ele>318.6</ele>
        <time>2022-04-04T08:49:38.000Z</time>
      </trkpt>
      <trkpt lat="43.17412" lon="5.94289">
        <ele>317</ele>
        <time>2022-04-04T08:49:41.000Z</time>
      </trkpt>
      <trkpt lat="43.17412" lon="5.94289">
        <ele>316</ele>
        <time>2022-04-04T08:49:43.000Z</time>
      </trkpt>
      <trkpt lat="43.17412" lon="5.94289">
        <ele>315</ele>
        <time>2022-04-04T08:49:45.000Z</time>
      </trkpt>
      <trkpt lat="43.17412" lon="5.94287">
        <ele>314.2</ele>
        <time>2022-04-04T08:50:10.000Z</time>
      </trkpt>
      <trkpt lat="43.17416" lon="5.94257">
        <ele>314.2</ele>
        <time>2022-04-04T08:50:17.000Z</time>
      </trkpt>
      <trkpt lat="43.17418" lon="5.94244">
        <ele>313.8</ele>
        <time>2022-04-04T08:50:20.000Z</time>
      </trkpt>
      <trkpt lat="43.17419" lon="5.94232">
        <ele>311.8</ele>
        <time>2022-04-04T08:50:23.000Z</time>
      </trkpt>
      <trkpt lat="43.17419" lon="5.94228">
        <ele>311.2</ele>
        <time>2022-04-04T08:50:24.000Z</time>
      </trkpt>
      <trkpt lat="43.1742" lon="5.94225">
        <ele>310.2</ele>
        <time>2022-04-04T08:50:25.000Z</time>
      </trkpt>
      <trkpt lat="43.1742" lon="5.94218">
        <ele>307.8</ele>
        <time>2022-04-04T08:50:27.000Z</time>
      </trkpt>
      <trkpt lat="43.17421" lon="5.9421">
        <ele>306.2</ele>
        <time>2022-04-04T08:50:29.000Z</time>
      </trkpt>
      <trkpt lat="43.17422" lon="5.94202">
        <ele>305.2</ele>
        <time>2022-04-04T08:50:31.000Z</time>
      </trkpt>
      <trkpt lat="43.17423" lon="5.94195">
        <ele>304</ele>
        <time>2022-04-04T08:50:33.000Z</time>
      </trkpt>
      <trkpt lat="43.17423" lon="5.94187">
        <ele>302.4</ele>
        <time>2022-04-04T08:50:35.000Z</time>
      </trkpt>
      <trkpt lat="43.17423" lon="5.9418">
        <ele>300.8</ele>
        <time>2022-04-04T08:50:37.000Z</time>
      </trkpt>
      <trkpt lat="43.17425" lon="5.94171">
        <ele>299.2</ele>
        <time>2022-04-04T08:50:39.000Z</time>
      </trkpt>
      <trkpt lat="43.17429" lon="5.94159">
        <ele>297.6</ele>
        <time>2022-04-04T08:50:41.000Z</time>
      </trkpt>
      <trkpt lat="43.17435" lon="5.94145">
        <ele>296</ele>
        <time>2022-04-04T08:50:43.000Z</time>
      </trkpt>
      <trkpt lat="43.17442" lon="5.94132">
        <ele>294.6</ele>
        <time>2022-04-04T08:50:45.000Z</time>
      </trkpt>
      <trkpt lat="43.17446" lon="5.94125">
        <ele>294</ele>
        <time>2022-04-04T08:50:46.000Z</time>
      </trkpt>
      <trkpt lat="43.1745" lon="5.94118">
        <ele>293.2</ele>
        <time>2022-04-04T08:50:47.000Z</time>
      </trkpt>
      <trkpt lat="43.17458" lon="5.94105">
        <ele>291.6</ele>
        <time>2022-04-04T08:50:49.000Z</time>
      </trkpt>
      <trkpt lat="43.17464" lon="5.94092">
        <ele>290</ele>
        <time>2022-04-04T08:50:51.000Z</time>
      </trkpt>
      <trkpt lat="43.17471" lon="5.9408">
        <ele>288.6</ele>
        <time>2022-04-04T08:50:53.000Z</time>
      </trkpt>
      <trkpt lat="43.17478" lon="5.94066">
        <ele>287.6</ele>
        <time>2022-04-04T08:50:55.000Z</time>
      </trkpt>
      <trkpt lat="43.17484" lon="5.94053">
        <ele>286.4</ele>
        <time>2022-04-04T08:50:57.000Z</time>
      </trkpt>
      <trkpt lat="43.17489" lon="5.94042">
        <ele>285</ele>
        <time>2022-04-04T08:50:59.000Z</time>
      </trkpt>
      <trkpt lat="43.17494" lon="5.94026">
        <ele>284</ele>
        <time>2022-04-04T08:51:02.000Z</time>
      </trkpt>
      <trkpt lat="43.17496" lon="5.9402">
        <ele>283.6</ele>
        <time>2022-04-04T08:51:03.000Z</time>
      </trkpt>
      <trkpt lat="43.17498" lon="5.94015">
        <ele>282.8</ele>
        <time>2022-04-04T08:51:04.000Z</time>
      </trkpt>
      <trkpt lat="43.17501" lon="5.94004">
        <ele>281.6</ele>
        <time>2022-04-04T08:51:06.000Z</time>
      </trkpt>
      <trkpt lat="43.17502" lon="5.93997">
        <ele>281.2</ele>
        <time>2022-04-04T08:51:07.000Z</time>
      </trkpt>
      <trkpt lat="43.17503" lon="5.93985">
        <ele>280.4</ele>
        <time>2022-04-04T08:51:09.000Z</time>
      </trkpt>
      <trkpt lat="43.17505" lon="5.93971">
        <ele>279.4</ele>
        <time>2022-04-04T08:51:11.000Z</time>
      </trkpt>
      <trkpt lat="43.17506" lon="5.93964">
        <ele>279</ele>
        <time>2022-04-04T08:51:12.000Z</time>
      </trkpt>
      <trkpt lat="43.17507" lon="5.93958">
        <ele>278.4</ele>
        <time>2022-04-04T08:51:13.000Z</time>
      </trkpt>
      <trkpt lat="43.17508" lon="5.93945">
        <ele>277.4</ele>
        <time>2022-04-04T08:51:15.000Z</time>
      </trkpt>
      <trkpt lat="43.17509" lon="5.93933">
        <ele>276.2</ele>
        <time>2022-04-04T08:51:17.000Z</time>
      </trkpt>
      <trkpt lat="43.17509" lon="5.9392">
        <ele>274.8</ele>
        <time>2022-04-04T08:51:19.000Z</time>
      </trkpt>
      <trkpt lat="43.1751" lon="5.93902">
        <ele>273.8</ele>
        <time>2022-04-04T08:51:22.000Z</time>
      </trkpt>
      <trkpt lat="43.17511" lon="5.93898">
        <ele>272.8</ele>
        <time>2022-04-04T08:51:24.000Z</time>
      </trkpt>
      <trkpt lat="43.17511" lon="5.93898">
        <ele>271.2</ele>
        <time>2022-04-04T08:51:27.000Z</time>
      </trkpt>
      <trkpt lat="43.1751" lon="5.93898">
        <ele>270</ele>
        <time>2022-04-04T08:51:29.000Z</time>
      </trkpt>
      <trkpt lat="43.1751" lon="5.93895">
        <ele>268.8</ele>
        <time>2022-04-04T08:51:31.000Z</time>
      </trkpt>
      <trkpt lat="43.17511" lon="5.93873">
        <ele>268</ele>
        <time>2022-04-04T08:51:36.000Z</time>
      </trkpt>
      <trkpt lat="43.17511" lon="5.93861">
        <ele>267.8</ele>
        <time>2022-04-04T08:51:38.000Z</time>
      </trkpt>
      <trkpt lat="43.17513" lon="5.93848">
        <ele>267.2</ele>
        <time>2022-04-04T08:51:40.000Z</time>
      </trkpt>
      <trkpt lat="43.17514" lon="5.93841">
        <ele>266.6</ele>
        <time>2022-04-04T08:51:41.000Z</time>
      </trkpt>
      <trkpt lat="43.17518" lon="5.93827">
        <ele>265.6</ele>
        <time>2022-04-04T08:51:43.000Z</time>
      </trkpt>
      <trkpt lat="43.1752" lon="5.93813">
        <ele>264</ele>
        <time>2022-04-04T08:51:45.000Z</time>
      </trkpt>
      <trkpt lat="43.17519" lon="5.93798">
        <ele>262.4</ele>
        <time>2022-04-04T08:51:48.000Z</time>
      </trkpt>
      <trkpt lat="43.17518" lon="5.9379">
        <ele>261.2</ele>
        <time>2022-04-04T08:51:50.000Z</time>
      </trkpt>
      <trkpt lat="43.17517" lon="5.93787">
        <ele>260.8</ele>
        <time>2022-04-04T08:51:51.000Z</time>
      </trkpt>
      <trkpt lat="43.17513" lon="5.93785">
        <ele>260</ele>
        <time>2022-04-04T08:51:53.000Z</time>
      </trkpt>
      <trkpt lat="43.17509" lon="5.93788">
        <ele>258.2</ele>
        <time>2022-04-04T08:51:55.000Z</time>
      </trkpt>
      <trkpt lat="43.17503" lon="5.93798">
        <ele>256.6</ele>
        <time>2022-04-04T08:51:57.000Z</time>
      </trkpt>
      <trkpt lat="43.17498" lon="5.93811">
        <ele>254.8</ele>
        <time>2022-04-04T08:51:59.000Z</time>
      </trkpt>
      <trkpt lat="43.17494" lon="5.93826">
        <ele>253.4</ele>
        <time>2022-04-04T08:52:01.000Z</time>
      </trkpt>
      <trkpt lat="43.17489" lon="5.93841">
        <ele>251.8</ele>
        <time>2022-04-04T08:52:03.000Z</time>
      </trkpt>
      <trkpt lat="43.17486" lon="5.93855">
        <ele>250.2</ele>
        <time>2022-04-04T08:52:05.000Z</time>
      </trkpt>
      <trkpt lat="43.17483" lon="5.93867">
        <ele>249</ele>
        <time>2022-04-04T08:52:07.000Z</time>
      </trkpt>
      <trkpt lat="43.17456" lon="5.93934">
        <ele>248.4</ele>
        <time>2022-04-04T08:52:24.000Z</time>
      </trkpt>
      <trkpt lat="43.17445" lon="5.9395">
        <ele>248</ele>
        <time>2022-04-04T08:52:27.000Z</time>
      </trkpt>
      <trkpt lat="43.17439" lon="5.9396">
        <ele>246.8</ele>
        <time>2022-04-04T08:52:29.000Z</time>
      </trkpt>
      <trkpt lat="43.17433" lon="5.93966">
        <ele>245.6</ele>
        <time>2022-04-04T08:52:31.000Z</time>
      </trkpt>
      <trkpt lat="43.17429" lon="5.93969">
        <ele>244.6</ele>
        <time>2022-04-04T08:52:32.000Z</time>
      </trkpt>
      <trkpt lat="43.17425" lon="5.93972">
        <ele>243.4</ele>
        <time>2022-04-04T08:52:33.000Z</time>
      </trkpt>
      <trkpt lat="43.17421" lon="5.93975">
        <ele>242.4</ele>
        <time>2022-04-04T08:52:34.000Z</time>
      </trkpt>
      <trkpt lat="43.17417" lon="5.93977">
        <ele>241.4</ele>
        <time>2022-04-04T08:52:35.000Z</time>
      </trkpt>
      <trkpt lat="43.17413" lon="5.93979">
        <ele>240</ele>
        <time>2022-04-04T08:52:36.000Z</time>
      </trkpt>
      <trkpt lat="43.17405" lon="5.93983">
        <ele>238.4</ele>
        <time>2022-04-04T08:52:38.000Z</time>
      </trkpt>
      <trkpt lat="43.17398" lon="5.93983">
        <ele>236.8</ele>
        <time>2022-04-04T08:52:40.000Z</time>
      </trkpt>
      <trkpt lat="43.17394" lon="5.93979">
        <ele>234</ele>
        <time>2022-04-04T08:52:42.000Z</time>
      </trkpt>
      <trkpt lat="43.17392" lon="5.93976">
        <ele>232.4</ele>
        <time>2022-04-04T08:52:44.000Z</time>
      </trkpt>
      <trkpt lat="43.1739" lon="5.9397">
        <ele>230.8</ele>
        <time>2022-04-04T08:52:46.000Z</time>
      </trkpt>
      <trkpt lat="43.17386" lon="5.93965">
        <ele>229.6</ele>
        <time>2022-04-04T08:52:48.000Z</time>
      </trkpt>
      <trkpt lat="43.17382" lon="5.93959">
        <ele>228.2</ele>
        <time>2022-04-04T08:52:50.000Z</time>
      </trkpt>
      <trkpt lat="43.1738" lon="5.93957">
        <ele>227</ele>
        <time>2022-04-04T08:52:52.000Z</time>
      </trkpt>
      <trkpt lat="43.17379" lon="5.93956">
        <ele>225.8</ele>
        <time>2022-04-04T08:52:54.000Z</time>
      </trkpt>
      <trkpt lat="43.17375" lon="5.93951">
        <ele>224.2</ele>
        <time>2022-04-04T08:52:56.000Z</time>
      </trkpt>
      <trkpt lat="43.17371" lon="5.93947">
        <ele>223.4</ele>
        <time>2022-04-04T08:52:57.000Z</time>
      </trkpt>
      <trkpt lat="43.17368" lon="5.93943">
        <ele>222.6</ele>
        <time>2022-04-04T08:52:58.000Z</time>
      </trkpt>
      <trkpt lat="43.17356" lon="5.93927">
        <ele>221.4</ele>
        <time>2022-04-04T08:53:02.000Z</time>
      </trkpt>
      <trkpt lat="43.17349" lon="5.93921">
        <ele>220.8</ele>
        <time>2022-04-04T08:53:04.000Z</time>
      </trkpt>
      <trkpt lat="43.17346" lon="5.93921">
        <ele>220.2</ele>
        <time>2022-04-04T08:53:05.000Z</time>
      </trkpt>
      <trkpt lat="43.17336" lon="5.93921">
        <ele>218.6</ele>
        <time>2022-04-04T08:53:07.000Z</time>
      </trkpt>
      <trkpt lat="43.17325" lon="5.9392">
        <ele>217.2</ele>
        <time>2022-04-04T08:53:09.000Z</time>
      </trkpt>
      <trkpt lat="43.17313" lon="5.93922">
        <ele>215.4</ele>
        <time>2022-04-04T08:53:12.000Z</time>
      </trkpt>
      <trkpt lat="43.17308" lon="5.93923">
        <ele>214.2</ele>
        <time>2022-04-04T08:53:14.000Z</time>
      </trkpt>
      <trkpt lat="43.17305" lon="5.93925">
        <ele>212.8</ele>
        <time>2022-04-04T08:53:15.000Z</time>
      </trkpt>
      <trkpt lat="43.173" lon="5.93928">
        <ele>211.2</ele>
        <time>2022-04-04T08:53:17.000Z</time>
      </trkpt>
      <trkpt lat="43.17295" lon="5.9393">
        <ele>209.4</ele>
        <time>2022-04-04T08:53:19.000Z</time>
      </trkpt>
      <trkpt lat="43.1729" lon="5.93934">
        <ele>208.4</ele>
        <time>2022-04-04T08:53:21.000Z</time>
      </trkpt>
      <trkpt lat="43.17282" lon="5.93939">
        <ele>207.2</ele>
        <time>2022-04-04T08:53:23.000Z</time>
      </trkpt>
      <trkpt lat="43.17273" lon="5.93946">
        <ele>205.8</ele>
        <time>2022-04-04T08:53:25.000Z</time>
      </trkpt>
      <trkpt lat="43.17262" lon="5.93953">
        <ele>204.2</ele>
        <time>2022-04-04T08:53:27.000Z</time>
      </trkpt>
      <trkpt lat="43.17257" lon="5.93957">
        <ele>203.4</ele>
        <time>2022-04-04T08:53:28.000Z</time>
      </trkpt>
      <trkpt lat="43.17251" lon="5.93961">
        <ele>203</ele>
        <time>2022-04-04T08:53:29.000Z</time>
      </trkpt>
      <trkpt lat="43.17243" lon="5.93968">
        <ele>201.2</ele>
        <time>2022-04-04T08:53:31.000Z</time>
      </trkpt>
      <trkpt lat="43.17236" lon="5.93972">
        <ele>199.8</ele>
        <time>2022-04-04T08:53:33.000Z</time>
      </trkpt>
      <trkpt lat="43.17234" lon="5.93972">
        <ele>199.4</ele>
        <time>2022-04-04T08:53:34.000Z</time>
      </trkpt>
      <trkpt lat="43.17229" lon="5.93968">
        <ele>198.8</ele>
        <time>2022-04-04T08:53:37.000Z</time>
      </trkpt>
      <trkpt lat="43.17221" lon="5.93964">
        <ele>197.6</ele>
        <time>2022-04-04T08:53:40.000Z</time>
      </trkpt>
      <trkpt lat="43.17215" lon="5.93962">
        <ele>196.6</ele>
        <time>2022-04-04T08:53:42.000Z</time>
      </trkpt>
      <trkpt lat="43.17212" lon="5.93959">
        <ele>195</ele>
        <time>2022-04-04T08:53:44.000Z</time>
      </trkpt>
      <trkpt lat="43.1721" lon="5.93958">
        <ele>193</ele>
        <time>2022-04-04T08:53:46.000Z</time>
      </trkpt>
      <trkpt lat="43.17208" lon="5.93954">
        <ele>191.4</ele>
        <time>2022-04-04T08:53:48.000Z</time>
      </trkpt>
      <trkpt lat="43.17207" lon="5.93952">
        <ele>190</ele>
        <time>2022-04-04T08:53:49.000Z</time>
      </trkpt>
      <trkpt lat="43.17204" lon="5.93946">
        <ele>188.8</ele>
        <time>2022-04-04T08:53:51.000Z</time>
      </trkpt>
      <trkpt lat="43.17199" lon="5.93938">
        <ele>187.6</ele>
        <time>2022-04-04T08:53:54.000Z</time>
      </trkpt>
      <trkpt lat="43.17191" lon="5.93932">
        <ele>186</ele>
        <time>2022-04-04T08:53:57.000Z</time>
      </trkpt>
      <trkpt lat="43.17188" lon="5.93928">
        <ele>184.6</ele>
        <time>2022-04-04T08:53:59.000Z</time>
      </trkpt>
      <trkpt lat="43.17185" lon="5.93922">
        <ele>183.2</ele>
        <time>2022-04-04T08:54:01.000Z</time>
      </trkpt>
      <trkpt lat="43.17181" lon="5.93916">
        <ele>181.8</ele>
        <time>2022-04-04T08:54:03.000Z</time>
      </trkpt>
      <trkpt lat="43.17177" lon="5.93908">
        <ele>180.6</ele>
        <time>2022-04-04T08:54:05.000Z</time>
      </trkpt>
      <trkpt lat="43.17172" lon="5.93902">
        <ele>179.4</ele>
        <time>2022-04-04T08:54:07.000Z</time>
      </trkpt>
      <trkpt lat="43.17167" lon="5.939">
        <ele>177.8</ele>
        <time>2022-04-04T08:54:09.000Z</time>
      </trkpt>
      <trkpt lat="43.17161" lon="5.93899">
        <ele>175.8</ele>
        <time>2022-04-04T08:54:11.000Z</time>
      </trkpt>
      <trkpt lat="43.17152" lon="5.93899">
        <ele>174.4</ele>
        <time>2022-04-04T08:54:13.000Z</time>
      </trkpt>
      <trkpt lat="43.17145" lon="5.93898">
        <ele>173</ele>
        <time>2022-04-04T08:54:15.000Z</time>
      </trkpt>
      <trkpt lat="43.17132" lon="5.93896">
        <ele>171.8</ele>
        <time>2022-04-04T08:54:19.000Z</time>
      </trkpt>
      <trkpt lat="43.17124" lon="5.93894">
        <ele>170</ele>
        <time>2022-04-04T08:54:22.000Z</time>
      </trkpt>
      <trkpt lat="43.1712" lon="5.93892">
        <ele>168.6</ele>
        <time>2022-04-04T08:54:24.000Z</time>
      </trkpt>
      <trkpt lat="43.17118" lon="5.93892">
        <ele>168.2</ele>
        <time>2022-04-04T08:54:25.000Z</time>
      </trkpt>
      <trkpt lat="43.17116" lon="5.93893">
        <ele>167</ele>
        <time>2022-04-04T08:54:27.000Z</time>
      </trkpt>
      <trkpt lat="43.17111" lon="5.93893">
        <ele>165.6</ele>
        <time>2022-04-04T08:54:29.000Z</time>
      </trkpt>
      <trkpt lat="43.17104" lon="5.93891">
        <ele>164.2</ele>
        <time>2022-04-04T08:54:32.000Z</time>
      </trkpt>
      <trkpt lat="43.17092" lon="5.9389">
        <ele>162.8</ele>
        <time>2022-04-04T08:54:36.000Z</time>
      </trkpt>
      <trkpt lat="43.17087" lon="5.93889">
        <ele>161.4</ele>
        <time>2022-04-04T08:54:38.000Z</time>
      </trkpt>
      <trkpt lat="43.17081" lon="5.9389">
        <ele>160.2</ele>
        <time>2022-04-04T08:54:40.000Z</time>
      </trkpt>
      <trkpt lat="43.17077" lon="5.93891">
        <ele>158.4</ele>
        <time>2022-04-04T08:54:42.000Z</time>
      </trkpt>
      <trkpt lat="43.17073" lon="5.9389">
        <ele>156.4</ele>
        <time>2022-04-04T08:54:44.000Z</time>
      </trkpt>
      <trkpt lat="43.17068" lon="5.93889">
        <ele>154.8</ele>
        <time>2022-04-04T08:54:46.000Z</time>
      </trkpt>
      <trkpt lat="43.17064" lon="5.93889">
        <ele>153.2</ele>
        <time>2022-04-04T08:54:48.000Z</time>
      </trkpt>
      <trkpt lat="43.17057" lon="5.93888">
        <ele>151.6</ele>
        <time>2022-04-04T08:54:50.000Z</time>
      </trkpt>
      <trkpt lat="43.17049" lon="5.93889">
        <ele>150</ele>
        <time>2022-04-04T08:54:52.000Z</time>
      </trkpt>
      <trkpt lat="43.17043" lon="5.93889">
        <ele>148.6</ele>
        <time>2022-04-04T08:54:54.000Z</time>
      </trkpt>
      <trkpt lat="43.17037" lon="5.93889">
        <ele>146.6</ele>
        <time>2022-04-04T08:54:56.000Z</time>
      </trkpt>
      <trkpt lat="43.17032" lon="5.93889">
        <ele>145.4</ele>
        <time>2022-04-04T08:54:58.000Z</time>
      </trkpt>
      <trkpt lat="43.17024" lon="5.9389">
        <ele>144.4</ele>
        <time>2022-04-04T08:55:00.000Z</time>
      </trkpt>
      <trkpt lat="43.17019" lon="5.9389">
        <ele>142.8</ele>
        <time>2022-04-04T08:55:02.000Z</time>
      </trkpt>
      <trkpt lat="43.17012" lon="5.93888">
        <ele>141.4</ele>
        <time>2022-04-04T08:55:05.000Z</time>
      </trkpt>
      <trkpt lat="43.17009" lon="5.93888">
        <ele>140.2</ele>
        <time>2022-04-04T08:55:07.000Z</time>
      </trkpt>
      <trkpt lat="43.17009" lon="5.93889">
        <ele>139.4</ele>
        <time>2022-04-04T08:55:08.000Z</time>
      </trkpt>
      <trkpt lat="43.17008" lon="5.93889">
        <ele>139</ele>
        <time>2022-04-04T08:55:09.000Z</time>
      </trkpt>
      <trkpt lat="43.17008" lon="5.93889">
        <ele>137.8</ele>
        <time>2022-04-04T08:55:11.000Z</time>
      </trkpt>
      <trkpt lat="43.17009" lon="5.9389">
        <ele>136.6</ele>
        <time>2022-04-04T08:55:14.000Z</time>
      </trkpt>
      <trkpt lat="43.17011" lon="5.93892">
        <ele>136.4</ele>
        <time>2022-04-04T08:55:16.000Z</time>
      </trkpt>
      <trkpt lat="43.17025" lon="5.93898">
        <ele>137.8</ele>
        <time>2022-04-04T08:55:30.000Z</time>
      </trkpt>
      <trkpt lat="43.17032" lon="5.939">
        <ele>139.2</ele>
        <time>2022-04-04T08:55:34.000Z</time>
      </trkpt>
      <trkpt lat="43.17038" lon="5.93904">
        <ele>140.4</ele>
        <time>2022-04-04T08:55:38.000Z</time>
      </trkpt>
      <trkpt lat="43.17043" lon="5.93909">
        <ele>141.2</ele>
        <time>2022-04-04T08:55:42.000Z</time>
      </trkpt>
      <trkpt lat="43.17049" lon="5.93915">
        <ele>142.4</ele>
        <time>2022-04-04T08:55:46.000Z</time>
      </trkpt>
      <trkpt lat="43.17057" lon="5.93922">
        <ele>143.6</ele>
        <time>2022-04-04T08:55:51.000Z</time>
      </trkpt>
      <trkpt lat="43.17063" lon="5.93926">
        <ele>144.8</ele>
        <time>2022-04-04T08:55:55.000Z</time>
      </trkpt>
      <trkpt lat="43.17068" lon="5.93929">
        <ele>145.8</ele>
        <time>2022-04-04T08:55:58.000Z</time>
      </trkpt>
      <trkpt lat="43.17074" lon="5.93934">
        <ele>146.8</ele>
        <time>2022-04-04T08:56:02.000Z</time>
      </trkpt>
      <trkpt lat="43.17077" lon="5.93937">
        <ele>148</ele>
        <time>2022-04-04T08:56:04.000Z</time>
      </trkpt>
      <trkpt lat="43.17082" lon="5.93942">
        <ele>149</ele>
        <time>2022-04-04T08:56:08.000Z</time>
      </trkpt>
      <trkpt lat="43.17086" lon="5.93945">
        <ele>150.2</ele>
        <time>2022-04-04T08:56:11.000Z</time>
      </trkpt>
      <trkpt lat="43.17092" lon="5.93948">
        <ele>151.4</ele>
        <time>2022-04-04T08:56:15.000Z</time>
      </trkpt>
      <trkpt lat="43.17093" lon="5.9394">
        <ele>152.6</ele>
        <time>2022-04-04T08:56:19.000Z</time>
      </trkpt>
      <trkpt lat="43.17094" lon="5.93938">
        <ele>153</ele>
        <time>2022-04-04T08:56:20.000Z</time>
      </trkpt>
      <trkpt lat="43.17094" lon="5.93933">
        <ele>153.6</ele>
        <time>2022-04-04T08:56:22.000Z</time>
      </trkpt>
      <trkpt lat="43.17093" lon="5.93925">
        <ele>154.8</ele>
        <time>2022-04-04T08:56:25.000Z</time>
      </trkpt>
      <trkpt lat="43.17095" lon="5.93921">
        <ele>155.2</ele>
        <time>2022-04-04T08:56:27.000Z</time>
      </trkpt>
      <trkpt lat="43.17102" lon="5.93921">
        <ele>155.8</ele>
        <time>2022-04-04T08:56:31.000Z</time>
      </trkpt>
      <trkpt lat="43.17106" lon="5.93927">
        <ele>156.4</ele>
        <time>2022-04-04T08:56:34.000Z</time>
      </trkpt>
      <trkpt lat="43.17108" lon="5.93932">
        <ele>157.2</ele>
        <time>2022-04-04T08:56:36.000Z</time>
      </trkpt>
      <trkpt lat="43.17116" lon="5.93946">
        <ele>158</ele>
        <time>2022-04-04T08:56:43.000Z</time>
      </trkpt>
      <trkpt lat="43.17119" lon="5.93952">
        <ele>159.2</ele>
        <time>2022-04-04T08:56:46.000Z</time>
      </trkpt>
      <trkpt lat="43.17123" lon="5.93958">
        <ele>160.2</ele>
        <time>2022-04-04T08:56:49.000Z</time>
      </trkpt>
      <trkpt lat="43.17126" lon="5.93966">
        <ele>161.4</ele>
        <time>2022-04-04T08:56:53.000Z</time>
      </trkpt>
      <trkpt lat="43.17128" lon="5.93975">
        <ele>162.4</ele>
        <time>2022-04-04T08:56:57.000Z</time>
      </trkpt>
      <trkpt lat="43.17132" lon="5.93983">
        <ele>163.2</ele>
        <time>2022-04-04T08:57:01.000Z</time>
      </trkpt>
      <trkpt lat="43.17134" lon="5.93992">
        <ele>164.4</ele>
        <time>2022-04-04T08:57:06.000Z</time>
      </trkpt>
      <trkpt lat="43.17133" lon="5.93995">
        <ele>164.8</ele>
        <time>2022-04-04T08:57:08.000Z</time>
      </trkpt>
      <trkpt lat="43.17132" lon="5.93998">
        <ele>166</ele>
        <time>2022-04-04T08:57:10.000Z</time>
      </trkpt>
      <trkpt lat="43.17131" lon="5.94004">
        <ele>167</ele>
        <time>2022-04-04T08:57:13.000Z</time>
      </trkpt>
      <trkpt lat="43.17135" lon="5.9401">
        <ele>168.4</ele>
        <time>2022-04-04T08:57:17.000Z</time>
      </trkpt>
      <trkpt lat="43.17139" lon="5.94013">
        <ele>169.6</ele>
        <time>2022-04-04T08:57:20.000Z</time>
      </trkpt>
      <trkpt lat="43.17141" lon="5.94019">
        <ele>170.6</ele>
        <time>2022-04-04T08:57:24.000Z</time>
      </trkpt>
      <trkpt lat="43.17139" lon="5.9402">
        <ele>170.8</ele>
        <time>2022-04-04T08:57:25.000Z</time>
      </trkpt>
      <trkpt lat="43.17133" lon="5.94021">
        <ele>171.8</ele>
        <time>2022-04-04T08:57:29.000Z</time>
      </trkpt>
      <trkpt lat="43.17127" lon="5.94022">
        <ele>173</ele>
        <time>2022-04-04T08:57:33.000Z</time>
      </trkpt>
      <trkpt lat="43.17121" lon="5.94023">
        <ele>174.2</ele>
        <time>2022-04-04T08:57:37.000Z</time>
      </trkpt>
      <trkpt lat="43.17112" lon="5.94027">
        <ele>175.2</ele>
        <time>2022-04-04T08:57:42.000Z</time>
      </trkpt>
      <trkpt lat="43.17107" lon="5.94031">
        <ele>176.2</ele>
        <time>2022-04-04T08:57:45.000Z</time>
      </trkpt>
      <trkpt lat="43.17096" lon="5.94038">
        <ele>177.2</ele>
        <time>2022-04-04T08:57:51.000Z</time>
      </trkpt>
      <trkpt lat="43.17089" lon="5.94043">
        <ele>178.4</ele>
        <time>2022-04-04T08:57:55.000Z</time>
      </trkpt>
      <trkpt lat="43.17083" lon="5.94049">
        <ele>179.6</ele>
        <time>2022-04-04T08:57:59.000Z</time>
      </trkpt>
      <trkpt lat="43.17076" lon="5.94053">
        <ele>180.8</ele>
        <time>2022-04-04T08:58:03.000Z</time>
      </trkpt>
      <trkpt lat="43.17067" lon="5.94058">
        <ele>181.8</ele>
        <time>2022-04-04T08:58:08.000Z</time>
      </trkpt>
      <trkpt lat="43.1706" lon="5.94061">
        <ele>182.8</ele>
        <time>2022-04-04T08:58:12.000Z</time>
      </trkpt>
      <trkpt lat="43.17051" lon="5.94066">
        <ele>184</ele>
        <time>2022-04-04T08:58:17.000Z</time>
      </trkpt>
      <trkpt lat="43.17048" lon="5.94074">
        <ele>184.8</ele>
        <time>2022-04-04T08:58:21.000Z</time>
      </trkpt>
      <trkpt lat="43.1705" lon="5.94077">
        <ele>185.2</ele>
        <time>2022-04-04T08:58:23.000Z</time>
      </trkpt>
      <trkpt lat="43.17057" lon="5.94078">
        <ele>186</ele>
        <time>2022-04-04T08:58:27.000Z</time>
      </trkpt>
      <trkpt lat="43.17059" lon="5.94078">
        <ele>186.4</ele>
        <time>2022-04-04T08:58:28.000Z</time>
      </trkpt>
      <trkpt lat="43.17066" lon="5.94079">
        <ele>187.4</ele>
        <time>2022-04-04T08:58:32.000Z</time>
      </trkpt>
      <trkpt lat="43.17073" lon="5.94082">
        <ele>188.4</ele>
        <time>2022-04-04T08:58:36.000Z</time>
      </trkpt>
      <trkpt lat="43.17081" lon="5.94082">
        <ele>189.6</ele>
        <time>2022-04-04T08:58:40.000Z</time>
      </trkpt>
      <trkpt lat="43.17088" lon="5.94083">
        <ele>190.8</ele>
        <time>2022-04-04T08:58:44.000Z</time>
      </trkpt>
      <trkpt lat="43.17095" lon="5.94085">
        <ele>191.8</ele>
        <time>2022-04-04T08:58:48.000Z</time>
      </trkpt>
      <trkpt lat="43.17102" lon="5.94086">
        <ele>193</ele>
        <time>2022-04-04T08:58:52.000Z</time>
      </trkpt>
      <trkpt lat="43.17109" lon="5.94088">
        <ele>194.2</ele>
        <time>2022-04-04T08:58:56.000Z</time>
      </trkpt>
      <trkpt lat="43.1712" lon="5.9409">
        <ele>195.4</ele>
        <time>2022-04-04T08:59:01.000Z</time>
      </trkpt>
      <trkpt lat="43.1713" lon="5.94095">
        <ele>196.6</ele>
        <time>2022-04-04T08:59:07.000Z</time>
      </trkpt>
      <trkpt lat="43.17137" lon="5.941">
        <ele>197.4</ele>
        <time>2022-04-04T08:59:11.000Z</time>
      </trkpt>
      <trkpt lat="43.17143" lon="5.94105">
        <ele>198.4</ele>
        <time>2022-04-04T08:59:15.000Z</time>
      </trkpt>
      <trkpt lat="43.17149" lon="5.9411">
        <ele>199.6</ele>
        <time>2022-04-04T08:59:19.000Z</time>
      </trkpt>
      <trkpt lat="43.17155" lon="5.94115">
        <ele>201.2</ele>
        <time>2022-04-04T08:59:23.000Z</time>
      </trkpt>
      <trkpt lat="43.17161" lon="5.9412">
        <ele>202.4</ele>
        <time>2022-04-04T08:59:27.000Z</time>
      </trkpt>
      <trkpt lat="43.17167" lon="5.94125">
        <ele>203.8</ele>
        <time>2022-04-04T08:59:31.000Z</time>
      </trkpt>
      <trkpt lat="43.17172" lon="5.94131">
        <ele>204.8</ele>
        <time>2022-04-04T08:59:35.000Z</time>
      </trkpt>
      <trkpt lat="43.17172" lon="5.94135">
        <ele>205.2</ele>
        <time>2022-04-04T08:59:37.000Z</time>
      </trkpt>
      <trkpt lat="43.17169" lon="5.94136">
        <ele>205.8</ele>
        <time>2022-04-04T08:59:40.000Z</time>
      </trkpt>
      <trkpt lat="43.17167" lon="5.94135">
        <ele>206.2</ele>
        <time>2022-04-04T08:59:41.000Z</time>
      </trkpt>
      <trkpt lat="43.17159" lon="5.94133">
        <ele>207</ele>
        <time>2022-04-04T08:59:45.000Z</time>
      </trkpt>
      <trkpt lat="43.17149" lon="5.94133">
        <ele>208</ele>
        <time>2022-04-04T08:59:51.000Z</time>
      </trkpt>
      <trkpt lat="43.1714" lon="5.94135">
        <ele>209</ele>
        <time>2022-04-04T08:59:56.000Z</time>
      </trkpt>
      <trkpt lat="43.17133" lon="5.94138">
        <ele>210.4</ele>
        <time>2022-04-04T09:00:00.000Z</time>
      </trkpt>
      <trkpt lat="43.17126" lon="5.94141">
        <ele>211.6</ele>
        <time>2022-04-04T09:00:04.000Z</time>
      </trkpt>
      <trkpt lat="43.1712" lon="5.94145">
        <ele>212.6</ele>
        <time>2022-04-04T09:00:08.000Z</time>
      </trkpt>
      <trkpt lat="43.17114" lon="5.94149">
        <ele>213.6</ele>
        <time>2022-04-04T09:00:12.000Z</time>
      </trkpt>
      <trkpt lat="43.17107" lon="5.94153">
        <ele>214.8</ele>
        <time>2022-04-04T09:00:16.000Z</time>
      </trkpt>
      <trkpt lat="43.17102" lon="5.94156">
        <ele>215.8</ele>
        <time>2022-04-04T09:00:19.000Z</time>
      </trkpt>
      <trkpt lat="43.17096" lon="5.94161">
        <ele>216.8</ele>
        <time>2022-04-04T09:00:23.000Z</time>
      </trkpt>
      <trkpt lat="43.17094" lon="5.94162">
        <ele>217</ele>
        <time>2022-04-04T09:00:24.000Z</time>
      </trkpt>
      <trkpt lat="43.17088" lon="5.94165">
        <ele>217.8</ele>
        <time>2022-04-04T09:00:27.000Z</time>
      </trkpt>
      <trkpt lat="43.17084" lon="5.9417">
        <ele>218.8</ele>
        <time>2022-04-04T09:00:30.000Z</time>
      </trkpt>
      <trkpt lat="43.17089" lon="5.94175">
        <ele>220</ele>
        <time>2022-04-04T09:00:34.000Z</time>
      </trkpt>
      <trkpt lat="43.17099" lon="5.94172">
        <ele>221.2</ele>
        <time>2022-04-04T09:00:39.000Z</time>
      </trkpt>
      <trkpt lat="43.1711" lon="5.94171">
        <ele>222.4</ele>
        <time>2022-04-04T09:00:44.000Z</time>
      </trkpt>
      <trkpt lat="43.17122" lon="5.94173">
        <ele>223.4</ele>
        <time>2022-04-04T09:00:50.000Z</time>
      </trkpt>
      <trkpt lat="43.17129" lon="5.94176">
        <ele>224.6</ele>
        <time>2022-04-04T09:00:54.000Z</time>
      </trkpt>
      <trkpt lat="43.17135" lon="5.94179">
        <ele>225.8</ele>
        <time>2022-04-04T09:00:58.000Z</time>
      </trkpt>
      <trkpt lat="43.17141" lon="5.94183">
        <ele>227</ele>
        <time>2022-04-04T09:01:02.000Z</time>
      </trkpt>
      <trkpt lat="43.17146" lon="5.94187">
        <ele>228.2</ele>
        <time>2022-04-04T09:01:05.000Z</time>
      </trkpt>
      <trkpt lat="43.17152" lon="5.94191">
        <ele>229.4</ele>
        <time>2022-04-04T09:01:09.000Z</time>
      </trkpt>
      <trkpt lat="43.17157" lon="5.94196">
        <ele>230.6</ele>
        <time>2022-04-04T09:01:13.000Z</time>
      </trkpt>
      <trkpt lat="43.17162" lon="5.94201">
        <ele>231.8</ele>
        <time>2022-04-04T09:01:17.000Z</time>
      </trkpt>
      <trkpt lat="43.17166" lon="5.94207">
        <ele>233</ele>
        <time>2022-04-04T09:01:21.000Z</time>
      </trkpt>
      <trkpt lat="43.17171" lon="5.94214">
        <ele>234.2</ele>
        <time>2022-04-04T09:01:26.000Z</time>
      </trkpt>
      <trkpt lat="43.17177" lon="5.94221">
        <ele>235.4</ele>
        <time>2022-04-04T09:01:31.000Z</time>
      </trkpt>
      <trkpt lat="43.17182" lon="5.94226">
        <ele>236.6</ele>
        <time>2022-04-04T09:01:35.000Z</time>
      </trkpt>
      <trkpt lat="43.17186" lon="5.94231">
        <ele>238</ele>
        <time>2022-04-04T09:01:38.000Z</time>
      </trkpt>
      <trkpt lat="43.17192" lon="5.94238">
        <ele>239.2</ele>
        <time>2022-04-04T09:01:43.000Z</time>
      </trkpt>
      <trkpt lat="43.172" lon="5.94241">
        <ele>240.4</ele>
        <time>2022-04-04T09:01:47.000Z</time>
      </trkpt>
      <trkpt lat="43.17208" lon="5.94241">
        <ele>241.4</ele>
        <time>2022-04-04T09:01:51.000Z</time>
      </trkpt>
      <trkpt lat="43.17221" lon="5.94237">
        <ele>242.4</ele>
        <time>2022-04-04T09:01:57.000Z</time>
      </trkpt>
      <trkpt lat="43.17231" lon="5.94232">
        <ele>243.4</ele>
        <time>2022-04-04T09:02:03.000Z</time>
      </trkpt>
      <trkpt lat="43.1724" lon="5.94227">
        <ele>244.6</ele>
        <time>2022-04-04T09:02:08.000Z</time>
      </trkpt>
      <trkpt lat="43.17243" lon="5.94223">
        <ele>245.8</ele>
        <time>2022-04-04T09:02:11.000Z</time>
      </trkpt>
      <trkpt lat="43.17247" lon="5.94216">
        <ele>246.8</ele>
        <time>2022-04-04T09:02:15.000Z</time>
      </trkpt>
      <trkpt lat="43.17252" lon="5.942">
        <ele>247.8</ele>
        <time>2022-04-04T09:02:22.000Z</time>
      </trkpt>
      <trkpt lat="43.17256" lon="5.94191">
        <ele>248.8</ele>
        <time>2022-04-04T09:02:26.000Z</time>
      </trkpt>
      <trkpt lat="43.17262" lon="5.94184">
        <ele>250.2</ele>
        <time>2022-04-04T09:02:30.000Z</time>
      </trkpt>
      <trkpt lat="43.17264" lon="5.94184">
        <ele>250.4</ele>
        <time>2022-04-04T09:02:31.000Z</time>
      </trkpt>
      <trkpt lat="43.17267" lon="5.94191">
        <ele>251.2</ele>
        <time>2022-04-04T09:02:35.000Z</time>
      </trkpt>
      <trkpt lat="43.17265" lon="5.94199">
        <ele>252</ele>
        <time>2022-04-04T09:02:38.000Z</time>
      </trkpt>
      <trkpt lat="43.17263" lon="5.94203">
        <ele>252.4</ele>
        <time>2022-04-04T09:02:40.000Z</time>
      </trkpt>
      <trkpt lat="43.17262" lon="5.94213">
        <ele>253.4</ele>
        <time>2022-04-04T09:02:44.000Z</time>
      </trkpt>
      <trkpt lat="43.17263" lon="5.94225">
        <ele>254.6</ele>
        <time>2022-04-04T09:02:49.000Z</time>
      </trkpt>
      <trkpt lat="43.17263" lon="5.94233">
        <ele>255.8</ele>
        <time>2022-04-04T09:02:52.000Z</time>
      </trkpt>
      <trkpt lat="43.17264" lon="5.94241">
        <ele>256.8</ele>
        <time>2022-04-04T09:02:55.000Z</time>
      </trkpt>
      <trkpt lat="43.17264" lon="5.94242">
        <ele>257.8</ele>
        <time>2022-04-04T09:02:58.000Z</time>
      </trkpt>
      <trkpt lat="43.17264" lon="5.9425">
        <ele>258.8</ele>
        <time>2022-04-04T09:03:06.000Z</time>
      </trkpt>
      <trkpt lat="43.17272" lon="5.94265">
        <ele>259.6</ele>
        <time>2022-04-04T09:03:15.000Z</time>
      </trkpt>
      <trkpt lat="43.17275" lon="5.94264">
        <ele>260</ele>
        <time>2022-04-04T09:03:17.000Z</time>
      </trkpt>
      <trkpt lat="43.17281" lon="5.94261">
        <ele>261.4</ele>
        <time>2022-04-04T09:03:20.000Z</time>
      </trkpt>
      <trkpt lat="43.17287" lon="5.94257">
        <ele>262.8</ele>
        <time>2022-04-04T09:03:23.000Z</time>
      </trkpt>
      <trkpt lat="43.17294" lon="5.9425">
        <ele>264</ele>
        <time>2022-04-04T09:03:27.000Z</time>
      </trkpt>
      <trkpt lat="43.17302" lon="5.94243">
        <ele>265.2</ele>
        <time>2022-04-04T09:03:31.000Z</time>
      </trkpt>
      <trkpt lat="43.17307" lon="5.94238">
        <ele>266.2</ele>
        <time>2022-04-04T09:03:34.000Z</time>
      </trkpt>
      <trkpt lat="43.17316" lon="5.94229">
        <ele>267.2</ele>
        <time>2022-04-04T09:03:39.000Z</time>
      </trkpt>
      <trkpt lat="43.17325" lon="5.94221">
        <ele>268.4</ele>
        <time>2022-04-04T09:03:44.000Z</time>
      </trkpt>
      <trkpt lat="43.17333" lon="5.94214">
        <ele>269.4</ele>
        <time>2022-04-04T09:03:49.000Z</time>
      </trkpt>
      <trkpt lat="43.17337" lon="5.9421">
        <ele>270.8</ele>
        <time>2022-04-04T09:03:52.000Z</time>
      </trkpt>
      <trkpt lat="43.17346" lon="5.94203">
        <ele>271.8</ele>
        <time>2022-04-04T09:03:57.000Z</time>
      </trkpt>
      <trkpt lat="43.17352" lon="5.94197">
        <ele>273</ele>
        <time>2022-04-04T09:04:01.000Z</time>
      </trkpt>
      <trkpt lat="43.17357" lon="5.94192">
        <ele>274</ele>
        <time>2022-04-04T09:04:04.000Z</time>
      </trkpt>
      <trkpt lat="43.17363" lon="5.94188">
        <ele>275</ele>
        <time>2022-04-04T09:04:07.000Z</time>
      </trkpt>
      <trkpt lat="43.17368" lon="5.94184">
        <ele>276.2</ele>
        <time>2022-04-04T09:04:10.000Z</time>
      </trkpt>
      <trkpt lat="43.17374" lon="5.94181">
        <ele>277.4</ele>
        <time>2022-04-04T09:04:14.000Z</time>
      </trkpt>
      <trkpt lat="43.17379" lon="5.94175">
        <ele>279</ele>
        <time>2022-04-04T09:04:18.000Z</time>
      </trkpt>
      <trkpt lat="43.17382" lon="5.94171">
        <ele>280.2</ele>
        <time>2022-04-04T09:04:21.000Z</time>
      </trkpt>
      <trkpt lat="43.17384" lon="5.94171">
        <ele>280.4</ele>
        <time>2022-04-04T09:04:43.000Z</time>
      </trkpt>
      <trkpt lat="43.17384" lon="5.94171">
        <ele>280.6</ele>
        <time>2022-04-04T09:04:49.000Z</time>
      </trkpt>
      <trkpt lat="43.17381" lon="5.94173">
        <ele>280.4</ele>
        <time>2022-04-04T09:05:15.000Z</time>
      </trkpt>
      <trkpt lat="43.17366" lon="5.94187">
        <ele>280</ele>
        <time>2022-04-04T09:05:21.000Z</time>
      </trkpt>
      <trkpt lat="43.17358" lon="5.94193">
        <ele>279.8</ele>
        <time>2022-04-04T09:05:23.000Z</time>
      </trkpt>
      <trkpt lat="43.17336" lon="5.94213">
        <ele>279</ele>
        <time>2022-04-04T09:05:29.000Z</time>
      </trkpt>
      <trkpt lat="43.17329" lon="5.94218">
        <ele>277.6</ele>
        <time>2022-04-04T09:05:32.000Z</time>
      </trkpt>
      <trkpt lat="43.17322" lon="5.94225">
        <ele>275</ele>
        <time>2022-04-04T09:05:34.000Z</time>
      </trkpt>
      <trkpt lat="43.17312" lon="5.94235">
        <ele>273</ele>
        <time>2022-04-04T09:05:36.000Z</time>
      </trkpt>
      <trkpt lat="43.173" lon="5.94246">
        <ele>271.6</ele>
        <time>2022-04-04T09:05:38.000Z</time>
      </trkpt>
      <trkpt lat="43.17281" lon="5.9426">
        <ele>270.8</ele>
        <time>2022-04-04T09:05:41.000Z</time>
      </trkpt>
      <trkpt lat="43.17276" lon="5.94262">
        <ele>270.2</ele>
        <time>2022-04-04T09:05:42.000Z</time>
      </trkpt>
      <trkpt lat="43.17268" lon="5.94261">
        <ele>269.2</ele>
        <time>2022-04-04T09:05:44.000Z</time>
      </trkpt>
      <trkpt lat="43.17265" lon="5.94252">
        <ele>267.8</ele>
        <time>2022-04-04T09:05:46.000Z</time>
      </trkpt>
      <trkpt lat="43.17266" lon="5.94244">
        <ele>266.2</ele>
        <time>2022-04-04T09:05:48.000Z</time>
      </trkpt>
      <trkpt lat="43.17265" lon="5.94242">
        <ele>264.4</ele>
        <time>2022-04-04T09:05:50.000Z</time>
      </trkpt>
      <trkpt lat="43.17262" lon="5.94244">
        <ele>262.8</ele>
        <time>2022-04-04T09:05:52.000Z</time>
      </trkpt>
      <trkpt lat="43.17262" lon="5.94245">
        <ele>261.4</ele>
        <time>2022-04-04T09:05:54.000Z</time>
      </trkpt>
      <trkpt lat="43.17261" lon="5.94247">
        <ele>260</ele>
        <time>2022-04-04T09:05:57.000Z</time>
      </trkpt>
      <trkpt lat="43.17258" lon="5.94247">
        <ele>259.6</ele>
        <time>2022-04-04T09:05:59.000Z</time>
      </trkpt>
      <trkpt lat="43.17249" lon="5.94255">
        <ele>258.8</ele>
        <time>2022-04-04T09:06:04.000Z</time>
      </trkpt>
      <trkpt lat="43.17247" lon="5.94256">
        <ele>258.6</ele>
        <time>2022-04-04T09:06:05.000Z</time>
      </trkpt>
      <trkpt lat="43.17239" lon="5.94264">
        <ele>257.8</ele>
        <time>2022-04-04T09:06:09.000Z</time>
      </trkpt>
      <trkpt lat="43.17219" lon="5.94274">
        <ele>256.6</ele>
        <time>2022-04-04T09:06:17.000Z</time>
      </trkpt>
      <trkpt lat="43.17203" lon="5.94279">
        <ele>256.4</ele>
        <time>2022-04-04T09:06:25.000Z</time>
      </trkpt>
      <trkpt lat="43.17201" lon="5.9428">
        <ele>256.4</ele>
        <time>2022-04-04T09:06:27.000Z</time>
      </trkpt>
      <trkpt lat="43.17194" lon="5.94278">
        <ele>257.8</ele>
        <time>2022-04-04T09:06:32.000Z</time>
      </trkpt>
      <trkpt lat="43.17189" lon="5.94275">
        <ele>259</ele>
        <time>2022-04-04T09:06:35.000Z</time>
      </trkpt>
      <trkpt lat="43.17178" lon="5.9427">
        <ele>259.2</ele>
        <time>2022-04-04T09:06:40.000Z</time>
      </trkpt>
      <trkpt lat="43.17157" lon="5.94267">
        <ele>259.2</ele>
        <time>2022-04-04T09:06:46.000Z</time>
      </trkpt>
      <trkpt lat="43.17151" lon="5.94286">
        <ele>258.6</ele>
        <time>2022-04-04T09:06:53.000Z</time>
      </trkpt>
      <trkpt lat="43.1715" lon="5.94294">
        <ele>258.6</ele>
        <time>2022-04-04T09:06:56.000Z</time>
      </trkpt>
      <trkpt lat="43.1714" lon="5.943">
        <ele>259.4</ele>
        <time>2022-04-04T09:07:00.000Z</time>
      </trkpt>
      <trkpt lat="43.17137" lon="5.943">
        <ele>260</ele>
        <time>2022-04-04T09:07:01.000Z</time>
      </trkpt>
      <trkpt lat="43.17129" lon="5.94302">
        <ele>260.6</ele>
        <time>2022-04-04T09:07:03.000Z</time>
      </trkpt>
      <trkpt lat="43.17115" lon="5.94312">
        <ele>261</ele>
        <time>2022-04-04T09:07:08.000Z</time>
      </trkpt>
      <trkpt lat="43.17083" lon="5.94342">
        <ele>258.6</ele>
        <time>2022-04-04T09:07:20.000Z</time>
      </trkpt>
      <trkpt lat="43.17077" lon="5.94347">
        <ele>258.6</ele>
        <time>2022-04-04T09:07:22.000Z</time>
      </trkpt>
      <trkpt lat="43.17062" lon="5.94371">
        <ele>257.8</ele>
        <time>2022-04-04T09:07:28.000Z</time>
      </trkpt>
      <trkpt lat="43.17057" lon="5.94383">
        <ele>256.6</ele>
        <time>2022-04-04T09:07:31.000Z</time>
      </trkpt>
      <trkpt lat="43.17045" lon="5.94411">
        <ele>255.6</ele>
        <time>2022-04-04T09:07:42.000Z</time>
      </trkpt>
      <trkpt lat="43.17034" lon="5.94434">
        <ele>254.4</ele>
        <time>2022-04-04T09:07:49.000Z</time>
      </trkpt>
      <trkpt lat="43.1702" lon="5.94457">
        <ele>253.8</ele>
        <time>2022-04-04T09:07:56.000Z</time>
      </trkpt>
      <trkpt lat="43.17003" lon="5.94482">
        <ele>253.4</ele>
        <time>2022-04-04T09:08:05.000Z</time>
      </trkpt>
      <trkpt lat="43.16988" lon="5.94508">
        <ele>253.4</ele>
        <time>2022-04-04T09:08:14.000Z</time>
      </trkpt>
      <trkpt lat="43.16981" lon="5.94515">
        <ele>253.4</ele>
        <time>2022-04-04T09:08:17.000Z</time>
      </trkpt>
      <trkpt lat="43.1698" lon="5.94519">
        <ele>253.4</ele>
        <time>2022-04-04T09:08:18.000Z</time>
      </trkpt>
      <trkpt lat="43.16973" lon="5.94536">
        <ele>252.8</ele>
        <time>2022-04-04T09:08:23.000Z</time>
      </trkpt>
      <trkpt lat="43.16968" lon="5.94554">
        <ele>252.4</ele>
        <time>2022-04-04T09:08:28.000Z</time>
      </trkpt>
      <trkpt lat="43.16967" lon="5.94557">
        <ele>252.2</ele>
        <time>2022-04-04T09:08:29.000Z</time>
      </trkpt>
      <trkpt lat="43.16968" lon="5.94578">
        <ele>252.2</ele>
        <time>2022-04-04T09:08:38.000Z</time>
      </trkpt>
      <trkpt lat="43.16968" lon="5.94585">
        <ele>253.6</ele>
        <time>2022-04-04T09:08:44.000Z</time>
      </trkpt>
      <trkpt lat="43.16968" lon="5.94587">
        <ele>254</ele>
        <time>2022-04-04T09:08:45.000Z</time>
      </trkpt>
      <trkpt lat="43.16969" lon="5.94594">
        <ele>254.6</ele>
        <time>2022-04-04T09:08:48.000Z</time>
      </trkpt>
      <trkpt lat="43.16973" lon="5.94613">
        <ele>255.8</ele>
        <time>2022-04-04T09:08:55.000Z</time>
      </trkpt>
      <trkpt lat="43.16975" lon="5.94625">
        <ele>256.8</ele>
        <time>2022-04-04T09:08:59.000Z</time>
      </trkpt>
      <trkpt lat="43.16974" lon="5.94628">
        <ele>257</ele>
        <time>2022-04-04T09:09:00.000Z</time>
      </trkpt>
      <trkpt lat="43.16953" lon="5.94683">
        <ele>256.4</ele>
        <time>2022-04-04T09:09:13.000Z</time>
      </trkpt>
      <trkpt lat="43.16949" lon="5.94694">
        <ele>255.2</ele>
        <time>2022-04-04T09:09:15.000Z</time>
      </trkpt>
      <trkpt lat="43.16945" lon="5.94703">
        <ele>254</ele>
        <time>2022-04-04T09:09:17.000Z</time>
      </trkpt>
      <trkpt lat="43.1694" lon="5.9471">
        <ele>252.8</ele>
        <time>2022-04-04T09:09:19.000Z</time>
      </trkpt>
      <trkpt lat="43.16936" lon="5.94715">
        <ele>251.4</ele>
        <time>2022-04-04T09:09:21.000Z</time>
      </trkpt>
      <trkpt lat="43.16935" lon="5.94717">
        <ele>250.6</ele>
        <time>2022-04-04T09:09:22.000Z</time>
      </trkpt>
      <trkpt lat="43.16935" lon="5.94719">
        <ele>249.8</ele>
        <time>2022-04-04T09:09:23.000Z</time>
      </trkpt>
      <trkpt lat="43.16932" lon="5.94724">
        <ele>248.4</ele>
        <time>2022-04-04T09:09:25.000Z</time>
      </trkpt>
      <trkpt lat="43.1693" lon="5.94727">
        <ele>247.8</ele>
        <time>2022-04-04T09:09:26.000Z</time>
      </trkpt>
      <trkpt lat="43.16928" lon="5.9473">
        <ele>247</ele>
        <time>2022-04-04T09:09:27.000Z</time>
      </trkpt>
      <trkpt lat="43.16925" lon="5.94733">
        <ele>245.8</ele>
        <time>2022-04-04T09:09:28.000Z</time>
      </trkpt>
      <trkpt lat="43.16916" lon="5.94743">
        <ele>244.6</ele>
        <time>2022-04-04T09:09:31.000Z</time>
      </trkpt>
      <trkpt lat="43.16904" lon="5.94747">
        <ele>243.8</ele>
        <time>2022-04-04T09:09:34.000Z</time>
      </trkpt>
      <trkpt lat="43.16899" lon="5.94748">
        <ele>243.6</ele>
        <time>2022-04-04T09:09:35.000Z</time>
      </trkpt>
      <trkpt lat="43.16888" lon="5.9475">
        <ele>242.4</ele>
        <time>2022-04-04T09:09:38.000Z</time>
      </trkpt>
      <trkpt lat="43.16882" lon="5.94754">
        <ele>241.4</ele>
        <time>2022-04-04T09:09:40.000Z</time>
      </trkpt>
      <trkpt lat="43.16879" lon="5.94758">
        <ele>240.8</ele>
        <time>2022-04-04T09:09:41.000Z</time>
      </trkpt>
      <trkpt lat="43.16875" lon="5.94762">
        <ele>240.4</ele>
        <time>2022-04-04T09:09:42.000Z</time>
      </trkpt>
      <trkpt lat="43.16868" lon="5.94769">
        <ele>239.8</ele>
        <time>2022-04-04T09:09:44.000Z</time>
      </trkpt>
      <trkpt lat="43.16855" lon="5.9478">
        <ele>239.2</ele>
        <time>2022-04-04T09:09:47.000Z</time>
      </trkpt>
      <trkpt lat="43.16842" lon="5.94795">
        <ele>238.2</ele>
        <time>2022-04-04T09:09:50.000Z</time>
      </trkpt>
      <trkpt lat="43.16835" lon="5.94806">
        <ele>236.2</ele>
        <time>2022-04-04T09:09:52.000Z</time>
      </trkpt>
      <trkpt lat="43.16829" lon="5.94817">
        <ele>234.6</ele>
        <time>2022-04-04T09:09:54.000Z</time>
      </trkpt>
      <trkpt lat="43.16826" lon="5.94823">
        <ele>233.8</ele>
        <time>2022-04-04T09:09:55.000Z</time>
      </trkpt>
      <trkpt lat="43.16823" lon="5.94829">
        <ele>233.2</ele>
        <time>2022-04-04T09:09:56.000Z</time>
      </trkpt>
      <trkpt lat="43.16817" lon="5.94841">
        <ele>231.6</ele>
        <time>2022-04-04T09:09:58.000Z</time>
      </trkpt>
      <trkpt lat="43.16812" lon="5.94854">
        <ele>230</ele>
        <time>2022-04-04T09:10:00.000Z</time>
      </trkpt>
      <trkpt lat="43.16809" lon="5.94859">
        <ele>228.6</ele>
        <time>2022-04-04T09:10:01.000Z</time>
      </trkpt>
      <trkpt lat="43.16805" lon="5.94868">
        <ele>227.4</ele>
        <time>2022-04-04T09:10:03.000Z</time>
      </trkpt>
      <trkpt lat="43.16803" lon="5.94875">
        <ele>226</ele>
        <time>2022-04-04T09:10:05.000Z</time>
      </trkpt>
      <trkpt lat="43.16802" lon="5.94879">
        <ele>224.4</ele>
        <time>2022-04-04T09:10:07.000Z</time>
      </trkpt>
      <trkpt lat="43.168" lon="5.94884">
        <ele>222.8</ele>
        <time>2022-04-04T09:10:09.000Z</time>
      </trkpt>
      <trkpt lat="43.16798" lon="5.94886">
        <ele>221.8</ele>
        <time>2022-04-04T09:10:10.000Z</time>
      </trkpt>
      <trkpt lat="43.16795" lon="5.94891">
        <ele>220.6</ele>
        <time>2022-04-04T09:10:12.000Z</time>
      </trkpt>
      <trkpt lat="43.16766" lon="5.9494">
        <ele>219.6</ele>
        <time>2022-04-04T09:10:27.000Z</time>
      </trkpt>
      <trkpt lat="43.16747" lon="5.94948">
        <ele>219.6</ele>
        <time>2022-04-04T09:10:31.000Z</time>
      </trkpt>
      <trkpt lat="43.1673" lon="5.94958">
        <ele>217.6</ele>
        <time>2022-04-04T09:10:35.000Z</time>
      </trkpt>
      <trkpt lat="43.16722" lon="5.94964">
        <ele>215.8</ele>
        <time>2022-04-04T09:10:37.000Z</time>
      </trkpt>
      <trkpt lat="43.16717" lon="5.94971">
        <ele>214.4</ele>
        <time>2022-04-04T09:10:39.000Z</time>
      </trkpt>
      <trkpt lat="43.16711" lon="5.94981">
        <ele>213.4</ele>
        <time>2022-04-04T09:10:42.000Z</time>
      </trkpt>
      <trkpt lat="43.16681" lon="5.95045">
        <ele>213.8</ele>
        <time>2022-04-04T09:11:00.000Z</time>
      </trkpt>
      <trkpt lat="43.16664" lon="5.95097">
        <ele>212.8</ele>
        <time>2022-04-04T09:11:13.000Z</time>
      </trkpt>
      <trkpt lat="43.16661" lon="5.95108">
        <ele>212.2</ele>
        <time>2022-04-04T09:11:16.000Z</time>
      </trkpt>
      <trkpt lat="43.16654" lon="5.9512">
        <ele>211.2</ele>
        <time>2022-04-04T09:11:19.000Z</time>
      </trkpt>
      <trkpt lat="43.16641" lon="5.95138">
        <ele>210.6</ele>
        <time>2022-04-04T09:11:23.000Z</time>
      </trkpt>
      <trkpt lat="43.16637" lon="5.95145">
        <ele>210.2</ele>
        <time>2022-04-04T09:11:25.000Z</time>
      </trkpt>
      <trkpt lat="43.1663" lon="5.95152">
        <ele>209</ele>
        <time>2022-04-04T09:11:29.000Z</time>
      </trkpt>
      <trkpt lat="43.16621" lon="5.9516">
        <ele>208</ele>
        <time>2022-04-04T09:11:32.000Z</time>
      </trkpt>
      <trkpt lat="43.16603" lon="5.9518">
        <ele>206.8</ele>
        <time>2022-04-04T09:11:38.000Z</time>
      </trkpt>
      <trkpt lat="43.16591" lon="5.952">
        <ele>205.6</ele>
        <time>2022-04-04T09:11:42.000Z</time>
      </trkpt>
      <trkpt lat="43.16579" lon="5.95221">
        <ele>204.2</ele>
        <time>2022-04-04T09:11:47.000Z</time>
      </trkpt>
      <trkpt lat="43.16562" lon="5.95259">
        <ele>203.2</ele>
        <time>2022-04-04T09:11:57.000Z</time>
      </trkpt>
      <trkpt lat="43.16554" lon="5.95286">
        <ele>202.4</ele>
        <time>2022-04-04T09:12:04.000Z</time>
      </trkpt>
      <trkpt lat="43.16553" lon="5.9529">
        <ele>202.4</ele>
        <time>2022-04-04T09:12:05.000Z</time>
      </trkpt>
      <trkpt lat="43.16549" lon="5.95299">
        <ele>202</ele>
        <time>2022-04-04T09:12:08.000Z</time>
      </trkpt>
      <trkpt lat="43.16538" lon="5.9532">
        <ele>202</ele>
        <time>2022-04-04T09:12:14.000Z</time>
      </trkpt>
      <trkpt lat="43.16536" lon="5.95324">
        <ele>202.2</ele>
        <time>2022-04-04T09:12:15.000Z</time>
      </trkpt>
      <trkpt lat="43.16528" lon="5.95345">
        <ele>202.2</ele>
        <time>2022-04-04T09:12:21.000Z</time>
      </trkpt>
      <trkpt lat="43.16525" lon="5.95383">
        <ele>202.4</ele>
        <time>2022-04-04T09:12:30.000Z</time>
      </trkpt>
      <trkpt lat="43.16526" lon="5.95399">
        <ele>203.4</ele>
        <time>2022-04-04T09:12:35.000Z</time>
      </trkpt>
      <trkpt lat="43.16525" lon="5.95406">
        <ele>204.4</ele>
        <time>2022-04-04T09:12:38.000Z</time>
      </trkpt>
      <trkpt lat="43.16523" lon="5.95415">
        <ele>205.8</ele>
        <time>2022-04-04T09:12:41.000Z</time>
      </trkpt>
      <trkpt lat="43.16522" lon="5.9542">
        <ele>207</ele>
        <time>2022-04-04T09:12:44.000Z</time>
      </trkpt>
      <trkpt lat="43.16522" lon="5.95424">
        <ele>207.4</ele>
        <time>2022-04-04T09:12:46.000Z</time>
      </trkpt>
      <trkpt lat="43.16523" lon="5.9543">
        <ele>208</ele>
        <time>2022-04-04T09:12:48.000Z</time>
      </trkpt>
      <trkpt lat="43.16524" lon="5.95437">
        <ele>209</ele>
        <time>2022-04-04T09:12:50.000Z</time>
      </trkpt>
      <trkpt lat="43.16525" lon="5.95447">
        <ele>210</ele>
        <time>2022-04-04T09:12:53.000Z</time>
      </trkpt>
      <trkpt lat="43.16526" lon="5.9545">
        <ele>210.2</ele>
        <time>2022-04-04T09:12:54.000Z</time>
      </trkpt>
      <trkpt lat="43.16526" lon="5.95463">
        <ele>211.2</ele>
        <time>2022-04-04T09:12:58.000Z</time>
      </trkpt>
      <trkpt lat="43.16527" lon="5.95467">
        <ele>212</ele>
        <time>2022-04-04T09:13:00.000Z</time>
      </trkpt>
      <trkpt lat="43.16528" lon="5.95471">
        <ele>212.2</ele>
        <time>2022-04-04T09:13:01.000Z</time>
      </trkpt>
      <trkpt lat="43.16528" lon="5.95478">
        <ele>213.2</ele>
        <time>2022-04-04T09:13:04.000Z</time>
      </trkpt>
      <trkpt lat="43.16528" lon="5.9548">
        <ele>213.6</ele>
        <time>2022-04-04T09:13:05.000Z</time>
      </trkpt>
      <trkpt lat="43.16527" lon="5.95487">
        <ele>214.6</ele>
        <time>2022-04-04T09:13:08.000Z</time>
      </trkpt>
      <trkpt lat="43.16526" lon="5.95492">
        <ele>215.6</ele>
        <time>2022-04-04T09:13:11.000Z</time>
      </trkpt>
      <trkpt lat="43.16526" lon="5.95492">
        <ele>216.8</ele>
        <time>2022-04-04T09:13:13.000Z</time>
      </trkpt>
      <trkpt lat="43.16527" lon="5.95493">
        <ele>217.8</ele>
        <time>2022-04-04T09:13:15.000Z</time>
      </trkpt>
      <trkpt lat="43.16528" lon="5.95496">
        <ele>219</ele>
        <time>2022-04-04T09:13:17.000Z</time>
      </trkpt>
      <trkpt lat="43.16528" lon="5.95497">
        <ele>220.2</ele>
        <time>2022-04-04T09:13:21.000Z</time>
      </trkpt>
      <trkpt lat="43.16529" lon="5.95501">
        <ele>220.4</ele>
        <time>2022-04-04T09:13:23.000Z</time>
      </trkpt>
      <trkpt lat="43.16529" lon="5.95512">
        <ele>220.6</ele>
        <time>2022-04-04T09:13:29.000Z</time>
      </trkpt>
      <trkpt lat="43.16529" lon="5.95514">
        <ele>221</ele>
        <time>2022-04-04T09:13:30.000Z</time>
      </trkpt>
      <trkpt lat="43.1653" lon="5.95517">
        <ele>222.6</ele>
        <time>2022-04-04T09:13:33.000Z</time>
      </trkpt>
      <trkpt lat="43.1653" lon="5.95518">
        <ele>224</ele>
        <time>2022-04-04T09:13:36.000Z</time>
      </trkpt>
      <trkpt lat="43.1653" lon="5.95523">
        <ele>224.8</ele>
        <time>2022-04-04T09:13:41.000Z</time>
      </trkpt>
      <trkpt lat="43.1653" lon="5.95536">
        <ele>226</ele>
        <time>2022-04-04T09:13:50.000Z</time>
      </trkpt>
      <trkpt lat="43.16529" lon="5.95544">
        <ele>227.2</ele>
        <time>2022-04-04T09:13:56.000Z</time>
      </trkpt>
      <trkpt lat="43.16527" lon="5.95555">
        <ele>228.2</ele>
        <time>2022-04-04T09:14:06.000Z</time>
      </trkpt>
      <trkpt lat="43.16525" lon="5.95562">
        <ele>228.6</ele>
        <time>2022-04-04T09:14:20.000Z</time>
      </trkpt>
      <trkpt lat="43.16525" lon="5.95562">
        <ele>228.6</ele>
        <time>2022-04-04T09:14:28.000Z</time>
      </trkpt>
      <trkpt lat="43.16525" lon="5.95562">
        <ele>228.6</ele>
        <time>2022-04-04T09:14:34.000Z</time>
      </trkpt>
      <trkpt lat="43.16525" lon="5.95562">
        <ele>228.6</ele>
        <time>2022-04-04T09:14:54.000Z</time>
      </trkpt>
      <trkpt lat="43.16526" lon="5.95563">
        <ele>228.6</ele>
        <time>2022-04-04T09:15:01.000Z</time>
      </trkpt>
      <trkpt lat="43.16529" lon="5.95567">
        <ele>228.6</ele>
        <time>2022-04-04T09:15:04.000Z</time>
      </trkpt>
      <trkpt lat="43.16532" lon="5.95579">
        <ele>226.2</ele>
        <time>2022-04-04T09:15:13.000Z</time>
      </trkpt>
      <trkpt lat="43.16533" lon="5.95581">
        <ele>224.8</ele>
        <time>2022-04-04T09:15:15.000Z</time>
      </trkpt>
      <trkpt lat="43.16538" lon="5.95586">
        <ele>223.4</ele>
        <time>2022-04-04T09:15:19.000Z</time>
      </trkpt>
      <trkpt lat="43.16542" lon="5.95593">
        <ele>222.4</ele>
        <time>2022-04-04T09:15:23.000Z</time>
      </trkpt>
      <trkpt lat="43.16543" lon="5.95595">
        <ele>222.4</ele>
        <time>2022-04-04T09:15:24.000Z</time>
      </trkpt>
      <trkpt lat="43.16545" lon="5.95597">
        <ele>222.2</ele>
        <time>2022-04-04T09:15:26.000Z</time>
      </trkpt>
      <trkpt lat="43.16548" lon="5.95598">
        <ele>220.8</ele>
        <time>2022-04-04T09:15:28.000Z</time>
      </trkpt>
      <trkpt lat="43.16553" lon="5.95602">
        <ele>219.6</ele>
        <time>2022-04-04T09:15:32.000Z</time>
      </trkpt>
      <trkpt lat="43.16559" lon="5.95609">
        <ele>218.2</ele>
        <time>2022-04-04T09:15:36.000Z</time>
      </trkpt>
      <trkpt lat="43.16562" lon="5.95611">
        <ele>216.8</ele>
        <time>2022-04-04T09:15:38.000Z</time>
      </trkpt>
      <trkpt lat="43.16566" lon="5.95614">
        <ele>215.6</ele>
        <time>2022-04-04T09:15:40.000Z</time>
      </trkpt>
      <trkpt lat="43.16569" lon="5.95613">
        <ele>214.2</ele>
        <time>2022-04-04T09:15:42.000Z</time>
      </trkpt>
      <trkpt lat="43.1657" lon="5.95614">
        <ele>212.6</ele>
        <time>2022-04-04T09:15:44.000Z</time>
      </trkpt>
      <trkpt lat="43.16572" lon="5.95616">
        <ele>211.2</ele>
        <time>2022-04-04T09:15:47.000Z</time>
      </trkpt>
      <trkpt lat="43.16574" lon="5.95617">
        <ele>209.8</ele>
        <time>2022-04-04T09:15:50.000Z</time>
      </trkpt>
      <trkpt lat="43.16579" lon="5.9562">
        <ele>208.8</ele>
        <time>2022-04-04T09:15:56.000Z</time>
      </trkpt>
      <trkpt lat="43.1658" lon="5.95622">
        <ele>207.8</ele>
        <time>2022-04-04T09:16:03.000Z</time>
      </trkpt>
      <trkpt lat="43.1658" lon="5.95627">
        <ele>206.6</ele>
        <time>2022-04-04T09:16:10.000Z</time>
      </trkpt>
      <trkpt lat="43.16581" lon="5.9563">
        <ele>205.4</ele>
        <time>2022-04-04T09:16:15.000Z</time>
      </trkpt>
      <trkpt lat="43.16586" lon="5.9563">
        <ele>204.4</ele>
        <time>2022-04-04T09:16:20.000Z</time>
      </trkpt>
      <trkpt lat="43.16596" lon="5.95629">
        <ele>203.8</ele>
        <time>2022-04-04T09:16:27.063Z</time>
      </trkpt>
      <trkpt lat="43.16599" lon="5.95629">
        <ele>231.75</ele>
        <time>2022-04-04T09:16:28.943Z</time>
      </trkpt>
      <trkpt lat="43.166" lon="5.95623">
        <ele>233.25</ele>
        <time>2022-04-04T09:16:32.208Z</time>
      </trkpt>
      <trkpt lat="43.16585" lon="5.95622">
        <ele>230.5</ele>
        <time>2022-04-04T09:16:42.070Z</time>
      </trkpt>
      <trkpt lat="43.16577" lon="5.95629">
        <ele>228.5</ele>
        <time>2022-04-04T09:16:48.335Z</time>
      </trkpt>
      <trkpt lat="43.16569" lon="5.95644">
        <ele>224.75</ele>
        <time>2022-04-04T09:16:57.969Z</time>
      </trkpt>
      <trkpt lat="43.16564" lon="5.95652">
        <ele>222.75</ele>
        <time>2022-04-04T09:17:03.477Z</time>
      </trkpt>
      <trkpt lat="43.16556" lon="5.9566">
        <ele>220.75</ele>
        <time>2022-04-04T09:17:09.807Z</time>
      </trkpt>
      <trkpt lat="43.16533" lon="5.95707">
        <ele>217.75</ele>
        <time>2022-04-04T09:17:38.007Z</time>
      </trkpt>
      <trkpt lat="43.16508" lon="5.95746">
        <ele>210.25</ele>
        <time>2022-04-04T09:18:19.636Z</time>
      </trkpt>
      <trkpt lat="43.16508" lon="5.95746">
        <ele>210.25</ele>
        <time>2022-04-04T09:18:19.636Z</time>
      </trkpt>
      <trkpt lat="43.16507" lon="5.95765">
        <ele>211.75</ele>
        <time>2022-04-04T09:18:35.278Z</time>
      </trkpt>
      <trkpt lat="43.16502" lon="5.95781">
        <ele>212.25</ele>
        <time>2022-04-04T09:18:48.948Z</time>
      </trkpt>
      <trkpt lat="43.16499" lon="5.95806">
        <ele>214.5</ele>
        <time>2022-04-04T09:19:08.664Z</time>
      </trkpt>
      <trkpt lat="43.16493" lon="5.95828">
        <ele>215.75</ele>
        <time>2022-04-04T09:19:28.095Z</time>
      </trkpt>
      <trkpt lat="43.16494" lon="5.95847">
        <ele>218.75</ele>
        <time>2022-04-04T09:19:42.983Z</time>
      </trkpt>
      <trkpt lat="43.16471" lon="5.95928">
        <ele>223.75</ele>
        <time>2022-04-04T09:20:52.016Z</time>
      </trkpt>
      <trkpt lat="43.16463" lon="5.95962">
        <ele>226</ele>
        <time>2022-04-04T09:21:20.449Z</time>
      </trkpt>
      <trkpt lat="43.16455" lon="5.95975">
        <ele>224.75</ele>
        <time>2022-04-04T09:21:34.055Z</time>
      </trkpt>
      <trkpt lat="43.16455" lon="5.9599">
        <ele>226.75</ele>
        <time>2022-04-04T09:21:46.011Z</time>
      </trkpt>
      <trkpt lat="43.16452" lon="5.96017">
        <ele>229.25</ele>
        <time>2022-04-04T09:22:07.627Z</time>
      </trkpt>
      <trkpt lat="43.16442" lon="5.96044">
        <ele>229.25</ele>
        <time>2022-04-04T09:22:31.776Z</time>
      </trkpt>
      <trkpt lat="43.16442" lon="5.96055">
        <ele>230.75</ele>
        <time>2022-04-04T09:22:40.467Z</time>
      </trkpt>
      <trkpt lat="43.16427" lon="5.96109">
        <ele>232</ele>
        <time>2022-04-04T09:23:27.070Z</time>
      </trkpt>
      <trkpt lat="43.16429" lon="5.96129">
        <ele>235.75</ele>
        <time>2022-04-04T09:23:42.697Z</time>
      </trkpt>
      <trkpt lat="43.16436" lon="5.96129">
        <ele>239</ele>
        <time>2022-04-04T09:23:50.236Z</time>
      </trkpt>
      <trkpt lat="43.16444" lon="5.9614">
        <ele>244.25</ele>
        <time>2022-04-04T09:24:03.147Z</time>
      </trkpt>
      <trkpt lat="43.16449" lon="5.96154">
        <ele>248.25</ele>
        <time>2022-04-04T09:24:15.309Z</time>
      </trkpt>
      <trkpt lat="43.16456" lon="5.96212">
        <ele>259.75</ele>
        <time>2022-04-04T09:25:02.148Z</time>
      </trkpt>
      <trkpt lat="43.16475" lon="5.96244">
        <ele>273.75</ele>
        <time>2022-04-04T09:25:34.379Z</time>
      </trkpt>
      <trkpt lat="43.16474" lon="5.96254">
        <ele>274.75</ele>
        <time>2022-04-04T09:25:42.432Z</time>
      </trkpt>
      <trkpt lat="43.16466" lon="5.96299">
        <ele>272</ele>
        <time>2022-04-04T09:26:19.632Z</time>
      </trkpt>
      <trkpt lat="43.16471" lon="5.96328">
        <ele>277.25</ele>
        <time>2022-04-04T09:26:43.746Z</time>
      </trkpt>
      <trkpt lat="43.16465" lon="5.9633">
        <ele>261.8</ele>
        <time>2022-04-04T09:26:50.573Z</time>
      </trkpt>
      <trkpt lat="43.16463" lon="5.96372">
        <ele>263</ele>
        <time>2022-04-04T09:29:27.000Z</time>
      </trkpt>
      <trkpt lat="43.16462" lon="5.9639">
        <ele>264</ele>
        <time>2022-04-04T09:29:34.000Z</time>
      </trkpt>
      <trkpt lat="43.16453" lon="5.96426">
        <ele>265</ele>
        <time>2022-04-04T09:29:47.000Z</time>
      </trkpt>
      <trkpt lat="43.16443" lon="5.96458">
        <ele>266.2</ele>
        <time>2022-04-04T09:29:59.000Z</time>
      </trkpt>
      <trkpt lat="43.1644" lon="5.96478">
        <ele>267.2</ele>
        <time>2022-04-04T09:30:05.000Z</time>
      </trkpt>
      <trkpt lat="43.16435" lon="5.96515">
        <ele>268</ele>
        <time>2022-04-04T09:30:17.000Z</time>
      </trkpt>
      <trkpt lat="43.16436" lon="5.9652">
        <ele>268</ele>
        <time>2022-04-04T09:30:19.000Z</time>
      </trkpt>
      <trkpt lat="43.16436" lon="5.96521">
        <ele>268.2</ele>
        <time>2022-04-04T09:30:20.000Z</time>
      </trkpt>
      <trkpt lat="43.16437" lon="5.96522">
        <ele>269.2</ele>
        <time>2022-04-04T09:30:26.000Z</time>
      </trkpt>
      <trkpt lat="43.16438" lon="5.96525">
        <ele>270.4</ele>
        <time>2022-04-04T09:30:34.000Z</time>
      </trkpt>
      <trkpt lat="43.16438" lon="5.96525">
        <ele>270</ele>
        <time>2022-04-04T09:31:17.000Z</time>
      </trkpt>
      <trkpt lat="43.1644" lon="5.96529">
        <ele>271</ele>
        <time>2022-04-04T09:32:16.000Z</time>
      </trkpt>
      <trkpt lat="43.1644" lon="5.96529">
        <ele>271</ele>
        <time>2022-04-04T09:32:17.000Z</time>
      </trkpt>
      <trkpt lat="43.16443" lon="5.96531">
        <ele>271.6</ele>
        <time>2022-04-04T09:32:28.000Z</time>
      </trkpt>
      <trkpt lat="43.16439" lon="5.96544">
        <ele>272.8</ele>
        <time>2022-04-04T09:32:43.000Z</time>
      </trkpt>
      <trkpt lat="43.16438" lon="5.96552">
        <ele>273.2</ele>
        <time>2022-04-04T09:32:57.000Z</time>
      </trkpt>
      <trkpt lat="43.16437" lon="5.96566">
        <ele>273.4</ele>
        <time>2022-04-04T09:33:02.000Z</time>
      </trkpt>
      <trkpt lat="43.16435" lon="5.96575">
        <ele>273.8</ele>
        <time>2022-04-04T09:33:11.000Z</time>
      </trkpt>
      <trkpt lat="43.16436" lon="5.96578">
        <ele>274</ele>
        <time>2022-04-04T09:33:19.000Z</time>
      </trkpt>
      <trkpt lat="43.16432" lon="5.96583">
        <ele>273</ele>
        <time>2022-04-04T09:33:35.000Z</time>
      </trkpt>
      <trkpt lat="43.16415" lon="5.96624">
        <ele>273</ele>
        <time>2022-04-04T09:33:45.000Z</time>
      </trkpt>
      <trkpt lat="43.16415" lon="5.96641">
        <ele>272.8</ele>
        <time>2022-04-04T09:33:47.000Z</time>
      </trkpt>
      <trkpt lat="43.16416" lon="5.96689">
        <ele>271.6</ele>
        <time>2022-04-04T09:33:52.000Z</time>
      </trkpt>
      <trkpt lat="43.16416" lon="5.9671">
        <ele>270.8</ele>
        <time>2022-04-04T09:33:54.000Z</time>
      </trkpt>
      <trkpt lat="43.16415" lon="5.9672">
        <ele>270.2</ele>
        <time>2022-04-04T09:33:55.000Z</time>
      </trkpt>
      <trkpt lat="43.16414" lon="5.9673">
        <ele>269.6</ele>
        <time>2022-04-04T09:33:56.000Z</time>
      </trkpt>
      <trkpt lat="43.16411" lon="5.96741">
        <ele>269</ele>
        <time>2022-04-04T09:33:57.000Z</time>
      </trkpt>
      <trkpt lat="43.16399" lon="5.9677">
        <ele>267.6</ele>
        <time>2022-04-04T09:34:00.000Z</time>
      </trkpt>
      <trkpt lat="43.1639" lon="5.96788">
        <ele>266.4</ele>
        <time>2022-04-04T09:34:02.000Z</time>
      </trkpt>
      <trkpt lat="43.16372" lon="5.96814">
        <ele>265.4</ele>
        <time>2022-04-04T09:34:05.000Z</time>
      </trkpt>
      <trkpt lat="43.16352" lon="5.96841">
        <ele>264</ele>
        <time>2022-04-04T09:34:08.000Z</time>
      </trkpt>
      <trkpt lat="43.1634" lon="5.96862">
        <ele>263</ele>
        <time>2022-04-04T09:34:10.000Z</time>
      </trkpt>
      <trkpt lat="43.16327" lon="5.96885">
        <ele>261.6</ele>
        <time>2022-04-04T09:34:12.000Z</time>
      </trkpt>
      <trkpt lat="43.16315" lon="5.96907">
        <ele>260.2</ele>
        <time>2022-04-04T09:34:14.000Z</time>
      </trkpt>
      <trkpt lat="43.16302" lon="5.96928">
        <ele>258.8</ele>
        <time>2022-04-04T09:34:16.000Z</time>
      </trkpt>
      <trkpt lat="43.16294" lon="5.96937">
        <ele>257.6</ele>
        <time>2022-04-04T09:34:17.000Z</time>
      </trkpt>
      <trkpt lat="43.16276" lon="5.9695">
        <ele>255.8</ele>
        <time>2022-04-04T09:34:19.000Z</time>
      </trkpt>
      <trkpt lat="43.16266" lon="5.96955">
        <ele>254.8</ele>
        <time>2022-04-04T09:34:20.000Z</time>
      </trkpt>
      <trkpt lat="43.16256" lon="5.9696">
        <ele>254</ele>
        <time>2022-04-04T09:34:21.000Z</time>
      </trkpt>
      <trkpt lat="43.16235" lon="5.96967">
        <ele>252.6</ele>
        <time>2022-04-04T09:34:23.000Z</time>
      </trkpt>
      <trkpt lat="43.16213" lon="5.96967">
        <ele>251.4</ele>
        <time>2022-04-04T09:34:25.000Z</time>
      </trkpt>
      <trkpt lat="43.1619" lon="5.96965">
        <ele>250.2</ele>
        <time>2022-04-04T09:34:27.000Z</time>
      </trkpt>
      <trkpt lat="43.16169" lon="5.96972">
        <ele>248.2</ele>
        <time>2022-04-04T09:34:29.000Z</time>
      </trkpt>
      <trkpt lat="43.16148" lon="5.96985">
        <ele>246.4</ele>
        <time>2022-04-04T09:34:31.000Z</time>
      </trkpt>
      <trkpt lat="43.16126" lon="5.96999">
        <ele>245.2</ele>
        <time>2022-04-04T09:34:33.000Z</time>
      </trkpt>
      <trkpt lat="43.16105" lon="5.97015">
        <ele>244</ele>
        <time>2022-04-04T09:34:35.000Z</time>
      </trkpt>
      <trkpt lat="43.16084" lon="5.9703">
        <ele>242.6</ele>
        <time>2022-04-04T09:34:37.000Z</time>
      </trkpt>
      <trkpt lat="43.16053" lon="5.97048">
        <ele>241.2</ele>
        <time>2022-04-04T09:34:40.000Z</time>
      </trkpt>
      <trkpt lat="43.16033" lon="5.97055">
        <ele>239.8</ele>
        <time>2022-04-04T09:34:42.000Z</time>
      </trkpt>
      <trkpt lat="43.16014" lon="5.97059">
        <ele>238.2</ele>
        <time>2022-04-04T09:34:44.000Z</time>
      </trkpt>
      <trkpt lat="43.15987" lon="5.97066">
        <ele>237</ele>
        <time>2022-04-04T09:34:47.000Z</time>
      </trkpt>
      <trkpt lat="43.15971" lon="5.97069">
        <ele>236.6</ele>
        <time>2022-04-04T09:34:49.000Z</time>
      </trkpt>
      <trkpt lat="43.1595" lon="5.97063">
        <ele>236</ele>
        <time>2022-04-04T09:34:52.000Z</time>
      </trkpt>
      <trkpt lat="43.15928" lon="5.97067">
        <ele>235.8</ele>
        <time>2022-04-04T09:34:57.000Z</time>
      </trkpt>
      <trkpt lat="43.15923" lon="5.97069">
        <ele>235.6</ele>
        <time>2022-04-04T09:34:58.000Z</time>
      </trkpt>
      <trkpt lat="43.15872" lon="5.97093">
        <ele>236</ele>
        <time>2022-04-04T09:35:12.000Z</time>
      </trkpt>
      <trkpt lat="43.15843" lon="5.97114">
        <ele>237.2</ele>
        <time>2022-04-04T09:35:21.000Z</time>
      </trkpt>
      <trkpt lat="43.15794" lon="5.97153">
        <ele>238.2</ele>
        <time>2022-04-04T09:35:34.000Z</time>
      </trkpt>
      <trkpt lat="43.1579" lon="5.97156">
        <ele>238.2</ele>
        <time>2022-04-04T09:35:35.000Z</time>
      </trkpt>
      <trkpt lat="43.15774" lon="5.97173">
        <ele>238.6</ele>
        <time>2022-04-04T09:35:39.000Z</time>
      </trkpt>
      <trkpt lat="43.15755" lon="5.97198">
        <ele>238.6</ele>
        <time>2022-04-04T09:35:45.000Z</time>
      </trkpt>
      <trkpt lat="43.15738" lon="5.97223">
        <ele>238.6</ele>
        <time>2022-04-04T09:35:51.000Z</time>
      </trkpt>
      <trkpt lat="43.15711" lon="5.97273">
        <ele>238.6</ele>
        <time>2022-04-04T09:36:02.000Z</time>
      </trkpt>
      <trkpt lat="43.15709" lon="5.97279">
        <ele>238.6</ele>
        <time>2022-04-04T09:36:03.000Z</time>
      </trkpt>
      <trkpt lat="43.15691" lon="5.9735">
        <ele>238.4</ele>
        <time>2022-04-04T09:36:15.000Z</time>
      </trkpt>
      <trkpt lat="43.15687" lon="5.97364">
        <ele>238</ele>
        <time>2022-04-04T09:36:17.000Z</time>
      </trkpt>
      <trkpt lat="43.15651" lon="5.974">
        <ele>236.8</ele>
        <time>2022-04-04T09:36:27.000Z</time>
      </trkpt>
      <trkpt lat="43.15653" lon="5.97405">
        <ele>236.6</ele>
        <time>2022-04-04T09:36:28.000Z</time>
      </trkpt>
      <trkpt lat="43.15656" lon="5.9741">
        <ele>236.2</ele>
        <time>2022-04-04T09:36:29.000Z</time>
      </trkpt>
      <trkpt lat="43.15658" lon="5.97416">
        <ele>236</ele>
        <time>2022-04-04T09:36:30.000Z</time>
      </trkpt>
      <trkpt lat="43.15663" lon="5.97428">
        <ele>234.8</ele>
        <time>2022-04-04T09:36:32.000Z</time>
      </trkpt>
      <trkpt lat="43.15666" lon="5.9744">
        <ele>234.4</ele>
        <time>2022-04-04T09:36:34.000Z</time>
      </trkpt>
      <trkpt lat="43.15675" lon="5.97513">
        <ele>235.6</ele>
        <time>2022-04-04T09:36:48.000Z</time>
      </trkpt>
      <trkpt lat="43.15675" lon="5.97517">
        <ele>236</ele>
        <time>2022-04-04T09:36:49.000Z</time>
      </trkpt>
      <trkpt lat="43.15678" lon="5.97536">
        <ele>236.8</ele>
        <time>2022-04-04T09:36:53.000Z</time>
      </trkpt>
      <trkpt lat="43.15681" lon="5.97557">
        <ele>238</ele>
        <time>2022-04-04T09:36:58.000Z</time>
      </trkpt>
      <trkpt lat="43.15686" lon="5.97577">
        <ele>239.4</ele>
        <time>2022-04-04T09:37:03.000Z</time>
      </trkpt>
      <trkpt lat="43.15689" lon="5.97594">
        <ele>240.4</ele>
        <time>2022-04-04T09:37:07.000Z</time>
      </trkpt>
      <trkpt lat="43.15693" lon="5.9761">
        <ele>241.4</ele>
        <time>2022-04-04T09:37:11.000Z</time>
      </trkpt>
      <trkpt lat="43.15696" lon="5.97626">
        <ele>242.4</ele>
        <time>2022-04-04T09:37:15.000Z</time>
      </trkpt>
      <trkpt lat="43.15701" lon="5.97648">
        <ele>243.8</ele>
        <time>2022-04-04T09:37:20.000Z</time>
      </trkpt>
      <trkpt lat="43.15706" lon="5.97667">
        <ele>244.6</ele>
        <time>2022-04-04T09:37:25.000Z</time>
      </trkpt>
      <trkpt lat="43.15708" lon="5.97685">
        <ele>245.6</ele>
        <time>2022-04-04T09:37:30.000Z</time>
      </trkpt>
      <trkpt lat="43.15708" lon="5.97698">
        <ele>247</ele>
        <time>2022-04-04T09:37:34.000Z</time>
      </trkpt>
      <trkpt lat="43.15707" lon="5.97717">
        <ele>248.2</ele>
        <time>2022-04-04T09:37:39.000Z</time>
      </trkpt>
      <trkpt lat="43.15711" lon="5.97739">
        <ele>249.6</ele>
        <time>2022-04-04T09:37:45.000Z</time>
      </trkpt>
      <trkpt lat="43.15713" lon="5.97758">
        <ele>250.6</ele>
        <time>2022-04-04T09:37:50.000Z</time>
      </trkpt>
      <trkpt lat="43.15715" lon="5.97781">
        <ele>251.6</ele>
        <time>2022-04-04T09:37:56.000Z</time>
      </trkpt>
      <trkpt lat="43.15714" lon="5.97805">
        <ele>252.8</ele>
        <time>2022-04-04T09:38:02.000Z</time>
      </trkpt>
      <trkpt lat="43.15711" lon="5.97823">
        <ele>254</ele>
        <time>2022-04-04T09:38:07.000Z</time>
      </trkpt>
      <trkpt lat="43.15706" lon="5.97837">
        <ele>255.2</ele>
        <time>2022-04-04T09:38:11.000Z</time>
      </trkpt>
      <trkpt lat="43.15693" lon="5.97853">
        <ele>256.4</ele>
        <time>2022-04-04T09:38:17.000Z</time>
      </trkpt>
      <trkpt lat="43.15684" lon="5.97853">
        <ele>257.4</ele>
        <time>2022-04-04T09:38:20.000Z</time>
      </trkpt>
      <trkpt lat="43.15664" lon="5.97843">
        <ele>258.4</ele>
        <time>2022-04-04T09:38:27.000Z</time>
      </trkpt>
      <trkpt lat="43.15644" lon="5.97851">
        <ele>259.4</ele>
        <time>2022-04-04T09:38:33.000Z</time>
      </trkpt>
      <trkpt lat="43.15645" lon="5.97856">
        <ele>259.6</ele>
        <time>2022-04-04T09:38:34.000Z</time>
      </trkpt>
      <trkpt lat="43.1565" lon="5.97869">
        <ele>260</ele>
        <time>2022-04-04T09:38:37.000Z</time>
      </trkpt>
      <trkpt lat="43.15654" lon="5.9789">
        <ele>260.6</ele>
        <time>2022-04-04T09:38:42.000Z</time>
      </trkpt>
      <trkpt lat="43.15651" lon="5.97908">
        <ele>261.6</ele>
        <time>2022-04-04T09:38:48.000Z</time>
      </trkpt>
      <trkpt lat="43.15651" lon="5.97917">
        <ele>261.6</ele>
        <time>2022-04-04T09:38:52.000Z</time>
      </trkpt>
      <trkpt lat="43.15652" lon="5.97923">
        <ele>261</ele>
        <time>2022-04-04T09:39:00.000Z</time>
      </trkpt>
      <trkpt lat="43.15653" lon="5.97938">
        <ele>260.8</ele>
        <time>2022-04-04T09:39:04.000Z</time>
      </trkpt>
      <trkpt lat="43.15665" lon="5.98015">
        <ele>260.4</ele>
        <time>2022-04-04T09:39:14.000Z</time>
      </trkpt>
      <trkpt lat="43.15673" lon="5.98094">
        <ele>259.6</ele>
        <time>2022-04-04T09:39:26.000Z</time>
      </trkpt>
      <trkpt lat="43.15675" lon="5.98099">
        <ele>259.6</ele>
        <time>2022-04-04T09:39:27.000Z</time>
      </trkpt>
      <trkpt lat="43.15705" lon="5.98166">
        <ele>260.4</ele>
        <time>2022-04-04T09:39:38.000Z</time>
      </trkpt>
      <trkpt lat="43.15722" lon="5.98205">
        <ele>260.2</ele>
        <time>2022-04-04T09:39:44.000Z</time>
      </trkpt>
      <trkpt lat="43.1571" lon="5.98244">
        <ele>259.6</ele>
        <time>2022-04-04T09:39:51.000Z</time>
      </trkpt>
      <trkpt lat="43.15706" lon="5.98247">
        <ele>259.4</ele>
        <time>2022-04-04T09:39:52.000Z</time>
      </trkpt>
      <trkpt lat="43.15694" lon="5.98286">
        <ele>259.6</ele>
        <time>2022-04-04T09:39:59.000Z</time>
      </trkpt>
      <trkpt lat="43.15694" lon="5.98292">
        <ele>259.6</ele>
        <time>2022-04-04T09:40:00.000Z</time>
      </trkpt>
      <trkpt lat="43.15697" lon="5.98316">
        <ele>260</ele>
        <time>2022-04-04T09:40:04.000Z</time>
      </trkpt>
      <trkpt lat="43.1568" lon="5.98352">
        <ele>260.4</ele>
        <time>2022-04-04T09:40:11.000Z</time>
      </trkpt>
      <trkpt lat="43.15657" lon="5.98365">
        <ele>260.4</ele>
        <time>2022-04-04T09:40:15.000Z</time>
      </trkpt>
      <trkpt lat="43.15632" lon="5.98367">
        <ele>260</ele>
        <time>2022-04-04T09:40:19.000Z</time>
      </trkpt>
      <trkpt lat="43.15627" lon="5.98368">
        <ele>260</ele>
        <time>2022-04-04T09:40:20.000Z</time>
      </trkpt>
      <trkpt lat="43.15617" lon="5.98367">
        <ele>259</ele>
        <time>2022-04-04T09:40:23.000Z</time>
      </trkpt>
      <trkpt lat="43.15612" lon="5.98365">
        <ele>258.6</ele>
        <time>2022-04-04T09:40:25.000Z</time>
      </trkpt>
      <trkpt lat="43.1556" lon="5.98339">
        <ele>258.2</ele>
        <time>2022-04-04T09:40:39.000Z</time>
      </trkpt>
      <trkpt lat="43.15558" lon="5.98335">
        <ele>258.2</ele>
        <time>2022-04-04T09:40:40.000Z</time>
      </trkpt>
      <trkpt lat="43.15558" lon="5.98327">
        <ele>257.8</ele>
        <time>2022-04-04T09:40:42.000Z</time>
      </trkpt>
      <trkpt lat="43.15559" lon="5.98313">
        <ele>256.8</ele>
        <time>2022-04-04T09:40:45.000Z</time>
      </trkpt>
      <trkpt lat="43.15553" lon="5.98288">
        <ele>255.8</ele>
        <time>2022-04-04T09:40:51.000Z</time>
      </trkpt>
      <trkpt lat="43.15552" lon="5.98285">
        <ele>255.6</ele>
        <time>2022-04-04T09:40:52.000Z</time>
      </trkpt>
      <trkpt lat="43.15529" lon="5.9827">
        <ele>255</ele>
        <time>2022-04-04T09:40:58.000Z</time>
      </trkpt>
      <trkpt lat="43.15507" lon="5.98272">
        <ele>254.8</ele>
        <time>2022-04-04T09:41:03.000Z</time>
      </trkpt>
      <trkpt lat="43.15494" lon="5.98266">
        <ele>254.6</ele>
        <time>2022-04-04T09:41:07.000Z</time>
      </trkpt>
      <trkpt lat="43.1549" lon="5.98259">
        <ele>253.6</ele>
        <time>2022-04-04T09:41:09.000Z</time>
      </trkpt>
      <trkpt lat="43.15486" lon="5.98251">
        <ele>252</ele>
        <time>2022-04-04T09:41:11.000Z</time>
      </trkpt>
      <trkpt lat="43.15481" lon="5.98245">
        <ele>250</ele>
        <time>2022-04-04T09:41:13.000Z</time>
      </trkpt>
      <trkpt lat="43.15476" lon="5.98238">
        <ele>248.4</ele>
        <time>2022-04-04T09:41:15.000Z</time>
      </trkpt>
      <trkpt lat="43.15471" lon="5.98233">
        <ele>247</ele>
        <time>2022-04-04T09:41:17.000Z</time>
      </trkpt>
      <trkpt lat="43.15464" lon="5.98227">
        <ele>246</ele>
        <time>2022-04-04T09:41:19.000Z</time>
      </trkpt>
      <trkpt lat="43.15456" lon="5.98222">
        <ele>244.2</ele>
        <time>2022-04-04T09:41:21.000Z</time>
      </trkpt>
      <trkpt lat="43.15451" lon="5.98219">
        <ele>242.4</ele>
        <time>2022-04-04T09:41:23.000Z</time>
      </trkpt>
      <trkpt lat="43.15445" lon="5.98218">
        <ele>241</ele>
        <time>2022-04-04T09:41:25.000Z</time>
      </trkpt>
      <trkpt lat="43.15437" lon="5.98216">
        <ele>239.6</ele>
        <time>2022-04-04T09:41:27.000Z</time>
      </trkpt>
      <trkpt lat="43.15433" lon="5.98215">
        <ele>238.8</ele>
        <time>2022-04-04T09:41:28.000Z</time>
      </trkpt>
      <trkpt lat="43.15429" lon="5.98214">
        <ele>238</ele>
        <time>2022-04-04T09:41:29.000Z</time>
      </trkpt>
      <trkpt lat="43.15424" lon="5.98211">
        <ele>236.4</ele>
        <time>2022-04-04T09:41:31.000Z</time>
      </trkpt>
      <trkpt lat="43.15422" lon="5.98209">
        <ele>234.8</ele>
        <time>2022-04-04T09:41:33.000Z</time>
      </trkpt>
      <trkpt lat="43.15418" lon="5.98207">
        <ele>233.4</ele>
        <time>2022-04-04T09:41:35.000Z</time>
      </trkpt>
      <trkpt lat="43.15413" lon="5.98208">
        <ele>231.8</ele>
        <time>2022-04-04T09:41:37.000Z</time>
      </trkpt>
      <trkpt lat="43.15411" lon="5.98209">
        <ele>230.8</ele>
        <time>2022-04-04T09:41:38.000Z</time>
      </trkpt>
      <trkpt lat="43.1541" lon="5.98211">
        <ele>230.2</ele>
        <time>2022-04-04T09:41:39.000Z</time>
      </trkpt>
      <trkpt lat="43.15404" lon="5.9823">
        <ele>229</ele>
        <time>2022-04-04T09:41:44.000Z</time>
      </trkpt>
      <trkpt lat="43.15398" lon="5.98249">
        <ele>227.8</ele>
        <time>2022-04-04T09:41:48.000Z</time>
      </trkpt>
      <trkpt lat="43.15396" lon="5.9826">
        <ele>226.2</ele>
        <time>2022-04-04T09:41:50.000Z</time>
      </trkpt>
      <trkpt lat="43.15394" lon="5.98271">
        <ele>224.8</ele>
        <time>2022-04-04T09:41:52.000Z</time>
      </trkpt>
      <trkpt lat="43.15392" lon="5.98281">
        <ele>223.4</ele>
        <time>2022-04-04T09:41:54.000Z</time>
      </trkpt>
      <trkpt lat="43.1539" lon="5.98291">
        <ele>221.6</ele>
        <time>2022-04-04T09:41:56.000Z</time>
      </trkpt>
      <trkpt lat="43.15387" lon="5.983">
        <ele>220.2</ele>
        <time>2022-04-04T09:41:58.000Z</time>
      </trkpt>
      <trkpt lat="43.15382" lon="5.9831">
        <ele>218.4</ele>
        <time>2022-04-04T09:42:00.000Z</time>
      </trkpt>
      <trkpt lat="43.15381" lon="5.98321">
        <ele>216.6</ele>
        <time>2022-04-04T09:42:02.000Z</time>
      </trkpt>
      <trkpt lat="43.1538" lon="5.98326">
        <ele>215.6</ele>
        <time>2022-04-04T09:42:03.000Z</time>
      </trkpt>
      <trkpt lat="43.15379" lon="5.98331">
        <ele>214.8</ele>
        <time>2022-04-04T09:42:04.000Z</time>
      </trkpt>
      <trkpt lat="43.15377" lon="5.98335">
        <ele>213.8</ele>
        <time>2022-04-04T09:42:05.000Z</time>
      </trkpt>
      <trkpt lat="43.15374" lon="5.98339">
        <ele>212.8</ele>
        <time>2022-04-04T09:42:06.000Z</time>
      </trkpt>
      <trkpt lat="43.15373" lon="5.98349">
        <ele>211.2</ele>
        <time>2022-04-04T09:42:08.000Z</time>
      </trkpt>
      <trkpt lat="43.15374" lon="5.98353">
        <ele>210</ele>
        <time>2022-04-04T09:42:09.000Z</time>
      </trkpt>
      <trkpt lat="43.15372" lon="5.98364">
        <ele>208.4</ele>
        <time>2022-04-04T09:42:11.000Z</time>
      </trkpt>
      <trkpt lat="43.1537" lon="5.98374">
        <ele>206.4</ele>
        <time>2022-04-04T09:42:13.000Z</time>
      </trkpt>
      <trkpt lat="43.15369" lon="5.98388">
        <ele>204.4</ele>
        <time>2022-04-04T09:42:15.000Z</time>
      </trkpt>
      <trkpt lat="43.1537" lon="5.98403">
        <ele>203.2</ele>
        <time>2022-04-04T09:42:17.000Z</time>
      </trkpt>
      <trkpt lat="43.1537" lon="5.9841">
        <ele>202.8</ele>
        <time>2022-04-04T09:42:18.000Z</time>
      </trkpt>
      <trkpt lat="43.1537" lon="5.98416">
        <ele>202.2</ele>
        <time>2022-04-04T09:42:19.000Z</time>
      </trkpt>
      <trkpt lat="43.15368" lon="5.98432">
        <ele>200</ele>
        <time>2022-04-04T09:42:22.000Z</time>
      </trkpt>
      <trkpt lat="43.15366" lon="5.98445">
        <ele>199.2</ele>
        <time>2022-04-04T09:42:24.000Z</time>
      </trkpt>
      <trkpt lat="43.15365" lon="5.98451">
        <ele>198.8</ele>
        <time>2022-04-04T09:42:25.000Z</time>
      </trkpt>
      <trkpt lat="43.15363" lon="5.98463">
        <ele>197.8</ele>
        <time>2022-04-04T09:42:27.000Z</time>
      </trkpt>
      <trkpt lat="43.15361" lon="5.98469">
        <ele>197</ele>
        <time>2022-04-04T09:42:28.000Z</time>
      </trkpt>
      <trkpt lat="43.15358" lon="5.98473">
        <ele>196.4</ele>
        <time>2022-04-04T09:42:29.000Z</time>
      </trkpt>
      <trkpt lat="43.15343" lon="5.98486">
        <ele>195.2</ele>
        <time>2022-04-04T09:42:32.000Z</time>
      </trkpt>
      <trkpt lat="43.15333" lon="5.98495">
        <ele>194.2</ele>
        <time>2022-04-04T09:42:34.000Z</time>
      </trkpt>
      <trkpt lat="43.15324" lon="5.98503">
        <ele>192.4</ele>
        <time>2022-04-04T09:42:36.000Z</time>
      </trkpt>
      <trkpt lat="43.15318" lon="5.9851">
        <ele>191.2</ele>
        <time>2022-04-04T09:42:38.000Z</time>
      </trkpt>
      <trkpt lat="43.15307" lon="5.9852">
        <ele>190</ele>
        <time>2022-04-04T09:42:41.000Z</time>
      </trkpt>
      <trkpt lat="43.15296" lon="5.98529">
        <ele>189.8</ele>
        <time>2022-04-04T09:42:44.000Z</time>
      </trkpt>
      <trkpt lat="43.15285" lon="5.98535">
        <ele>189.8</ele>
        <time>2022-04-04T09:42:47.000Z</time>
      </trkpt>
      <trkpt lat="43.1525" lon="5.98564">
        <ele>189.2</ele>
        <time>2022-04-04T09:42:56.000Z</time>
      </trkpt>
      <trkpt lat="43.15248" lon="5.98568">
        <ele>189</ele>
        <time>2022-04-04T09:42:57.000Z</time>
      </trkpt>
      <trkpt lat="43.15244" lon="5.98582">
        <ele>187.8</ele>
        <time>2022-04-04T09:43:00.000Z</time>
      </trkpt>
      <trkpt lat="43.15245" lon="5.98598">
        <ele>186.2</ele>
        <time>2022-04-04T09:43:03.000Z</time>
      </trkpt>
      <trkpt lat="43.15245" lon="5.98602">
        <ele>185.6</ele>
        <time>2022-04-04T09:43:04.000Z</time>
      </trkpt>
      <trkpt lat="43.15243" lon="5.98604">
        <ele>184.6</ele>
        <time>2022-04-04T09:43:05.000Z</time>
      </trkpt>
      <trkpt lat="43.15238" lon="5.98604">
        <ele>183.6</ele>
        <time>2022-04-04T09:43:07.000Z</time>
      </trkpt>
      <trkpt lat="43.15232" lon="5.98597">
        <ele>182.4</ele>
        <time>2022-04-04T09:43:10.000Z</time>
      </trkpt>
      <trkpt lat="43.15227" lon="5.98583">
        <ele>181</ele>
        <time>2022-04-04T09:43:14.000Z</time>
      </trkpt>
      <trkpt lat="43.15225" lon="5.98569">
        <ele>180.4</ele>
        <time>2022-04-04T09:43:17.000Z</time>
      </trkpt>
      <trkpt lat="43.15221" lon="5.9857">
        <ele>179.6</ele>
        <time>2022-04-04T09:43:19.000Z</time>
      </trkpt>
      <trkpt lat="43.15218" lon="5.98577">
        <ele>178.8</ele>
        <time>2022-04-04T09:43:21.000Z</time>
      </trkpt>
      <trkpt lat="43.15217" lon="5.98582">
        <ele>178</ele>
        <time>2022-04-04T09:43:22.000Z</time>
      </trkpt>
      <trkpt lat="43.15217" lon="5.986">
        <ele>176.8</ele>
        <time>2022-04-04T09:43:25.000Z</time>
      </trkpt>
      <trkpt lat="43.15216" lon="5.98607">
        <ele>176.2</ele>
        <time>2022-04-04T09:43:26.000Z</time>
      </trkpt>
      <trkpt lat="43.15216" lon="5.98616">
        <ele>175.6</ele>
        <time>2022-04-04T09:43:28.000Z</time>
      </trkpt>
      <trkpt lat="43.15219" lon="5.98626">
        <ele>174.2</ele>
        <time>2022-04-04T09:43:31.000Z</time>
      </trkpt>
      <trkpt lat="43.15222" lon="5.98635">
        <ele>173</ele>
        <time>2022-04-04T09:43:33.000Z</time>
      </trkpt>
      <trkpt lat="43.1522" lon="5.98636">
        <ele>172.4</ele>
        <time>2022-04-04T09:43:35.000Z</time>
      </trkpt>
      <trkpt lat="43.15215" lon="5.98632">
        <ele>171.6</ele>
        <time>2022-04-04T09:43:37.000Z</time>
      </trkpt>
      <trkpt lat="43.15212" lon="5.98627">
        <ele>170</ele>
        <time>2022-04-04T09:43:39.000Z</time>
      </trkpt>
      <trkpt lat="43.1521" lon="5.98621">
        <ele>169</ele>
        <time>2022-04-04T09:43:41.000Z</time>
      </trkpt>
      <trkpt lat="43.15205" lon="5.98609">
        <ele>168</ele>
        <time>2022-04-04T09:43:45.000Z</time>
      </trkpt>
      <trkpt lat="43.15198" lon="5.98611">
        <ele>166.8</ele>
        <time>2022-04-04T09:43:50.000Z</time>
      </trkpt>
      <trkpt lat="43.15198" lon="5.98615">
        <ele>166.8</ele>
        <time>2022-04-04T09:43:51.000Z</time>
      </trkpt>
      <trkpt lat="43.15199" lon="5.98626">
        <ele>166</ele>
        <time>2022-04-04T09:43:53.000Z</time>
      </trkpt>
      <trkpt lat="43.152" lon="5.98632">
        <ele>165.6</ele>
        <time>2022-04-04T09:43:54.000Z</time>
      </trkpt>
      <trkpt lat="43.15203" lon="5.98642">
        <ele>164.6</ele>
        <time>2022-04-04T09:43:56.000Z</time>
      </trkpt>
      <trkpt lat="43.15204" lon="5.98646">
        <ele>164.4</ele>
        <time>2022-04-04T09:43:57.000Z</time>
      </trkpt>
      <trkpt lat="43.15208" lon="5.98656">
        <ele>163.4</ele>
        <time>2022-04-04T09:44:00.000Z</time>
      </trkpt>
      <trkpt lat="43.15209" lon="5.9866">
        <ele>163.2</ele>
        <time>2022-04-04T09:44:01.000Z</time>
      </trkpt>
      <trkpt lat="43.15205" lon="5.98661">
        <ele>162.2</ele>
        <time>2022-04-04T09:44:04.000Z</time>
      </trkpt>
      <trkpt lat="43.15201" lon="5.98658">
        <ele>160.8</ele>
        <time>2022-04-04T09:44:06.000Z</time>
      </trkpt>
      <trkpt lat="43.15198" lon="5.98652">
        <ele>159.4</ele>
        <time>2022-04-04T09:44:08.000Z</time>
      </trkpt>
      <trkpt lat="43.15191" lon="5.98643">
        <ele>158.4</ele>
        <time>2022-04-04T09:44:11.000Z</time>
      </trkpt>
      <trkpt lat="43.15188" lon="5.98639">
        <ele>158.2</ele>
        <time>2022-04-04T09:44:12.000Z</time>
      </trkpt>
      <trkpt lat="43.15176" lon="5.98619">
        <ele>157.2</ele>
        <time>2022-04-04T09:44:17.000Z</time>
      </trkpt>
      <trkpt lat="43.15169" lon="5.98607">
        <ele>156.2</ele>
        <time>2022-04-04T09:44:21.000Z</time>
      </trkpt>
      <trkpt lat="43.15169" lon="5.98605">
        <ele>155.6</ele>
        <time>2022-04-04T09:44:22.000Z</time>
      </trkpt>
      <trkpt lat="43.15169" lon="5.98598">
        <ele>154.6</ele>
        <time>2022-04-04T09:44:24.000Z</time>
      </trkpt>
      <trkpt lat="43.15166" lon="5.98588">
        <ele>153.2</ele>
        <time>2022-04-04T09:44:26.000Z</time>
      </trkpt>
      <trkpt lat="43.15164" lon="5.98578">
        <ele>151.6</ele>
        <time>2022-04-04T09:44:28.000Z</time>
      </trkpt>
      <trkpt lat="43.15164" lon="5.98563">
        <ele>150.4</ele>
        <time>2022-04-04T09:44:31.000Z</time>
      </trkpt>
      <trkpt lat="43.15165" lon="5.9855">
        <ele>149.2</ele>
        <time>2022-04-04T09:44:34.000Z</time>
      </trkpt>
      <trkpt lat="43.15167" lon="5.98544">
        <ele>147.6</ele>
        <time>2022-04-04T09:44:36.000Z</time>
      </trkpt>
      <trkpt lat="43.15168" lon="5.98537">
        <ele>146.4</ele>
        <time>2022-04-04T09:44:38.000Z</time>
      </trkpt>
      <trkpt lat="43.15167" lon="5.98534">
        <ele>145.2</ele>
        <time>2022-04-04T09:44:40.000Z</time>
      </trkpt>
      <trkpt lat="43.15165" lon="5.98536">
        <ele>144.6</ele>
        <time>2022-04-04T09:44:42.000Z</time>
      </trkpt>
      <trkpt lat="43.15163" lon="5.98538">
        <ele>144</ele>
        <time>2022-04-04T09:44:43.000Z</time>
      </trkpt>
      <trkpt lat="43.15153" lon="5.98557">
        <ele>143</ele>
        <time>2022-04-04T09:44:48.000Z</time>
      </trkpt>
      <trkpt lat="43.1515" lon="5.98564">
        <ele>143</ele>
        <time>2022-04-04T09:44:49.000Z</time>
      </trkpt>
      <trkpt lat="43.15148" lon="5.98571">
        <ele>142.8</ele>
        <time>2022-04-04T09:44:50.000Z</time>
      </trkpt>
      <trkpt lat="43.15141" lon="5.98598">
        <ele>141.8</ele>
        <time>2022-04-04T09:44:54.000Z</time>
      </trkpt>
      <trkpt lat="43.1514" lon="5.98612">
        <ele>141.2</ele>
        <time>2022-04-04T09:44:56.000Z</time>
      </trkpt>
      <trkpt lat="43.1514" lon="5.98619">
        <ele>140.6</ele>
        <time>2022-04-04T09:44:57.000Z</time>
      </trkpt>
      <trkpt lat="43.15141" lon="5.98631">
        <ele>139.4</ele>
        <time>2022-04-04T09:44:59.000Z</time>
      </trkpt>
      <trkpt lat="43.15142" lon="5.98638">
        <ele>138.2</ele>
        <time>2022-04-04T09:45:01.000Z</time>
      </trkpt>
      <trkpt lat="43.15142" lon="5.98651">
        <ele>137.2</ele>
        <time>2022-04-04T09:45:04.000Z</time>
      </trkpt>
      <trkpt lat="43.15142" lon="5.98662">
        <ele>136</ele>
        <time>2022-04-04T09:45:06.000Z</time>
      </trkpt>
      <trkpt lat="43.15145" lon="5.98686">
        <ele>134.8</ele>
        <time>2022-04-04T09:45:09.000Z</time>
      </trkpt>
      <trkpt lat="43.15151" lon="5.98734">
        <ele>133.4</ele>
        <time>2022-04-04T09:45:14.000Z</time>
      </trkpt>
      <trkpt lat="43.15151" lon="5.98744">
        <ele>132.2</ele>
        <time>2022-04-04T09:45:17.000Z</time>
      </trkpt>
      <trkpt lat="43.15152" lon="5.98748">
        <ele>131</ele>
        <time>2022-04-04T09:45:19.000Z</time>
      </trkpt>
      <trkpt lat="43.15154" lon="5.98751">
        <ele>128.8</ele>
        <time>2022-04-04T09:45:21.000Z</time>
      </trkpt>
      <trkpt lat="43.15156" lon="5.98757">
        <ele>127.2</ele>
        <time>2022-04-04T09:45:23.000Z</time>
      </trkpt>
      <trkpt lat="43.15159" lon="5.98771">
        <ele>126</ele>
        <time>2022-04-04T09:45:26.000Z</time>
      </trkpt>
      <trkpt lat="43.15159" lon="5.98775">
        <ele>125.6</ele>
        <time>2022-04-04T09:45:27.000Z</time>
      </trkpt>
      <trkpt lat="43.15152" lon="5.98783">
        <ele>125.2</ele>
        <time>2022-04-04T09:45:32.000Z</time>
      </trkpt>
      <trkpt lat="43.15151" lon="5.98784">
        <ele>124.8</ele>
        <time>2022-04-04T09:45:33.000Z</time>
      </trkpt>
      <trkpt lat="43.1515" lon="5.9879">
        <ele>123.8</ele>
        <time>2022-04-04T09:45:35.000Z</time>
      </trkpt>
      <trkpt lat="43.15154" lon="5.98801">
        <ele>122.6</ele>
        <time>2022-04-04T09:45:38.000Z</time>
      </trkpt>
      <trkpt lat="43.15176" lon="5.98871">
        <ele>123.4</ele>
        <time>2022-04-04T09:45:55.000Z</time>
      </trkpt>
      <trkpt lat="43.15185" lon="5.98903">
        <ele>123.4</ele>
        <time>2022-04-04T09:46:09.000Z</time>
      </trkpt>
    </trkseg>
  </trk>
</gpx>